<?xml version="1.0" encoding="UTF-8" standalone="no" ?>
<gpx xmlns="http://www.topografix.com/GPX/1/1" xmlns:xsi="http://www.w3.org/2001/XMLSchema-instance" xsi:schemaLocation="http://www.topografix.com/GPX/1/1 http://www.topografix.com/GPX/1/1/gpx.xsd" version="1.1" creator="VisuGPX - https://www.visugpx.com">
  <metadata>
    <name>20260901-sotteville sous le val</name>
    <desc><![CDATA[Boucle A-R au départ de l'aire de jeux]]></desc>
  </metadata>
  <trk>
    <name><![CDATA[SityTrail - 20260901-sotteville sous le val]]></name>
    <desc><![CDATA[Boucle A-R au départ de l'aire de jeux]]></desc>
    <trkseg>
      <trkpt lat="49.31786" lon="1.1226">
        <ele>6</ele>
        <time>2026-09-01T07:29:01.863Z</time>
      </trkpt>
      <trkpt lat="49.31785" lon="1.12279">
        <ele>6</ele>
        <time>2026-09-01T07:30:43.861Z</time>
      </trkpt>
      <trkpt lat="49.31785" lon="1.12279">
        <ele>6</ele>
        <time>2026-09-01T07:31:11.862Z</time>
      </trkpt>
      <trkpt lat="49.31785" lon="1.12279">
        <ele>6</ele>
        <time>2026-09-01T07:31:16.861Z</time>
      </trkpt>
      <trkpt lat="49.31785" lon="1.1228">
        <ele>6</ele>
        <time>2026-09-01T07:31:21.861Z</time>
      </trkpt>
      <trkpt lat="49.31785" lon="1.12281">
        <ele>6</ele>
        <time>2026-09-01T07:31:26.582Z</time>
      </trkpt>
      <trkpt lat="49.31785" lon="1.1229">
        <ele>6</ele>
        <time>2026-09-01T07:32:31.861Z</time>
      </trkpt>
      <trkpt lat="49.31786" lon="1.12293">
        <ele>6</ele>
        <time>2026-09-01T07:32:36.326Z</time>
      </trkpt>
      <trkpt lat="49.31788" lon="1.12302">
        <ele>6</ele>
        <time>2026-09-01T07:32:40.865Z</time>
      </trkpt>
      <trkpt lat="49.31789" lon="1.12311">
        <ele>6</ele>
        <time>2026-09-01T07:32:45.281Z</time>
      </trkpt>
      <trkpt lat="49.3179" lon="1.12319">
        <ele>7</ele>
        <time>2026-09-01T07:32:49.662Z</time>
      </trkpt>
      <trkpt lat="49.31792" lon="1.12328">
        <ele>7</ele>
        <time>2026-09-01T07:32:54.087Z</time>
      </trkpt>
      <trkpt lat="49.31793" lon="1.12337">
        <ele>8</ele>
        <time>2026-09-01T07:32:58.503Z</time>
      </trkpt>
      <trkpt lat="49.31794" lon="1.12345">
        <ele>8</ele>
        <time>2026-09-01T07:33:02.861Z</time>
      </trkpt>
      <trkpt lat="49.31795" lon="1.12354">
        <ele>8</ele>
        <time>2026-09-01T07:33:07.326Z</time>
      </trkpt>
      <trkpt lat="49.31794" lon="1.1236">
        <ele>8</ele>
        <time>2026-09-01T07:33:11.707Z</time>
      </trkpt>
      <trkpt lat="49.31792" lon="1.1237">
        <ele>8</ele>
        <time>2026-09-01T07:33:16.123Z</time>
      </trkpt>
      <trkpt lat="49.31788" lon="1.12376">
        <ele>7</ele>
        <time>2026-09-01T07:33:20.548Z</time>
      </trkpt>
      <trkpt lat="49.31782" lon="1.12377">
        <ele>7</ele>
        <time>2026-09-01T07:33:24.862Z</time>
      </trkpt>
      <trkpt lat="49.31776" lon="1.12378">
        <ele>7</ele>
        <time>2026-09-01T07:33:29.283Z</time>
      </trkpt>
      <trkpt lat="49.31771" lon="1.1238">
        <ele>7</ele>
        <time>2026-09-01T07:33:33.699Z</time>
      </trkpt>
      <trkpt lat="49.31765" lon="1.12382">
        <ele>7</ele>
        <time>2026-09-01T07:33:38.063Z</time>
      </trkpt>
      <trkpt lat="49.3176" lon="1.12386">
        <ele>6</ele>
        <time>2026-09-01T07:33:42.461Z</time>
      </trkpt>
      <trkpt lat="49.31756" lon="1.1239">
        <ele>6</ele>
        <time>2026-09-01T07:33:46.861Z</time>
      </trkpt>
      <trkpt lat="49.31751" lon="1.12395">
        <ele>6</ele>
        <time>2026-09-01T07:33:51.223Z</time>
      </trkpt>
      <trkpt lat="49.31747" lon="1.12402">
        <ele>6</ele>
        <time>2026-09-01T07:33:55.683Z</time>
      </trkpt>
      <trkpt lat="49.31743" lon="1.12407">
        <ele>6</ele>
        <time>2026-09-01T07:34:00.028Z</time>
      </trkpt>
      <trkpt lat="49.31738" lon="1.12414">
        <ele>6</ele>
        <time>2026-09-01T07:34:04.585Z</time>
      </trkpt>
      <trkpt lat="49.31734" lon="1.1242">
        <ele>5</ele>
        <time>2026-09-01T07:34:09.027Z</time>
      </trkpt>
      <trkpt lat="49.3173" lon="1.12427">
        <ele>5</ele>
        <time>2026-09-01T07:34:13.523Z</time>
      </trkpt>
      <trkpt lat="49.31726" lon="1.12433">
        <ele>4</ele>
        <time>2026-09-01T07:34:17.982Z</time>
      </trkpt>
      <trkpt lat="49.31722" lon="1.12438">
        <ele>4</ele>
        <time>2026-09-01T07:34:22.021Z</time>
      </trkpt>
      <trkpt lat="49.31719" lon="1.12444">
        <ele>4</ele>
        <time>2026-09-01T07:34:26.542Z</time>
      </trkpt>
      <trkpt lat="49.31715" lon="1.12451">
        <ele>4</ele>
        <time>2026-09-01T07:34:31.081Z</time>
      </trkpt>
      <trkpt lat="49.31712" lon="1.12457">
        <ele>4</ele>
        <time>2026-09-01T07:34:35.620Z</time>
      </trkpt>
      <trkpt lat="49.3171" lon="1.12463">
        <ele>4</ele>
        <time>2026-09-01T07:34:39.703Z</time>
      </trkpt>
      <trkpt lat="49.31706" lon="1.1247">
        <ele>5</ele>
        <time>2026-09-01T07:34:44.242Z</time>
      </trkpt>
      <trkpt lat="49.31702" lon="1.12476">
        <ele>5</ele>
        <time>2026-09-01T07:34:48.702Z</time>
      </trkpt>
      <trkpt lat="49.31699" lon="1.12483">
        <ele>5</ele>
        <time>2026-09-01T07:34:53.223Z</time>
      </trkpt>
      <trkpt lat="49.31697" lon="1.1249">
        <ele>5</ele>
        <time>2026-09-01T07:34:57.700Z</time>
      </trkpt>
      <trkpt lat="49.31693" lon="1.12495">
        <ele>5</ele>
        <time>2026-09-01T07:35:01.800Z</time>
      </trkpt>
      <trkpt lat="49.31689" lon="1.12495">
        <ele>5</ele>
        <time>2026-09-01T07:35:05.861Z</time>
      </trkpt>
      <trkpt lat="49.31687" lon="1.125">
        <ele>5</ele>
        <time>2026-09-01T07:35:09.877Z</time>
      </trkpt>
      <trkpt lat="49.31683" lon="1.12505">
        <ele>5</ele>
        <time>2026-09-01T07:35:14.662Z</time>
      </trkpt>
      <trkpt lat="49.31681" lon="1.12507">
        <ele>5</ele>
        <time>2026-09-01T07:35:18.841Z</time>
      </trkpt>
      <trkpt lat="49.31677" lon="1.12512">
        <ele>7</ele>
        <time>2026-09-01T07:35:23.047Z</time>
      </trkpt>
      <trkpt lat="49.31673" lon="1.12515">
        <ele>7</ele>
        <time>2026-09-01T07:35:27.103Z</time>
      </trkpt>
      <trkpt lat="49.31669" lon="1.12519">
        <ele>7</ele>
        <time>2026-09-01T07:35:31.247Z</time>
      </trkpt>
      <trkpt lat="49.31665" lon="1.12524">
        <ele>7</ele>
        <time>2026-09-01T07:35:35.399Z</time>
      </trkpt>
      <trkpt lat="49.31662" lon="1.1253">
        <ele>7</ele>
        <time>2026-09-01T07:35:39.561Z</time>
      </trkpt>
      <trkpt lat="49.31658" lon="1.12535">
        <ele>7</ele>
        <time>2026-09-01T07:35:43.722Z</time>
      </trkpt>
      <trkpt lat="49.31654" lon="1.1254">
        <ele>7</ele>
        <time>2026-09-01T07:35:48.261Z</time>
      </trkpt>
      <trkpt lat="49.3165" lon="1.12542">
        <ele>7</ele>
        <time>2026-09-01T07:35:52.361Z</time>
      </trkpt>
      <trkpt lat="49.31645" lon="1.12544">
        <ele>7</ele>
        <time>2026-09-01T07:35:56.382Z</time>
      </trkpt>
      <trkpt lat="49.31639" lon="1.12546">
        <ele>7</ele>
        <time>2026-09-01T07:36:00.861Z</time>
      </trkpt>
      <trkpt lat="49.31635" lon="1.1255">
        <ele>7</ele>
        <time>2026-09-01T07:36:05.522Z</time>
      </trkpt>
      <trkpt lat="49.3163" lon="1.12556">
        <ele>7</ele>
        <time>2026-09-01T07:36:10.122Z</time>
      </trkpt>
      <trkpt lat="49.31626" lon="1.1256">
        <ele>7</ele>
        <time>2026-09-01T07:36:14.266Z</time>
      </trkpt>
      <trkpt lat="49.31624" lon="1.12562">
        <ele>7</ele>
        <time>2026-09-01T07:36:18.861Z</time>
      </trkpt>
      <trkpt lat="49.31624" lon="1.12563">
        <ele>7</ele>
        <time>2026-09-01T07:36:23.063Z</time>
      </trkpt>
      <trkpt lat="49.31619" lon="1.12567">
        <ele>7</ele>
        <time>2026-09-01T07:36:27.128Z</time>
      </trkpt>
      <trkpt lat="49.31614" lon="1.12569">
        <ele>7</ele>
        <time>2026-09-01T07:36:31.667Z</time>
      </trkpt>
      <trkpt lat="49.3161" lon="1.12574">
        <ele>7</ele>
        <time>2026-09-01T07:36:35.705Z</time>
      </trkpt>
      <trkpt lat="49.31606" lon="1.1258">
        <ele>7</ele>
        <time>2026-09-01T07:36:40.446Z</time>
      </trkpt>
      <trkpt lat="49.31604" lon="1.12585">
        <ele>7</ele>
        <time>2026-09-01T07:36:44.441Z</time>
      </trkpt>
      <trkpt lat="49.316" lon="1.12588">
        <ele>7</ele>
        <time>2026-09-01T07:36:48.567Z</time>
      </trkpt>
      <trkpt lat="49.31596" lon="1.12591">
        <ele>6</ele>
        <time>2026-09-01T07:36:52.641Z</time>
      </trkpt>
      <trkpt lat="49.31592" lon="1.12592">
        <ele>6</ele>
        <time>2026-09-01T07:36:56.723Z</time>
      </trkpt>
      <trkpt lat="49.31587" lon="1.1259">
        <ele>6</ele>
        <time>2026-09-01T07:37:00.861Z</time>
      </trkpt>
      <trkpt lat="49.31582" lon="1.12591">
        <ele>6</ele>
        <time>2026-09-01T07:37:05.186Z</time>
      </trkpt>
      <trkpt lat="49.31579" lon="1.12597">
        <ele>6</ele>
        <time>2026-09-01T07:37:09.861Z</time>
      </trkpt>
      <trkpt lat="49.31576" lon="1.12602">
        <ele>6</ele>
        <time>2026-09-01T07:37:14.027Z</time>
      </trkpt>
      <trkpt lat="49.31572" lon="1.12607">
        <ele>6</ele>
        <time>2026-09-01T07:37:18.320Z</time>
      </trkpt>
      <trkpt lat="49.31569" lon="1.12612">
        <ele>5</ele>
        <time>2026-09-01T07:37:22.861Z</time>
      </trkpt>
      <trkpt lat="49.31565" lon="1.12616">
        <ele>5</ele>
        <time>2026-09-01T07:37:27.257Z</time>
      </trkpt>
      <trkpt lat="49.3156" lon="1.1262">
        <ele>5</ele>
        <time>2026-09-01T07:37:31.861Z</time>
      </trkpt>
      <trkpt lat="49.3156" lon="1.12623">
        <ele>5</ele>
        <time>2026-09-01T07:37:36.300Z</time>
      </trkpt>
      <trkpt lat="49.31565" lon="1.12618">
        <ele>5</ele>
        <time>2026-09-01T07:37:40.725Z</time>
      </trkpt>
      <trkpt lat="49.31568" lon="1.12613">
        <ele>5</ele>
        <time>2026-09-01T07:37:44.746Z</time>
      </trkpt>
      <trkpt lat="49.31572" lon="1.12606">
        <ele>6</ele>
        <time>2026-09-01T07:37:49.162Z</time>
      </trkpt>
      <trkpt lat="49.31576" lon="1.12601">
        <ele>6</ele>
        <time>2026-09-01T07:37:53.508Z</time>
      </trkpt>
      <trkpt lat="49.31576" lon="1.12593">
        <ele>6</ele>
        <time>2026-09-01T07:37:57.862Z</time>
      </trkpt>
      <trkpt lat="49.31573" lon="1.12588">
        <ele>6</ele>
        <time>2026-09-01T07:38:02.861Z</time>
      </trkpt>
      <trkpt lat="49.31569" lon="1.12587">
        <ele>5</ele>
        <time>2026-09-01T07:38:06.861Z</time>
      </trkpt>
      <trkpt lat="49.31566" lon="1.12582">
        <ele>5</ele>
        <time>2026-09-01T07:38:11.303Z</time>
      </trkpt>
      <trkpt lat="49.31563" lon="1.12577">
        <ele>5</ele>
        <time>2026-09-01T07:38:15.862Z</time>
      </trkpt>
      <trkpt lat="49.31561" lon="1.12571">
        <ele>5</ele>
        <time>2026-09-01T07:38:20.724Z</time>
      </trkpt>
      <trkpt lat="49.31562" lon="1.12563">
        <ele>6</ele>
        <time>2026-09-01T07:38:24.861Z</time>
      </trkpt>
      <trkpt lat="49.31564" lon="1.12554">
        <ele>6</ele>
        <time>2026-09-01T07:38:29.082Z</time>
      </trkpt>
      <trkpt lat="49.31566" lon="1.12547">
        <ele>6</ele>
        <time>2026-09-01T07:38:33.305Z</time>
      </trkpt>
      <trkpt lat="49.31565" lon="1.12541">
        <ele>6</ele>
        <time>2026-09-01T07:38:37.343Z</time>
      </trkpt>
      <trkpt lat="49.31563" lon="1.12534">
        <ele>6</ele>
        <time>2026-09-01T07:38:41.382Z</time>
      </trkpt>
      <trkpt lat="49.31564" lon="1.12527">
        <ele>6</ele>
        <time>2026-09-01T07:38:45.587Z</time>
      </trkpt>
      <trkpt lat="49.31564" lon="1.1252">
        <ele>6</ele>
        <time>2026-09-01T07:38:49.643Z</time>
      </trkpt>
      <trkpt lat="49.31565" lon="1.12513">
        <ele>6</ele>
        <time>2026-09-01T07:38:53.708Z</time>
      </trkpt>
      <trkpt lat="49.31566" lon="1.12506">
        <ele>6</ele>
        <time>2026-09-01T07:38:57.860Z</time>
      </trkpt>
      <trkpt lat="49.31566" lon="1.12498">
        <ele>6</ele>
        <time>2026-09-01T07:39:01.862Z</time>
      </trkpt>
      <trkpt lat="49.31566" lon="1.12491">
        <ele>6</ele>
        <time>2026-09-01T07:39:06.060Z</time>
      </trkpt>
      <trkpt lat="49.31566" lon="1.12483">
        <ele>6</ele>
        <time>2026-09-01T07:39:10.861Z</time>
      </trkpt>
      <trkpt lat="49.31566" lon="1.12481">
        <ele>6</ele>
        <time>2026-09-01T07:39:39.861Z</time>
      </trkpt>
      <trkpt lat="49.31566" lon="1.1248">
        <ele>6</ele>
        <time>2026-09-01T07:39:43.861Z</time>
      </trkpt>
      <trkpt lat="49.31567" lon="1.12477">
        <ele>6</ele>
        <time>2026-09-01T07:39:48.245Z</time>
      </trkpt>
      <trkpt lat="49.31568" lon="1.12471">
        <ele>6</ele>
        <time>2026-09-01T07:39:52.860Z</time>
      </trkpt>
      <trkpt lat="49.31568" lon="1.12464">
        <ele>6</ele>
        <time>2026-09-01T07:39:57.384Z</time>
      </trkpt>
      <trkpt lat="49.31567" lon="1.12457">
        <ele>6</ele>
        <time>2026-09-01T07:40:01.721Z</time>
      </trkpt>
      <trkpt lat="49.31567" lon="1.12451">
        <ele>6</ele>
        <time>2026-09-01T07:40:06.084Z</time>
      </trkpt>
      <trkpt lat="49.31566" lon="1.12444">
        <ele>6</ele>
        <time>2026-09-01T07:40:10.482Z</time>
      </trkpt>
      <trkpt lat="49.31566" lon="1.12437">
        <ele>6</ele>
        <time>2026-09-01T07:40:14.802Z</time>
      </trkpt>
      <trkpt lat="49.31566" lon="1.1243">
        <ele>7</ele>
        <time>2026-09-01T07:40:19.226Z</time>
      </trkpt>
      <trkpt lat="49.31567" lon="1.12424">
        <ele>7</ele>
        <time>2026-09-01T07:40:23.282Z</time>
      </trkpt>
      <trkpt lat="49.31567" lon="1.12418">
        <ele>7</ele>
        <time>2026-09-01T07:40:27.365Z</time>
      </trkpt>
      <trkpt lat="49.31567" lon="1.12411">
        <ele>7</ele>
        <time>2026-09-01T07:40:31.500Z</time>
      </trkpt>
      <trkpt lat="49.31566" lon="1.12404">
        <ele>7</ele>
        <time>2026-09-01T07:40:35.784Z</time>
      </trkpt>
      <trkpt lat="49.31566" lon="1.12397">
        <ele>7</ele>
        <time>2026-09-01T07:40:40.165Z</time>
      </trkpt>
      <trkpt lat="49.31565" lon="1.1239">
        <ele>7</ele>
        <time>2026-09-01T07:40:44.563Z</time>
      </trkpt>
      <trkpt lat="49.31565" lon="1.12384">
        <ele>7</ele>
        <time>2026-09-01T07:40:48.646Z</time>
      </trkpt>
      <trkpt lat="49.31565" lon="1.12378">
        <ele>7</ele>
        <time>2026-09-01T07:40:52.860Z</time>
      </trkpt>
      <trkpt lat="49.31566" lon="1.12371">
        <ele>8</ele>
        <time>2026-09-01T07:40:57.021Z</time>
      </trkpt>
      <trkpt lat="49.31566" lon="1.12364">
        <ele>8</ele>
        <time>2026-09-01T07:41:01.200Z</time>
      </trkpt>
      <trkpt lat="49.31567" lon="1.12356">
        <ele>8</ele>
        <time>2026-09-01T07:41:05.704Z</time>
      </trkpt>
      <trkpt lat="49.31568" lon="1.1235">
        <ele>8</ele>
        <time>2026-09-01T07:41:09.861Z</time>
      </trkpt>
      <trkpt lat="49.31569" lon="1.12344">
        <ele>9</ele>
        <time>2026-09-01T07:41:14.281Z</time>
      </trkpt>
      <trkpt lat="49.31569" lon="1.12337">
        <ele>9</ele>
        <time>2026-09-01T07:41:18.486Z</time>
      </trkpt>
      <trkpt lat="49.31569" lon="1.1233">
        <ele>9</ele>
        <time>2026-09-01T07:41:22.665Z</time>
      </trkpt>
      <trkpt lat="49.31569" lon="1.12323">
        <ele>9</ele>
        <time>2026-09-01T07:41:26.783Z</time>
      </trkpt>
      <trkpt lat="49.31569" lon="1.12316">
        <ele>9</ele>
        <time>2026-09-01T07:41:31.040Z</time>
      </trkpt>
      <trkpt lat="49.31569" lon="1.12308">
        <ele>9</ele>
        <time>2026-09-01T07:41:35.808Z</time>
      </trkpt>
      <trkpt lat="49.31568" lon="1.12301">
        <ele>9</ele>
        <time>2026-09-01T07:41:40.101Z</time>
      </trkpt>
      <trkpt lat="49.31567" lon="1.12295">
        <ele>9</ele>
        <time>2026-09-01T07:41:44.402Z</time>
      </trkpt>
      <trkpt lat="49.31567" lon="1.12288">
        <ele>8</ele>
        <time>2026-09-01T07:41:48.704Z</time>
      </trkpt>
      <trkpt lat="49.31568" lon="1.12282">
        <ele>8</ele>
        <time>2026-09-01T07:41:52.860Z</time>
      </trkpt>
      <trkpt lat="49.31567" lon="1.12274">
        <ele>8</ele>
        <time>2026-09-01T07:41:57.325Z</time>
      </trkpt>
      <trkpt lat="49.31567" lon="1.12267">
        <ele>8</ele>
        <time>2026-09-01T07:42:01.364Z</time>
      </trkpt>
      <trkpt lat="49.31567" lon="1.1226">
        <ele>8</ele>
        <time>2026-09-01T07:42:05.683Z</time>
      </trkpt>
      <trkpt lat="49.31567" lon="1.12253">
        <ele>8</ele>
        <time>2026-09-01T07:42:09.801Z</time>
      </trkpt>
      <trkpt lat="49.31566" lon="1.12246">
        <ele>8</ele>
        <time>2026-09-01T07:42:13.848Z</time>
      </trkpt>
      <trkpt lat="49.31566" lon="1.12239">
        <ele>8</ele>
        <time>2026-09-01T07:42:18.079Z</time>
      </trkpt>
      <trkpt lat="49.31565" lon="1.12232">
        <ele>9</ele>
        <time>2026-09-01T07:42:22.381Z</time>
      </trkpt>
      <trkpt lat="49.31565" lon="1.12225">
        <ele>9</ele>
        <time>2026-09-01T07:42:26.542Z</time>
      </trkpt>
      <trkpt lat="49.31565" lon="1.12218">
        <ele>9</ele>
        <time>2026-09-01T07:42:30.704Z</time>
      </trkpt>
      <trkpt lat="49.31565" lon="1.1221">
        <ele>9</ele>
        <time>2026-09-01T07:42:34.861Z</time>
      </trkpt>
      <trkpt lat="49.31565" lon="1.12203">
        <ele>9</ele>
        <time>2026-09-01T07:42:39.123Z</time>
      </trkpt>
      <trkpt lat="49.31564" lon="1.12195">
        <ele>9</ele>
        <time>2026-09-01T07:42:43.319Z</time>
      </trkpt>
      <trkpt lat="49.31564" lon="1.12188">
        <ele>9</ele>
        <time>2026-09-01T07:42:47.481Z</time>
      </trkpt>
      <trkpt lat="49.31564" lon="1.12182">
        <ele>9</ele>
        <time>2026-09-01T07:42:51.861Z</time>
      </trkpt>
      <trkpt lat="49.31564" lon="1.12174">
        <ele>9</ele>
        <time>2026-09-01T07:42:56.602Z</time>
      </trkpt>
      <trkpt lat="49.31563" lon="1.12167">
        <ele>9</ele>
        <time>2026-09-01T07:43:00.860Z</time>
      </trkpt>
      <trkpt lat="49.31563" lon="1.1216">
        <ele>9</ele>
        <time>2026-09-01T07:43:05.206Z</time>
      </trkpt>
      <trkpt lat="49.31562" lon="1.12152">
        <ele>9</ele>
        <time>2026-09-01T07:43:09.464Z</time>
      </trkpt>
      <trkpt lat="49.31562" lon="1.12146">
        <ele>9</ele>
        <time>2026-09-01T07:43:13.704Z</time>
      </trkpt>
      <trkpt lat="49.31562" lon="1.12139">
        <ele>9</ele>
        <time>2026-09-01T07:43:17.860Z</time>
      </trkpt>
      <trkpt lat="49.31561" lon="1.12131">
        <ele>9</ele>
        <time>2026-09-01T07:43:22.123Z</time>
      </trkpt>
      <trkpt lat="49.31561" lon="1.12124">
        <ele>8</ele>
        <time>2026-09-01T07:43:26.162Z</time>
      </trkpt>
      <trkpt lat="49.31561" lon="1.12117">
        <ele>8</ele>
        <time>2026-09-01T07:43:30.446Z</time>
      </trkpt>
      <trkpt lat="49.31561" lon="1.1211">
        <ele>8</ele>
        <time>2026-09-01T07:43:34.748Z</time>
      </trkpt>
      <trkpt lat="49.3156" lon="1.12104">
        <ele>8</ele>
        <time>2026-09-01T07:43:38.860Z</time>
      </trkpt>
      <trkpt lat="49.31561" lon="1.12097">
        <ele>8</ele>
        <time>2026-09-01T07:43:43.140Z</time>
      </trkpt>
      <trkpt lat="49.31561" lon="1.12089">
        <ele>8</ele>
        <time>2026-09-01T07:43:47.363Z</time>
      </trkpt>
      <trkpt lat="49.3156" lon="1.12082">
        <ele>8</ele>
        <time>2026-09-01T07:43:51.560Z</time>
      </trkpt>
      <trkpt lat="49.3156" lon="1.12074">
        <ele>8</ele>
        <time>2026-09-01T07:43:55.800Z</time>
      </trkpt>
      <trkpt lat="49.31559" lon="1.12067">
        <ele>8</ele>
        <time>2026-09-01T07:43:59.860Z</time>
      </trkpt>
      <trkpt lat="49.31559" lon="1.12059">
        <ele>8</ele>
        <time>2026-09-01T07:44:04.184Z</time>
      </trkpt>
      <trkpt lat="49.31558" lon="1.12052">
        <ele>8</ele>
        <time>2026-09-01T07:44:08.328Z</time>
      </trkpt>
      <trkpt lat="49.31558" lon="1.12046">
        <ele>8</ele>
        <time>2026-09-01T07:44:12.435Z</time>
      </trkpt>
      <trkpt lat="49.31557" lon="1.12039">
        <ele>7</ele>
        <time>2026-09-01T07:44:16.720Z</time>
      </trkpt>
      <trkpt lat="49.31557" lon="1.12031">
        <ele>7</ele>
        <time>2026-09-01T07:44:20.860Z</time>
      </trkpt>
      <trkpt lat="49.31557" lon="1.12024">
        <ele>7</ele>
        <time>2026-09-01T07:44:25.166Z</time>
      </trkpt>
      <trkpt lat="49.31557" lon="1.12017">
        <ele>7</ele>
        <time>2026-09-01T07:44:29.362Z</time>
      </trkpt>
      <trkpt lat="49.31556" lon="1.12011">
        <ele>7</ele>
        <time>2026-09-01T07:44:33.524Z</time>
      </trkpt>
      <trkpt lat="49.31556" lon="1.12004">
        <ele>7</ele>
        <time>2026-09-01T07:44:37.685Z</time>
      </trkpt>
      <trkpt lat="49.31556" lon="1.11997">
        <ele>7</ele>
        <time>2026-09-01T07:44:41.864Z</time>
      </trkpt>
      <trkpt lat="49.31556" lon="1.11989">
        <ele>7</ele>
        <time>2026-09-01T07:44:46.139Z</time>
      </trkpt>
      <trkpt lat="49.31555" lon="1.11982">
        <ele>7</ele>
        <time>2026-09-01T07:44:50.283Z</time>
      </trkpt>
      <trkpt lat="49.31555" lon="1.11975">
        <ele>7</ele>
        <time>2026-09-01T07:44:54.523Z</time>
      </trkpt>
      <trkpt lat="49.31555" lon="1.11968">
        <ele>7</ele>
        <time>2026-09-01T07:44:58.720Z</time>
      </trkpt>
      <trkpt lat="49.31555" lon="1.1196">
        <ele>7</ele>
        <time>2026-09-01T07:45:03.504Z</time>
      </trkpt>
      <trkpt lat="49.31555" lon="1.11952">
        <ele>6</ele>
        <time>2026-09-01T07:45:07.683Z</time>
      </trkpt>
      <trkpt lat="49.31555" lon="1.11945">
        <ele>6</ele>
        <time>2026-09-01T07:45:11.800Z</time>
      </trkpt>
      <trkpt lat="49.31555" lon="1.11939">
        <ele>6</ele>
        <time>2026-09-01T07:45:15.860Z</time>
      </trkpt>
      <trkpt lat="49.31554" lon="1.11932">
        <ele>6</ele>
        <time>2026-09-01T07:45:20.140Z</time>
      </trkpt>
      <trkpt lat="49.31554" lon="1.11925">
        <ele>6</ele>
        <time>2026-09-01T07:45:24.424Z</time>
      </trkpt>
      <trkpt lat="49.31553" lon="1.11918">
        <ele>6</ele>
        <time>2026-09-01T07:45:28.744Z</time>
      </trkpt>
      <trkpt lat="49.31553" lon="1.11911">
        <ele>6</ele>
        <time>2026-09-01T07:45:32.860Z</time>
      </trkpt>
      <trkpt lat="49.31552" lon="1.11903">
        <ele>6</ele>
        <time>2026-09-01T07:45:37.259Z</time>
      </trkpt>
      <trkpt lat="49.31553" lon="1.11896">
        <ele>5</ele>
        <time>2026-09-01T07:45:41.447Z</time>
      </trkpt>
      <trkpt lat="49.31552" lon="1.11889">
        <ele>5</ele>
        <time>2026-09-01T07:45:45.626Z</time>
      </trkpt>
      <trkpt lat="49.31552" lon="1.11882">
        <ele>5</ele>
        <time>2026-09-01T07:45:49.805Z</time>
      </trkpt>
      <trkpt lat="49.31552" lon="1.11875">
        <ele>5</ele>
        <time>2026-09-01T07:45:54.027Z</time>
      </trkpt>
      <trkpt lat="49.31552" lon="1.11867">
        <ele>5</ele>
        <time>2026-09-01T07:45:58.206Z</time>
      </trkpt>
      <trkpt lat="49.31551" lon="1.1186">
        <ele>5</ele>
        <time>2026-09-01T07:46:02.262Z</time>
      </trkpt>
      <trkpt lat="49.31551" lon="1.11853">
        <ele>5</ele>
        <time>2026-09-01T07:46:06.405Z</time>
      </trkpt>
      <trkpt lat="49.31551" lon="1.11847">
        <ele>5</ele>
        <time>2026-09-01T07:46:10.567Z</time>
      </trkpt>
      <trkpt lat="49.31549" lon="1.11839">
        <ele>5</ele>
        <time>2026-09-01T07:46:14.666Z</time>
      </trkpt>
      <trkpt lat="49.31549" lon="1.11833">
        <ele>5</ele>
        <time>2026-09-01T07:46:18.766Z</time>
      </trkpt>
      <trkpt lat="49.31548" lon="1.11826">
        <ele>5</ele>
        <time>2026-09-01T07:46:22.860Z</time>
      </trkpt>
      <trkpt lat="49.31546" lon="1.1182">
        <ele>5</ele>
        <time>2026-09-01T07:46:27.001Z</time>
      </trkpt>
      <trkpt lat="49.31544" lon="1.11814">
        <ele>5</ele>
        <time>2026-09-01T07:46:31.066Z</time>
      </trkpt>
      <trkpt lat="49.31541" lon="1.11809">
        <ele>5</ele>
        <time>2026-09-01T07:46:35.860Z</time>
      </trkpt>
      <trkpt lat="49.31538" lon="1.11803">
        <ele>5</ele>
        <time>2026-09-01T07:46:39.861Z</time>
      </trkpt>
      <trkpt lat="49.31536" lon="1.11798">
        <ele>5</ele>
        <time>2026-09-01T07:46:44.085Z</time>
      </trkpt>
      <trkpt lat="49.31533" lon="1.11795">
        <ele>5</ele>
        <time>2026-09-01T07:46:48.342Z</time>
      </trkpt>
      <trkpt lat="49.3153" lon="1.1179">
        <ele>1</ele>
        <time>2026-09-01T07:46:52.679Z</time>
      </trkpt>
      <trkpt lat="49.31526" lon="1.11786">
        <ele>1</ele>
        <time>2026-09-01T07:46:56.788Z</time>
      </trkpt>
      <trkpt lat="49.31522" lon="1.11783">
        <ele>1</ele>
        <time>2026-09-01T07:47:01.002Z</time>
      </trkpt>
      <trkpt lat="49.31518" lon="1.1178">
        <ele>1</ele>
        <time>2026-09-01T07:47:05.101Z</time>
      </trkpt>
      <trkpt lat="49.31514" lon="1.11778">
        <ele>1</ele>
        <time>2026-09-01T07:47:09.104Z</time>
      </trkpt>
      <trkpt lat="49.3151" lon="1.11773">
        <ele>1</ele>
        <time>2026-09-01T07:47:13.687Z</time>
      </trkpt>
      <trkpt lat="49.31507" lon="1.11771">
        <ele>1</ele>
        <time>2026-09-01T07:47:17.708Z</time>
      </trkpt>
      <trkpt lat="49.31503" lon="1.11768">
        <ele>1</ele>
        <time>2026-09-01T07:47:21.861Z</time>
      </trkpt>
      <trkpt lat="49.31499" lon="1.11764">
        <ele>1</ele>
        <time>2026-09-01T07:47:26.100Z</time>
      </trkpt>
      <trkpt lat="49.31495" lon="1.1176">
        <ele>1</ele>
        <time>2026-09-01T07:47:30.279Z</time>
      </trkpt>
      <trkpt lat="49.31491" lon="1.11757">
        <ele>1</ele>
        <time>2026-09-01T07:47:34.502Z</time>
      </trkpt>
      <trkpt lat="49.31487" lon="1.11754">
        <ele>1</ele>
        <time>2026-09-01T07:47:38.663Z</time>
      </trkpt>
      <trkpt lat="49.31483" lon="1.1175">
        <ele>1</ele>
        <time>2026-09-01T07:47:43.605Z</time>
      </trkpt>
      <trkpt lat="49.31479" lon="1.11746">
        <ele>1</ele>
        <time>2026-09-01T07:47:48.205Z</time>
      </trkpt>
      <trkpt lat="49.31474" lon="1.11743">
        <ele>1</ele>
        <time>2026-09-01T07:47:52.446Z</time>
      </trkpt>
      <trkpt lat="49.3147" lon="1.1174">
        <ele>1</ele>
        <time>2026-09-01T07:47:56.686Z</time>
      </trkpt>
      <trkpt lat="49.31466" lon="1.11738">
        <ele>1</ele>
        <time>2026-09-01T07:48:00.829Z</time>
      </trkpt>
      <trkpt lat="49.31462" lon="1.11735">
        <ele>1</ele>
        <time>2026-09-01T07:48:05.201Z</time>
      </trkpt>
      <trkpt lat="49.31458" lon="1.11733">
        <ele>1</ele>
        <time>2026-09-01T07:48:09.582Z</time>
      </trkpt>
      <trkpt lat="49.31453" lon="1.11731">
        <ele>1</ele>
        <time>2026-09-01T07:48:13.860Z</time>
      </trkpt>
      <trkpt lat="49.31449" lon="1.11728">
        <ele>1</ele>
        <time>2026-09-01T07:48:18.185Z</time>
      </trkpt>
      <trkpt lat="49.31445" lon="1.11726">
        <ele>1</ele>
        <time>2026-09-01T07:48:22.487Z</time>
      </trkpt>
      <trkpt lat="49.31441" lon="1.11723">
        <ele>1</ele>
        <time>2026-09-01T07:48:26.727Z</time>
      </trkpt>
      <trkpt lat="49.31437" lon="1.11721">
        <ele>1</ele>
        <time>2026-09-01T07:48:30.860Z</time>
      </trkpt>
      <trkpt lat="49.31432" lon="1.11718">
        <ele>1</ele>
        <time>2026-09-01T07:48:35.304Z</time>
      </trkpt>
      <trkpt lat="49.31428" lon="1.11715">
        <ele>1</ele>
        <time>2026-09-01T07:48:39.588Z</time>
      </trkpt>
      <trkpt lat="49.31424" lon="1.11713">
        <ele>1</ele>
        <time>2026-09-01T07:48:43.766Z</time>
      </trkpt>
      <trkpt lat="49.3142" lon="1.11711">
        <ele>1</ele>
        <time>2026-09-01T07:48:47.861Z</time>
      </trkpt>
      <trkpt lat="49.31415" lon="1.11709">
        <ele>1</ele>
        <time>2026-09-01T07:48:52.501Z</time>
      </trkpt>
      <trkpt lat="49.3141" lon="1.11706">
        <ele>1</ele>
        <time>2026-09-01T07:48:56.645Z</time>
      </trkpt>
      <trkpt lat="49.31406" lon="1.11705">
        <ele>1</ele>
        <time>2026-09-01T07:49:00.727Z</time>
      </trkpt>
      <trkpt lat="49.31401" lon="1.11705">
        <ele>1</ele>
        <time>2026-09-01T07:49:04.967Z</time>
      </trkpt>
      <trkpt lat="49.31397" lon="1.11704">
        <ele>1</ele>
        <time>2026-09-01T07:49:09.365Z</time>
      </trkpt>
      <trkpt lat="49.31392" lon="1.11704">
        <ele>1</ele>
        <time>2026-09-01T07:49:13.386Z</time>
      </trkpt>
      <trkpt lat="49.31387" lon="1.11705">
        <ele>1</ele>
        <time>2026-09-01T07:49:17.860Z</time>
      </trkpt>
      <trkpt lat="49.31383" lon="1.11707">
        <ele>1</ele>
        <time>2026-09-01T07:49:22.586Z</time>
      </trkpt>
      <trkpt lat="49.31379" lon="1.11707">
        <ele>1</ele>
        <time>2026-09-01T07:49:26.860Z</time>
      </trkpt>
      <trkpt lat="49.31375" lon="1.11707">
        <ele>5</ele>
        <time>2026-09-01T07:49:31.286Z</time>
      </trkpt>
      <trkpt lat="49.31375" lon="1.11712">
        <ele>1</ele>
        <time>2026-09-01T07:49:35.307Z</time>
      </trkpt>
      <trkpt lat="49.31372" lon="1.11709">
        <ele>4</ele>
        <time>2026-09-01T07:49:39.468Z</time>
      </trkpt>
      <trkpt lat="49.31373" lon="1.11712">
        <ele>4</ele>
        <time>2026-09-01T07:50:05.860Z</time>
      </trkpt>
      <trkpt lat="49.31372" lon="1.11713">
        <ele>4</ele>
        <time>2026-09-01T07:50:09.861Z</time>
      </trkpt>
      <trkpt lat="49.31367" lon="1.11715">
        <ele>4</ele>
        <time>2026-09-01T07:50:14.600Z</time>
      </trkpt>
      <trkpt lat="49.31366" lon="1.1172">
        <ele>4</ele>
        <time>2026-09-01T07:50:18.621Z</time>
      </trkpt>
      <trkpt lat="49.31366" lon="1.11725">
        <ele>4</ele>
        <time>2026-09-01T07:50:22.720Z</time>
      </trkpt>
      <trkpt lat="49.31366" lon="1.1174">
        <ele>4</ele>
        <time>2026-09-01T07:54:39.859Z</time>
      </trkpt>
      <trkpt lat="49.31366" lon="1.11741">
        <ele>4</ele>
        <time>2026-09-01T07:54:46.859Z</time>
      </trkpt>
      <trkpt lat="49.31366" lon="1.11741">
        <ele>4</ele>
        <time>2026-09-01T07:54:51.859Z</time>
      </trkpt>
      <trkpt lat="49.31366" lon="1.11741">
        <ele>4</ele>
        <time>2026-09-01T07:55:01.859Z</time>
      </trkpt>
      <trkpt lat="49.31363" lon="1.11743">
        <ele>4</ele>
        <time>2026-09-01T07:55:06.859Z</time>
      </trkpt>
      <trkpt lat="49.31359" lon="1.11749">
        <ele>4</ele>
        <time>2026-09-01T07:55:11.468Z</time>
      </trkpt>
      <trkpt lat="49.31358" lon="1.11749">
        <ele>4</ele>
        <time>2026-09-01T07:55:15.859Z</time>
      </trkpt>
      <trkpt lat="49.31358" lon="1.1175">
        <ele>4</ele>
        <time>2026-09-01T07:55:21.859Z</time>
      </trkpt>
      <trkpt lat="49.31355" lon="1.11754">
        <ele>4</ele>
        <time>2026-09-01T07:55:26.614Z</time>
      </trkpt>
      <trkpt lat="49.31352" lon="1.11758">
        <ele>4</ele>
        <time>2026-09-01T07:55:30.859Z</time>
      </trkpt>
      <trkpt lat="49.31348" lon="1.11762">
        <ele>4</ele>
        <time>2026-09-01T07:55:35.666Z</time>
      </trkpt>
      <trkpt lat="49.31345" lon="1.11767">
        <ele>4</ele>
        <time>2026-09-01T07:55:39.859Z</time>
      </trkpt>
      <trkpt lat="49.31341" lon="1.11773">
        <ele>4</ele>
        <time>2026-09-01T07:55:44.859Z</time>
      </trkpt>
      <trkpt lat="49.31338" lon="1.11779">
        <ele>4</ele>
        <time>2026-09-01T07:55:49.859Z</time>
      </trkpt>
      <trkpt lat="49.31336" lon="1.11785">
        <ele>4</ele>
        <time>2026-09-01T07:55:53.947Z</time>
      </trkpt>
      <trkpt lat="49.31333" lon="1.11791">
        <ele>4</ele>
        <time>2026-09-01T07:55:58.310Z</time>
      </trkpt>
      <trkpt lat="49.31333" lon="1.11796">
        <ele>3</ele>
        <time>2026-09-01T07:56:02.393Z</time>
      </trkpt>
      <trkpt lat="49.3133" lon="1.11803">
        <ele>3</ele>
        <time>2026-09-01T07:56:06.859Z</time>
      </trkpt>
      <trkpt lat="49.3133" lon="1.11809">
        <ele>3</ele>
        <time>2026-09-01T07:56:11.226Z</time>
      </trkpt>
      <trkpt lat="49.31329" lon="1.11816">
        <ele>3</ele>
        <time>2026-09-01T07:56:15.669Z</time>
      </trkpt>
      <trkpt lat="49.3133" lon="1.11823">
        <ele>4</ele>
        <time>2026-09-01T07:56:19.859Z</time>
      </trkpt>
      <trkpt lat="49.3133" lon="1.11831">
        <ele>4</ele>
        <time>2026-09-01T07:56:24.387Z</time>
      </trkpt>
      <trkpt lat="49.3133" lon="1.11838">
        <ele>4</ele>
        <time>2026-09-01T07:56:28.769Z</time>
      </trkpt>
      <trkpt lat="49.3133" lon="1.11845">
        <ele>4</ele>
        <time>2026-09-01T07:56:32.859Z</time>
      </trkpt>
      <trkpt lat="49.3133" lon="1.11853">
        <ele>4</ele>
        <time>2026-09-01T07:56:37.373Z</time>
      </trkpt>
      <trkpt lat="49.31331" lon="1.1186">
        <ele>4</ele>
        <time>2026-09-01T07:56:41.631Z</time>
      </trkpt>
      <trkpt lat="49.31331" lon="1.11869">
        <ele>4</ele>
        <time>2026-09-01T07:56:46.408Z</time>
      </trkpt>
      <trkpt lat="49.31331" lon="1.11876">
        <ele>5</ele>
        <time>2026-09-01T07:56:50.429Z</time>
      </trkpt>
      <trkpt lat="49.31332" lon="1.11883">
        <ele>5</ele>
        <time>2026-09-01T07:56:54.563Z</time>
      </trkpt>
      <trkpt lat="49.31332" lon="1.11891">
        <ele>5</ele>
        <time>2026-09-01T07:56:58.860Z</time>
      </trkpt>
      <trkpt lat="49.31332" lon="1.11899">
        <ele>5</ele>
        <time>2026-09-01T07:57:03.370Z</time>
      </trkpt>
      <trkpt lat="49.31332" lon="1.11906">
        <ele>5</ele>
        <time>2026-09-01T07:57:07.417Z</time>
      </trkpt>
      <trkpt lat="49.31332" lon="1.11914">
        <ele>5</ele>
        <time>2026-09-01T07:57:11.808Z</time>
      </trkpt>
      <trkpt lat="49.31333" lon="1.11921">
        <ele>5</ele>
        <time>2026-09-01T07:57:15.860Z</time>
      </trkpt>
      <trkpt lat="49.31333" lon="1.11929">
        <ele>5</ele>
        <time>2026-09-01T07:57:20.833Z</time>
      </trkpt>
      <trkpt lat="49.31333" lon="1.11938">
        <ele>5</ele>
        <time>2026-09-01T07:57:25.768Z</time>
      </trkpt>
      <trkpt lat="49.31333" lon="1.11945">
        <ele>5</ele>
        <time>2026-09-01T07:57:29.850Z</time>
      </trkpt>
      <trkpt lat="49.31334" lon="1.11951">
        <ele>5</ele>
        <time>2026-09-01T07:57:33.859Z</time>
      </trkpt>
      <trkpt lat="49.31335" lon="1.1196">
        <ele>3</ele>
        <time>2026-09-01T07:57:38.858Z</time>
      </trkpt>
      <trkpt lat="49.31336" lon="1.11967">
        <ele>3</ele>
        <time>2026-09-01T07:57:43.660Z</time>
      </trkpt>
      <trkpt lat="49.31336" lon="1.11976">
        <ele>3</ele>
        <time>2026-09-01T07:57:48.551Z</time>
      </trkpt>
      <trkpt lat="49.31337" lon="1.11983">
        <ele>3</ele>
        <time>2026-09-01T07:57:52.858Z</time>
      </trkpt>
      <trkpt lat="49.31337" lon="1.11991">
        <ele>3</ele>
        <time>2026-09-01T07:57:57.349Z</time>
      </trkpt>
      <trkpt lat="49.31338" lon="1.11998">
        <ele>3</ele>
        <time>2026-09-01T07:58:01.809Z</time>
      </trkpt>
      <trkpt lat="49.31339" lon="1.12005">
        <ele>3</ele>
        <time>2026-09-01T07:58:05.858Z</time>
      </trkpt>
      <trkpt lat="49.3134" lon="1.12013">
        <ele>3</ele>
        <time>2026-09-01T07:58:10.465Z</time>
      </trkpt>
      <trkpt lat="49.3134" lon="1.1202">
        <ele>3</ele>
        <time>2026-09-01T07:58:14.767Z</time>
      </trkpt>
      <trkpt lat="49.31341" lon="1.12027">
        <ele>3</ele>
        <time>2026-09-01T07:58:18.859Z</time>
      </trkpt>
      <trkpt lat="49.31342" lon="1.12035">
        <ele>3</ele>
        <time>2026-09-01T07:58:23.468Z</time>
      </trkpt>
      <trkpt lat="49.31343" lon="1.12041">
        <ele>3</ele>
        <time>2026-09-01T07:58:27.594Z</time>
      </trkpt>
      <trkpt lat="49.31344" lon="1.1205">
        <ele>3</ele>
        <time>2026-09-01T07:58:32.713Z</time>
      </trkpt>
      <trkpt lat="49.31346" lon="1.12057">
        <ele>3</ele>
        <time>2026-09-01T07:58:36.858Z</time>
      </trkpt>
      <trkpt lat="49.31347" lon="1.12065">
        <ele>3</ele>
        <time>2026-09-01T07:58:41.449Z</time>
      </trkpt>
      <trkpt lat="49.31348" lon="1.12072">
        <ele>3</ele>
        <time>2026-09-01T07:58:45.786Z</time>
      </trkpt>
      <trkpt lat="49.3135" lon="1.12079">
        <ele>3</ele>
        <time>2026-09-01T07:58:49.851Z</time>
      </trkpt>
      <trkpt lat="49.31351" lon="1.12085">
        <ele>3</ele>
        <time>2026-09-01T07:58:53.858Z</time>
      </trkpt>
      <trkpt lat="49.31352" lon="1.12093">
        <ele>3</ele>
        <time>2026-09-01T07:58:58.858Z</time>
      </trkpt>
      <trkpt lat="49.31354" lon="1.12099">
        <ele>2</ele>
        <time>2026-09-01T07:59:02.858Z</time>
      </trkpt>
      <trkpt lat="49.31355" lon="1.12107">
        <ele>2</ele>
        <time>2026-09-01T07:59:07.314Z</time>
      </trkpt>
      <trkpt lat="49.31356" lon="1.12113">
        <ele>2</ele>
        <time>2026-09-01T07:59:11.449Z</time>
      </trkpt>
      <trkpt lat="49.31357" lon="1.12119">
        <ele>2</ele>
        <time>2026-09-01T07:59:15.786Z</time>
      </trkpt>
      <trkpt lat="49.31359" lon="1.12127">
        <ele>3</ele>
        <time>2026-09-01T07:59:20.633Z</time>
      </trkpt>
      <trkpt lat="49.3136" lon="1.12135">
        <ele>3</ele>
        <time>2026-09-01T07:59:24.865Z</time>
      </trkpt>
      <trkpt lat="49.31361" lon="1.12143">
        <ele>3</ele>
        <time>2026-09-01T07:59:29.412Z</time>
      </trkpt>
      <trkpt lat="49.31361" lon="1.1215">
        <ele>3</ele>
        <time>2026-09-01T07:59:33.706Z</time>
      </trkpt>
      <trkpt lat="49.31362" lon="1.12157">
        <ele>3</ele>
        <time>2026-09-01T07:59:38.183Z</time>
      </trkpt>
      <trkpt lat="49.31363" lon="1.12165">
        <ele>3</ele>
        <time>2026-09-01T07:59:42.573Z</time>
      </trkpt>
      <trkpt lat="49.31364" lon="1.12172">
        <ele>3</ele>
        <time>2026-09-01T07:59:46.855Z</time>
      </trkpt>
      <trkpt lat="49.31365" lon="1.1218">
        <ele>3</ele>
        <time>2026-09-01T07:59:51.859Z</time>
      </trkpt>
      <trkpt lat="49.31365" lon="1.12188">
        <ele>3</ele>
        <time>2026-09-01T07:59:56.673Z</time>
      </trkpt>
      <trkpt lat="49.31366" lon="1.12195">
        <ele>3</ele>
        <time>2026-09-01T08:00:00.859Z</time>
      </trkpt>
      <trkpt lat="49.31366" lon="1.12203">
        <ele>3</ele>
        <time>2026-09-01T08:00:05.550Z</time>
      </trkpt>
      <trkpt lat="49.31366" lon="1.1221">
        <ele>3</ele>
        <time>2026-09-01T08:00:09.863Z</time>
      </trkpt>
      <trkpt lat="49.31367" lon="1.12217">
        <ele>3</ele>
        <time>2026-09-01T08:00:14.214Z</time>
      </trkpt>
      <trkpt lat="49.31368" lon="1.12224">
        <ele>3</ele>
        <time>2026-09-01T08:00:18.447Z</time>
      </trkpt>
      <trkpt lat="49.31369" lon="1.12231">
        <ele>3</ele>
        <time>2026-09-01T08:00:22.861Z</time>
      </trkpt>
      <trkpt lat="49.31369" lon="1.1224">
        <ele>4</ele>
        <time>2026-09-01T08:00:27.857Z</time>
      </trkpt>
      <trkpt lat="49.3137" lon="1.12247">
        <ele>4</ele>
        <time>2026-09-01T08:00:32.170Z</time>
      </trkpt>
      <trkpt lat="49.31371" lon="1.12254">
        <ele>4</ele>
        <time>2026-09-01T08:00:36.507Z</time>
      </trkpt>
      <trkpt lat="49.31372" lon="1.12263">
        <ele>4</ele>
        <time>2026-09-01T08:00:41.248Z</time>
      </trkpt>
      <trkpt lat="49.31372" lon="1.1227">
        <ele>5</ele>
        <time>2026-09-01T08:00:45.855Z</time>
      </trkpt>
      <trkpt lat="49.31373" lon="1.12278">
        <ele>5</ele>
        <time>2026-09-01T08:00:50.352Z</time>
      </trkpt>
      <trkpt lat="49.31374" lon="1.12286">
        <ele>5</ele>
        <time>2026-09-01T08:00:54.858Z</time>
      </trkpt>
      <trkpt lat="49.31375" lon="1.12293">
        <ele>5</ele>
        <time>2026-09-01T08:00:59.571Z</time>
      </trkpt>
      <trkpt lat="49.31376" lon="1.12301">
        <ele>4</ele>
        <time>2026-09-01T08:01:03.829Z</time>
      </trkpt>
      <trkpt lat="49.31377" lon="1.12309">
        <ele>4</ele>
        <time>2026-09-01T08:01:08.667Z</time>
      </trkpt>
      <trkpt lat="49.31378" lon="1.12317">
        <ele>4</ele>
        <time>2026-09-01T08:01:12.858Z</time>
      </trkpt>
      <trkpt lat="49.31379" lon="1.12326">
        <ele>5</ele>
        <time>2026-09-01T08:01:17.854Z</time>
      </trkpt>
      <trkpt lat="49.3138" lon="1.12334">
        <ele>5</ele>
        <time>2026-09-01T08:01:22.565Z</time>
      </trkpt>
      <trkpt lat="49.3138" lon="1.12341">
        <ele>5</ele>
        <time>2026-09-01T08:01:26.864Z</time>
      </trkpt>
      <trkpt lat="49.3138" lon="1.12349">
        <ele>1</ele>
        <time>2026-09-01T08:01:31.310Z</time>
      </trkpt>
      <trkpt lat="49.3138" lon="1.12356">
        <ele>1</ele>
        <time>2026-09-01T08:01:35.752Z</time>
      </trkpt>
      <trkpt lat="49.31381" lon="1.12365">
        <ele>1</ele>
        <time>2026-09-01T08:01:40.467Z</time>
      </trkpt>
      <trkpt lat="49.3138" lon="1.12372">
        <ele>1</ele>
        <time>2026-09-01T08:01:44.860Z</time>
      </trkpt>
      <trkpt lat="49.3138" lon="1.12381">
        <ele>1</ele>
        <time>2026-09-01T08:01:49.809Z</time>
      </trkpt>
      <trkpt lat="49.3138" lon="1.12388">
        <ele>1</ele>
        <time>2026-09-01T08:01:53.987Z</time>
      </trkpt>
      <trkpt lat="49.3138" lon="1.12396">
        <ele>1</ele>
        <time>2026-09-01T08:01:58.211Z</time>
      </trkpt>
      <trkpt lat="49.3138" lon="1.12403">
        <ele>1</ele>
        <time>2026-09-01T08:02:02.862Z</time>
      </trkpt>
      <trkpt lat="49.31381" lon="1.12411">
        <ele>1</ele>
        <time>2026-09-01T08:02:07.649Z</time>
      </trkpt>
      <trkpt lat="49.3138" lon="1.12418">
        <ele>1</ele>
        <time>2026-09-01T08:02:11.855Z</time>
      </trkpt>
      <trkpt lat="49.31381" lon="1.12425">
        <ele>1</ele>
        <time>2026-09-01T08:02:16.332Z</time>
      </trkpt>
      <trkpt lat="49.31381" lon="1.12432">
        <ele>1</ele>
        <time>2026-09-01T08:02:20.651Z</time>
      </trkpt>
      <trkpt lat="49.31382" lon="1.1244">
        <ele>1</ele>
        <time>2026-09-01T08:02:25.331Z</time>
      </trkpt>
      <trkpt lat="49.31382" lon="1.12448">
        <ele>1</ele>
        <time>2026-09-01T08:02:29.862Z</time>
      </trkpt>
      <trkpt lat="49.31383" lon="1.12456">
        <ele>1</ele>
        <time>2026-09-01T08:02:34.752Z</time>
      </trkpt>
      <trkpt lat="49.31383" lon="1.12464">
        <ele>1</ele>
        <time>2026-09-01T08:02:38.773Z</time>
      </trkpt>
      <trkpt lat="49.31383" lon="1.1247">
        <ele>1</ele>
        <time>2026-09-01T08:02:42.852Z</time>
      </trkpt>
      <trkpt lat="49.31384" lon="1.12478">
        <ele>1</ele>
        <time>2026-09-01T08:02:47.745Z</time>
      </trkpt>
      <trkpt lat="49.31385" lon="1.12486">
        <ele>1</ele>
        <time>2026-09-01T08:02:51.968Z</time>
      </trkpt>
      <trkpt lat="49.31385" lon="1.12493">
        <ele>1</ele>
        <time>2026-09-01T08:02:56.253Z</time>
      </trkpt>
      <trkpt lat="49.31386" lon="1.12501">
        <ele>1</ele>
        <time>2026-09-01T08:03:00.852Z</time>
      </trkpt>
      <trkpt lat="49.31386" lon="1.12508">
        <ele>1</ele>
        <time>2026-09-01T08:03:05.006Z</time>
      </trkpt>
      <trkpt lat="49.31387" lon="1.12515">
        <ele>1</ele>
        <time>2026-09-01T08:03:09.273Z</time>
      </trkpt>
      <trkpt lat="49.31387" lon="1.12523">
        <ele>1</ele>
        <time>2026-09-01T08:03:13.470Z</time>
      </trkpt>
      <trkpt lat="49.31388" lon="1.1253">
        <ele>1</ele>
        <time>2026-09-01T08:03:17.728Z</time>
      </trkpt>
      <trkpt lat="49.31389" lon="1.12537">
        <ele>1</ele>
        <time>2026-09-01T08:03:21.767Z</time>
      </trkpt>
      <trkpt lat="49.3139" lon="1.12543">
        <ele>1</ele>
        <time>2026-09-01T08:03:25.861Z</time>
      </trkpt>
      <trkpt lat="49.31391" lon="1.12551">
        <ele>1</ele>
        <time>2026-09-01T08:03:30.748Z</time>
      </trkpt>
      <trkpt lat="49.31391" lon="1.12557">
        <ele>1</ele>
        <time>2026-09-01T08:03:34.859Z</time>
      </trkpt>
      <trkpt lat="49.31392" lon="1.12565">
        <ele>1</ele>
        <time>2026-09-01T08:03:39.466Z</time>
      </trkpt>
      <trkpt lat="49.31394" lon="1.12572">
        <ele>1</ele>
        <time>2026-09-01T08:03:43.853Z</time>
      </trkpt>
      <trkpt lat="49.31394" lon="1.1258">
        <ele>1</ele>
        <time>2026-09-01T08:03:48.746Z</time>
      </trkpt>
      <trkpt lat="49.31396" lon="1.12588">
        <ele>1</ele>
        <time>2026-09-01T08:03:53.470Z</time>
      </trkpt>
      <trkpt lat="49.31397" lon="1.12595">
        <ele>1</ele>
        <time>2026-09-01T08:03:57.491Z</time>
      </trkpt>
      <trkpt lat="49.31399" lon="1.12601">
        <ele>1</ele>
        <time>2026-09-01T08:04:01.732Z</time>
      </trkpt>
      <trkpt lat="49.31401" lon="1.12607">
        <ele>1</ele>
        <time>2026-09-01T08:04:05.864Z</time>
      </trkpt>
      <trkpt lat="49.31403" lon="1.12614">
        <ele>1</ele>
        <time>2026-09-01T08:04:10.107Z</time>
      </trkpt>
      <trkpt lat="49.31405" lon="1.12621">
        <ele>1</ele>
        <time>2026-09-01T08:04:14.725Z</time>
      </trkpt>
      <trkpt lat="49.31407" lon="1.12628">
        <ele>1</ele>
        <time>2026-09-01T08:04:19.089Z</time>
      </trkpt>
      <trkpt lat="49.3141" lon="1.12632">
        <ele>1</ele>
        <time>2026-09-01T08:04:23.233Z</time>
      </trkpt>
      <trkpt lat="49.31413" lon="1.12642">
        <ele>1</ele>
        <time>2026-09-01T08:05:38.510Z</time>
      </trkpt>
      <trkpt lat="49.31411" lon="1.12651">
        <ele>1</ele>
        <time>2026-09-01T08:05:43.189Z</time>
      </trkpt>
      <trkpt lat="49.31412" lon="1.12659">
        <ele>1</ele>
        <time>2026-09-01T08:05:47.649Z</time>
      </trkpt>
      <trkpt lat="49.31413" lon="1.12667">
        <ele>1</ele>
        <time>2026-09-01T08:05:51.749Z</time>
      </trkpt>
      <trkpt lat="49.31414" lon="1.12674">
        <ele>1</ele>
        <time>2026-09-01T08:05:55.806Z</time>
      </trkpt>
      <trkpt lat="49.31415" lon="1.12679">
        <ele>1</ele>
        <time>2026-09-01T08:05:59.827Z</time>
      </trkpt>
      <trkpt lat="49.31417" lon="1.12689">
        <ele>1</ele>
        <time>2026-09-01T08:06:04.348Z</time>
      </trkpt>
      <trkpt lat="49.31418" lon="1.12697">
        <ele>1</ele>
        <time>2026-09-01T08:06:08.369Z</time>
      </trkpt>
      <trkpt lat="49.31418" lon="1.12704">
        <ele>1</ele>
        <time>2026-09-01T08:06:12.373Z</time>
      </trkpt>
      <trkpt lat="49.31419" lon="1.12711">
        <ele>1</ele>
        <time>2026-09-01T08:06:16.394Z</time>
      </trkpt>
      <trkpt lat="49.3142" lon="1.1272">
        <ele>1</ele>
        <time>2026-09-01T08:06:20.860Z</time>
      </trkpt>
      <trkpt lat="49.3142" lon="1.12727">
        <ele>1</ele>
        <time>2026-09-01T08:06:24.860Z</time>
      </trkpt>
      <trkpt lat="49.31421" lon="1.12736">
        <ele>1</ele>
        <time>2026-09-01T08:06:29.467Z</time>
      </trkpt>
      <trkpt lat="49.31422" lon="1.12744">
        <ele>1</ele>
        <time>2026-09-01T08:06:33.488Z</time>
      </trkpt>
      <trkpt lat="49.31422" lon="1.12752">
        <ele>1</ele>
        <time>2026-09-01T08:06:38.053Z</time>
      </trkpt>
      <trkpt lat="49.31423" lon="1.1276">
        <ele>1</ele>
        <time>2026-09-01T08:06:42.127Z</time>
      </trkpt>
      <trkpt lat="49.31424" lon="1.12768">
        <ele>1</ele>
        <time>2026-09-01T08:06:46.727Z</time>
      </trkpt>
      <trkpt lat="49.31425" lon="1.12775">
        <ele>1</ele>
        <time>2026-09-01T08:06:50.731Z</time>
      </trkpt>
      <trkpt lat="49.31426" lon="1.12784">
        <ele>1</ele>
        <time>2026-09-01T08:06:55.331Z</time>
      </trkpt>
      <trkpt lat="49.31426" lon="1.12792">
        <ele>6</ele>
        <time>2026-09-01T08:06:59.387Z</time>
      </trkpt>
      <trkpt lat="49.31427" lon="1.128">
        <ele>6</ele>
        <time>2026-09-01T08:07:03.860Z</time>
      </trkpt>
      <trkpt lat="49.31427" lon="1.12808">
        <ele>6</ele>
        <time>2026-09-01T08:07:08.088Z</time>
      </trkpt>
      <trkpt lat="49.31428" lon="1.12816">
        <ele>6</ele>
        <time>2026-09-01T08:07:12.109Z</time>
      </trkpt>
      <trkpt lat="49.31428" lon="1.12824">
        <ele>6</ele>
        <time>2026-09-01T08:07:16.692Z</time>
      </trkpt>
      <trkpt lat="49.31429" lon="1.12832">
        <ele>6</ele>
        <time>2026-09-01T08:07:20.730Z</time>
      </trkpt>
      <trkpt lat="49.3143" lon="1.12839">
        <ele>6</ele>
        <time>2026-09-01T08:07:24.734Z</time>
      </trkpt>
      <trkpt lat="49.31431" lon="1.12848">
        <ele>5</ele>
        <time>2026-09-01T08:07:28.746Z</time>
      </trkpt>
      <trkpt lat="49.31432" lon="1.12855">
        <ele>5</ele>
        <time>2026-09-01T08:07:33.092Z</time>
      </trkpt>
      <trkpt lat="49.31432" lon="1.12864">
        <ele>5</ele>
        <time>2026-09-01T08:07:37.666Z</time>
      </trkpt>
      <trkpt lat="49.31433" lon="1.12873">
        <ele>5</ele>
        <time>2026-09-01T08:07:42.126Z</time>
      </trkpt>
      <trkpt lat="49.31433" lon="1.12882">
        <ele>4</ele>
        <time>2026-09-01T08:07:46.674Z</time>
      </trkpt>
      <trkpt lat="49.31434" lon="1.12889">
        <ele>4</ele>
        <time>2026-09-01T08:07:51.028Z</time>
      </trkpt>
      <trkpt lat="49.31433" lon="1.12897">
        <ele>4</ele>
        <time>2026-09-01T08:07:55.067Z</time>
      </trkpt>
      <trkpt lat="49.31434" lon="1.12906">
        <ele>4</ele>
        <time>2026-09-01T08:07:59.553Z</time>
      </trkpt>
      <trkpt lat="49.31435" lon="1.12915">
        <ele>4</ele>
        <time>2026-09-01T08:08:04.048Z</time>
      </trkpt>
      <trkpt lat="49.31436" lon="1.12924">
        <ele>4</ele>
        <time>2026-09-01T08:08:08.569Z</time>
      </trkpt>
      <trkpt lat="49.31436" lon="1.12933">
        <ele>4</ele>
        <time>2026-09-01T08:08:13.073Z</time>
      </trkpt>
      <trkpt lat="49.31438" lon="1.1294">
        <ele>4</ele>
        <time>2026-09-01T08:08:17.147Z</time>
      </trkpt>
      <trkpt lat="49.31439" lon="1.12948">
        <ele>4</ele>
        <time>2026-09-01T08:08:21.291Z</time>
      </trkpt>
      <trkpt lat="49.3144" lon="1.12954">
        <ele>4</ele>
        <time>2026-09-01T08:08:25.514Z</time>
      </trkpt>
      <trkpt lat="49.3144" lon="1.12961">
        <ele>4</ele>
        <time>2026-09-01T08:08:29.526Z</time>
      </trkpt>
      <trkpt lat="49.3144" lon="1.12967">
        <ele>4</ele>
        <time>2026-09-01T08:08:33.573Z</time>
      </trkpt>
      <trkpt lat="49.3144" lon="1.12975">
        <ele>4</ele>
        <time>2026-09-01T08:08:37.770Z</time>
      </trkpt>
      <trkpt lat="49.31442" lon="1.12982">
        <ele>4</ele>
        <time>2026-09-01T08:08:41.860Z</time>
      </trkpt>
      <trkpt lat="49.31444" lon="1.1299">
        <ele>4</ele>
        <time>2026-09-01T08:08:46.830Z</time>
      </trkpt>
      <trkpt lat="49.31445" lon="1.12996">
        <ele>4</ele>
        <time>2026-09-01T08:08:50.860Z</time>
      </trkpt>
      <trkpt lat="49.31446" lon="1.13003">
        <ele>4</ele>
        <time>2026-09-01T08:08:55.346Z</time>
      </trkpt>
      <trkpt lat="49.31446" lon="1.13008">
        <ele>4</ele>
        <time>2026-09-01T08:08:59.507Z</time>
      </trkpt>
      <trkpt lat="49.31447" lon="1.13014">
        <ele>1</ele>
        <time>2026-09-01T08:09:03.860Z</time>
      </trkpt>
      <trkpt lat="49.31448" lon="1.13021">
        <ele>1</ele>
        <time>2026-09-01T08:09:08.129Z</time>
      </trkpt>
      <trkpt lat="49.31449" lon="1.13027">
        <ele>1</ele>
        <time>2026-09-01T08:09:12.448Z</time>
      </trkpt>
      <trkpt lat="49.31449" lon="1.13034">
        <ele>1</ele>
        <time>2026-09-01T08:09:16.860Z</time>
      </trkpt>
      <trkpt lat="49.31448" lon="1.13037">
        <ele>1</ele>
        <time>2026-09-01T08:09:21.860Z</time>
      </trkpt>
      <trkpt lat="49.3145" lon="1.13048">
        <ele>1</ele>
        <time>2026-09-01T08:10:16.326Z</time>
      </trkpt>
      <trkpt lat="49.31451" lon="1.13052">
        <ele>1</ele>
        <time>2026-09-01T08:10:20.860Z</time>
      </trkpt>
      <trkpt lat="49.31451" lon="1.13054">
        <ele>1</ele>
        <time>2026-09-01T08:10:25.167Z</time>
      </trkpt>
      <trkpt lat="49.31452" lon="1.13059">
        <ele>1</ele>
        <time>2026-09-01T08:10:29.732Z</time>
      </trkpt>
      <trkpt lat="49.31454" lon="1.13064">
        <ele>1</ele>
        <time>2026-09-01T08:10:33.860Z</time>
      </trkpt>
      <trkpt lat="49.31456" lon="1.1307">
        <ele>5</ele>
        <time>2026-09-01T08:10:38.652Z</time>
      </trkpt>
      <trkpt lat="49.31457" lon="1.13077">
        <ele>5</ele>
        <time>2026-09-01T08:10:43.226Z</time>
      </trkpt>
      <trkpt lat="49.31457" lon="1.13084">
        <ele>5</ele>
        <time>2026-09-01T08:10:47.729Z</time>
      </trkpt>
      <trkpt lat="49.31458" lon="1.13092">
        <ele>5</ele>
        <time>2026-09-01T08:10:52.207Z</time>
      </trkpt>
      <trkpt lat="49.31458" lon="1.13098">
        <ele>5</ele>
        <time>2026-09-01T08:10:56.553Z</time>
      </trkpt>
      <trkpt lat="49.31458" lon="1.13105">
        <ele>5</ele>
        <time>2026-09-01T08:11:00.828Z</time>
      </trkpt>
      <trkpt lat="49.31458" lon="1.13111">
        <ele>5</ele>
        <time>2026-09-01T08:11:05.068Z</time>
      </trkpt>
      <trkpt lat="49.31458" lon="1.13118">
        <ele>5</ele>
        <time>2026-09-01T08:11:09.405Z</time>
      </trkpt>
      <trkpt lat="49.31458" lon="1.13124">
        <ele>1</ele>
        <time>2026-09-01T08:11:13.707Z</time>
      </trkpt>
      <trkpt lat="49.31459" lon="1.13131">
        <ele>4</ele>
        <time>2026-09-01T08:11:17.860Z</time>
      </trkpt>
      <trkpt lat="49.31459" lon="1.13138">
        <ele>4</ele>
        <time>2026-09-01T08:11:22.153Z</time>
      </trkpt>
      <trkpt lat="49.31458" lon="1.13144">
        <ele>5</ele>
        <time>2026-09-01T08:11:26.209Z</time>
      </trkpt>
      <trkpt lat="49.31456" lon="1.1315">
        <ele>5</ele>
        <time>2026-09-01T08:11:30.405Z</time>
      </trkpt>
      <trkpt lat="49.31456" lon="1.13157">
        <ele>5</ele>
        <time>2026-09-01T08:11:34.733Z</time>
      </trkpt>
      <trkpt lat="49.31456" lon="1.13163">
        <ele>5</ele>
        <time>2026-09-01T08:11:38.860Z</time>
      </trkpt>
      <trkpt lat="49.31457" lon="1.1317">
        <ele>5</ele>
        <time>2026-09-01T08:11:43.153Z</time>
      </trkpt>
      <trkpt lat="49.31457" lon="1.13178">
        <ele>5</ele>
        <time>2026-09-01T08:11:47.860Z</time>
      </trkpt>
      <trkpt lat="49.31458" lon="1.13186">
        <ele>5</ele>
        <time>2026-09-01T08:11:52.625Z</time>
      </trkpt>
      <trkpt lat="49.31457" lon="1.13192">
        <ele>5</ele>
        <time>2026-09-01T08:11:56.690Z</time>
      </trkpt>
      <trkpt lat="49.31457" lon="1.13199">
        <ele>5</ele>
        <time>2026-09-01T08:12:00.851Z</time>
      </trkpt>
      <trkpt lat="49.31457" lon="1.13207">
        <ele>5</ele>
        <time>2026-09-01T08:12:05.733Z</time>
      </trkpt>
      <trkpt lat="49.31457" lon="1.13212">
        <ele>5</ele>
        <time>2026-09-01T08:12:09.860Z</time>
      </trkpt>
      <trkpt lat="49.31458" lon="1.13219">
        <ele>5</ele>
        <time>2026-09-01T08:12:14.046Z</time>
      </trkpt>
      <trkpt lat="49.31458" lon="1.13226">
        <ele>5</ele>
        <time>2026-09-01T08:12:18.313Z</time>
      </trkpt>
      <trkpt lat="49.31457" lon="1.13233">
        <ele>5</ele>
        <time>2026-09-01T08:12:22.527Z</time>
      </trkpt>
      <trkpt lat="49.31457" lon="1.1324">
        <ele>4</ele>
        <time>2026-09-01T08:12:26.767Z</time>
      </trkpt>
      <trkpt lat="49.31457" lon="1.13246">
        <ele>4</ele>
        <time>2026-09-01T08:12:30.860Z</time>
      </trkpt>
      <trkpt lat="49.31457" lon="1.13254">
        <ele>4</ele>
        <time>2026-09-01T08:12:35.652Z</time>
      </trkpt>
      <trkpt lat="49.31456" lon="1.13261">
        <ele>4</ele>
        <time>2026-09-01T08:12:39.848Z</time>
      </trkpt>
      <trkpt lat="49.31456" lon="1.13268">
        <ele>4</ele>
        <time>2026-09-01T08:12:43.860Z</time>
      </trkpt>
      <trkpt lat="49.31456" lon="1.13276">
        <ele>4</ele>
        <time>2026-09-01T08:12:48.188Z</time>
      </trkpt>
      <trkpt lat="49.31455" lon="1.13282">
        <ele>4</ele>
        <time>2026-09-01T08:12:52.569Z</time>
      </trkpt>
      <trkpt lat="49.31455" lon="1.13289">
        <ele>4</ele>
        <time>2026-09-01T08:12:57.047Z</time>
      </trkpt>
      <trkpt lat="49.31454" lon="1.13296">
        <ele>5</ele>
        <time>2026-09-01T08:13:01.454Z</time>
      </trkpt>
      <trkpt lat="49.31453" lon="1.13302">
        <ele>5</ele>
        <time>2026-09-01T08:13:05.791Z</time>
      </trkpt>
      <trkpt lat="49.31454" lon="1.13309">
        <ele>5</ele>
        <time>2026-09-01T08:13:09.908Z</time>
      </trkpt>
      <trkpt lat="49.31454" lon="1.13315">
        <ele>5</ele>
        <time>2026-09-01T08:13:14.210Z</time>
      </trkpt>
      <trkpt lat="49.31455" lon="1.13322">
        <ele>6</ele>
        <time>2026-09-01T08:13:18.432Z</time>
      </trkpt>
      <trkpt lat="49.31455" lon="1.13329">
        <ele>6</ele>
        <time>2026-09-01T08:13:22.646Z</time>
      </trkpt>
      <trkpt lat="49.31455" lon="1.13336">
        <ele>6</ele>
        <time>2026-09-01T08:13:26.860Z</time>
      </trkpt>
      <trkpt lat="49.31456" lon="1.13342">
        <ele>6</ele>
        <time>2026-09-01T08:13:31.189Z</time>
      </trkpt>
      <trkpt lat="49.31456" lon="1.13348">
        <ele>7</ele>
        <time>2026-09-01T08:13:35.806Z</time>
      </trkpt>
      <trkpt lat="49.31456" lon="1.13354">
        <ele>7</ele>
        <time>2026-09-01T08:13:39.860Z</time>
      </trkpt>
      <trkpt lat="49.31456" lon="1.13361">
        <ele>7</ele>
        <time>2026-09-01T08:13:44.208Z</time>
      </trkpt>
      <trkpt lat="49.31456" lon="1.13366">
        <ele>7</ele>
        <time>2026-09-01T08:13:48.747Z</time>
      </trkpt>
      <trkpt lat="49.31456" lon="1.13373">
        <ele>7</ele>
        <time>2026-09-01T08:13:52.847Z</time>
      </trkpt>
      <trkpt lat="49.31456" lon="1.1338">
        <ele>8</ele>
        <time>2026-09-01T08:13:57.026Z</time>
      </trkpt>
      <trkpt lat="49.31455" lon="1.13387">
        <ele>8</ele>
        <time>2026-09-01T08:14:01.406Z</time>
      </trkpt>
      <trkpt lat="49.31455" lon="1.13393">
        <ele>8</ele>
        <time>2026-09-01T08:14:05.489Z</time>
      </trkpt>
      <trkpt lat="49.31455" lon="1.134">
        <ele>8</ele>
        <time>2026-09-01T08:14:09.729Z</time>
      </trkpt>
      <trkpt lat="49.31454" lon="1.13406">
        <ele>7</ele>
        <time>2026-09-01T08:14:13.860Z</time>
      </trkpt>
      <trkpt lat="49.31453" lon="1.13413">
        <ele>7</ele>
        <time>2026-09-01T08:14:18.192Z</time>
      </trkpt>
      <trkpt lat="49.31452" lon="1.13418">
        <ele>7</ele>
        <time>2026-09-01T08:14:22.766Z</time>
      </trkpt>
      <trkpt lat="49.31451" lon="1.13425">
        <ele>7</ele>
        <time>2026-09-01T08:14:27.007Z</time>
      </trkpt>
      <trkpt lat="49.31453" lon="1.13433">
        <ele>8</ele>
        <time>2026-09-01T08:14:31.212Z</time>
      </trkpt>
      <trkpt lat="49.31457" lon="1.13436">
        <ele>8</ele>
        <time>2026-09-01T08:14:35.452Z</time>
      </trkpt>
      <trkpt lat="49.31463" lon="1.13437">
        <ele>8</ele>
        <time>2026-09-01T08:14:39.860Z</time>
      </trkpt>
      <trkpt lat="49.31467" lon="1.13438">
        <ele>8</ele>
        <time>2026-09-01T08:14:44.108Z</time>
      </trkpt>
      <trkpt lat="49.31472" lon="1.13437">
        <ele>8</ele>
        <time>2026-09-01T08:14:48.507Z</time>
      </trkpt>
      <trkpt lat="49.31476" lon="1.13437">
        <ele>8</ele>
        <time>2026-09-01T08:14:52.589Z</time>
      </trkpt>
      <trkpt lat="49.31481" lon="1.13439">
        <ele>8</ele>
        <time>2026-09-01T08:15:00.860Z</time>
      </trkpt>
      <trkpt lat="49.31482" lon="1.1344">
        <ele>8</ele>
        <time>2026-09-01T08:15:04.860Z</time>
      </trkpt>
      <trkpt lat="49.31484" lon="1.13441">
        <ele>8</ele>
        <time>2026-09-01T08:15:09.860Z</time>
      </trkpt>
      <trkpt lat="49.31489" lon="1.1344">
        <ele>6</ele>
        <time>2026-09-01T08:15:14.860Z</time>
      </trkpt>
      <trkpt lat="49.31492" lon="1.13439">
        <ele>6</ele>
        <time>2026-09-01T08:15:19.860Z</time>
      </trkpt>
      <trkpt lat="49.31495" lon="1.13437">
        <ele>6</ele>
        <time>2026-09-01T08:15:23.860Z</time>
      </trkpt>
      <trkpt lat="49.31499" lon="1.13436">
        <ele>6</ele>
        <time>2026-09-01T08:15:28.860Z</time>
      </trkpt>
      <trkpt lat="49.31504" lon="1.13435">
        <ele>6</ele>
        <time>2026-09-01T08:15:33.860Z</time>
      </trkpt>
      <trkpt lat="49.31509" lon="1.13434">
        <ele>6</ele>
        <time>2026-09-01T08:15:38.860Z</time>
      </trkpt>
      <trkpt lat="49.31514" lon="1.13435">
        <ele>1</ele>
        <time>2026-09-01T08:15:43.507Z</time>
      </trkpt>
      <trkpt lat="49.31518" lon="1.13434">
        <ele>1</ele>
        <time>2026-09-01T08:15:47.860Z</time>
      </trkpt>
      <trkpt lat="49.31522" lon="1.13433">
        <ele>1</ele>
        <time>2026-09-01T08:15:52.312Z</time>
      </trkpt>
      <trkpt lat="49.31526" lon="1.13433">
        <ele>1</ele>
        <time>2026-09-01T08:15:56.588Z</time>
      </trkpt>
      <trkpt lat="49.3153" lon="1.13435">
        <ele>1</ele>
        <time>2026-09-01T08:16:00.793Z</time>
      </trkpt>
      <trkpt lat="49.31534" lon="1.13437">
        <ele>1</ele>
        <time>2026-09-01T08:16:05.288Z</time>
      </trkpt>
      <trkpt lat="49.31538" lon="1.13439">
        <ele>1</ele>
        <time>2026-09-01T08:16:09.668Z</time>
      </trkpt>
      <trkpt lat="49.31542" lon="1.13439">
        <ele>1</ele>
        <time>2026-09-01T08:16:14.269Z</time>
      </trkpt>
      <trkpt lat="49.31546" lon="1.13439">
        <ele>1</ele>
        <time>2026-09-01T08:16:18.649Z</time>
      </trkpt>
      <trkpt lat="49.31549" lon="1.13439">
        <ele>1</ele>
        <time>2026-09-01T08:16:22.860Z</time>
      </trkpt>
      <trkpt lat="49.31552" lon="1.1344">
        <ele>1</ele>
        <time>2026-09-01T08:16:27.332Z</time>
      </trkpt>
      <trkpt lat="49.31555" lon="1.1344">
        <ele>1</ele>
        <time>2026-09-01T08:16:31.607Z</time>
      </trkpt>
      <trkpt lat="49.31558" lon="1.13441">
        <ele>1</ele>
        <time>2026-09-01T08:16:35.812Z</time>
      </trkpt>
      <trkpt lat="49.31561" lon="1.13442">
        <ele>1</ele>
        <time>2026-09-01T08:16:39.860Z</time>
      </trkpt>
      <trkpt lat="49.31564" lon="1.13443">
        <ele>1</ele>
        <time>2026-09-01T08:16:44.170Z</time>
      </trkpt>
      <trkpt lat="49.31568" lon="1.13444">
        <ele>1</ele>
        <time>2026-09-01T08:16:48.392Z</time>
      </trkpt>
      <trkpt lat="49.31571" lon="1.13445">
        <ele>1</ele>
        <time>2026-09-01T08:16:52.431Z</time>
      </trkpt>
      <trkpt lat="49.31578" lon="1.13445">
        <ele>1</ele>
        <time>2026-09-01T08:17:05.860Z</time>
      </trkpt>
      <trkpt lat="49.31579" lon="1.13444">
        <ele>1</ele>
        <time>2026-09-01T08:17:11.860Z</time>
      </trkpt>
      <trkpt lat="49.3158" lon="1.13443">
        <ele>1</ele>
        <time>2026-09-01T08:17:16.860Z</time>
      </trkpt>
      <trkpt lat="49.31581" lon="1.13443">
        <ele>1</ele>
        <time>2026-09-01T08:17:21.428Z</time>
      </trkpt>
      <trkpt lat="49.31585" lon="1.13439">
        <ele>1</ele>
        <time>2026-09-01T08:17:26.860Z</time>
      </trkpt>
      <trkpt lat="49.31587" lon="1.13436">
        <ele>1</ele>
        <time>2026-09-01T08:17:50.860Z</time>
      </trkpt>
      <trkpt lat="49.31588" lon="1.13436">
        <ele>1</ele>
        <time>2026-09-01T08:17:55.860Z</time>
      </trkpt>
      <trkpt lat="49.31589" lon="1.13436">
        <ele>1</ele>
        <time>2026-09-01T08:18:00.860Z</time>
      </trkpt>
      <trkpt lat="49.3159" lon="1.13436">
        <ele>1</ele>
        <time>2026-09-01T08:18:04.860Z</time>
      </trkpt>
      <trkpt lat="49.31594" lon="1.13434">
        <ele>1</ele>
        <time>2026-09-01T08:18:09.211Z</time>
      </trkpt>
      <trkpt lat="49.31599" lon="1.13433">
        <ele>6</ele>
        <time>2026-09-01T08:18:13.513Z</time>
      </trkpt>
      <trkpt lat="49.31603" lon="1.13435">
        <ele>6</ele>
        <time>2026-09-01T08:18:17.860Z</time>
      </trkpt>
      <trkpt lat="49.31604" lon="1.13442">
        <ele>6</ele>
        <time>2026-09-01T08:18:22.090Z</time>
      </trkpt>
      <trkpt lat="49.31604" lon="1.13449">
        <ele>6</ele>
        <time>2026-09-01T08:18:26.189Z</time>
      </trkpt>
      <trkpt lat="49.31605" lon="1.13455">
        <ele>6</ele>
        <time>2026-09-01T08:18:30.386Z</time>
      </trkpt>
      <trkpt lat="49.31605" lon="1.13462">
        <ele>5</ele>
        <time>2026-09-01T08:18:34.749Z</time>
      </trkpt>
      <trkpt lat="49.31605" lon="1.13469">
        <ele>5</ele>
        <time>2026-09-01T08:18:39.209Z</time>
      </trkpt>
      <trkpt lat="49.31605" lon="1.13477">
        <ele>5</ele>
        <time>2026-09-01T08:18:43.510Z</time>
      </trkpt>
      <trkpt lat="49.31606" lon="1.13484">
        <ele>5</ele>
        <time>2026-09-01T08:18:47.829Z</time>
      </trkpt>
      <trkpt lat="49.31606" lon="1.13491">
        <ele>5</ele>
        <time>2026-09-01T08:18:52.166Z</time>
      </trkpt>
      <trkpt lat="49.31602" lon="1.13495">
        <ele>5</ele>
        <time>2026-09-01T08:18:56.573Z</time>
      </trkpt>
      <trkpt lat="49.31598" lon="1.13493">
        <ele>5</ele>
        <time>2026-09-01T08:19:00.787Z</time>
      </trkpt>
      <trkpt lat="49.31594" lon="1.1349">
        <ele>1</ele>
        <time>2026-09-01T08:19:04.860Z</time>
      </trkpt>
      <trkpt lat="49.31591" lon="1.13492">
        <ele>1</ele>
        <time>2026-09-01T08:19:09.860Z</time>
      </trkpt>
      <trkpt lat="49.3159" lon="1.13494">
        <ele>1</ele>
        <time>2026-09-01T08:19:13.860Z</time>
      </trkpt>
      <trkpt lat="49.31585" lon="1.1349">
        <ele>1</ele>
        <time>2026-09-01T08:19:18.494Z</time>
      </trkpt>
      <trkpt lat="49.31582" lon="1.13486">
        <ele>1</ele>
        <time>2026-09-01T08:19:22.860Z</time>
      </trkpt>
      <trkpt lat="49.31578" lon="1.13482">
        <ele>1</ele>
        <time>2026-09-01T08:19:27.571Z</time>
      </trkpt>
      <trkpt lat="49.31574" lon="1.13478">
        <ele>1</ele>
        <time>2026-09-01T08:19:31.860Z</time>
      </trkpt>
      <trkpt lat="49.3157" lon="1.13475">
        <ele>1</ele>
        <time>2026-09-01T08:19:36.192Z</time>
      </trkpt>
      <trkpt lat="49.31567" lon="1.13473">
        <ele>1</ele>
        <time>2026-09-01T08:19:40.493Z</time>
      </trkpt>
      <trkpt lat="49.31562" lon="1.1347">
        <ele>1</ele>
        <time>2026-09-01T08:19:44.707Z</time>
      </trkpt>
      <trkpt lat="49.31558" lon="1.13469">
        <ele>1</ele>
        <time>2026-09-01T08:19:49.465Z</time>
      </trkpt>
      <trkpt lat="49.31554" lon="1.13468">
        <ele>1</ele>
        <time>2026-09-01T08:19:53.688Z</time>
      </trkpt>
      <trkpt lat="49.31549" lon="1.13468">
        <ele>1</ele>
        <time>2026-09-01T08:19:57.860Z</time>
      </trkpt>
      <trkpt lat="49.31546" lon="1.13469">
        <ele>1</ele>
        <time>2026-09-01T08:20:01.860Z</time>
      </trkpt>
      <trkpt lat="49.31541" lon="1.13466">
        <ele>1</ele>
        <time>2026-09-01T08:20:06.610Z</time>
      </trkpt>
      <trkpt lat="49.31539" lon="1.13461">
        <ele>1</ele>
        <time>2026-09-01T08:20:11.860Z</time>
      </trkpt>
      <trkpt lat="49.31538" lon="1.13461">
        <ele>1</ele>
        <time>2026-09-01T08:20:16.731Z</time>
      </trkpt>
      <trkpt lat="49.31538" lon="1.13461">
        <ele>1</ele>
        <time>2026-09-01T08:20:21.332Z</time>
      </trkpt>
      <trkpt lat="49.31534" lon="1.13459">
        <ele>1</ele>
        <time>2026-09-01T08:20:25.713Z</time>
      </trkpt>
      <trkpt lat="49.31531" lon="1.13455">
        <ele>1</ele>
        <time>2026-09-01T08:20:30.860Z</time>
      </trkpt>
      <trkpt lat="49.31529" lon="1.13453">
        <ele>1</ele>
        <time>2026-09-01T08:20:35.571Z</time>
      </trkpt>
      <trkpt lat="49.31526" lon="1.1345">
        <ele>1</ele>
        <time>2026-09-01T08:20:39.860Z</time>
      </trkpt>
      <trkpt lat="49.31521" lon="1.13454">
        <ele>1</ele>
        <time>2026-09-01T08:20:44.113Z</time>
      </trkpt>
      <trkpt lat="49.31517" lon="1.13457">
        <ele>1</ele>
        <time>2026-09-01T08:20:48.625Z</time>
      </trkpt>
      <trkpt lat="49.31513" lon="1.13461">
        <ele>1</ele>
        <time>2026-09-01T08:20:53.225Z</time>
      </trkpt>
      <trkpt lat="49.31509" lon="1.13462">
        <ele>1</ele>
        <time>2026-09-01T08:20:57.650Z</time>
      </trkpt>
      <trkpt lat="49.31505" lon="1.13462">
        <ele>1</ele>
        <time>2026-09-01T08:21:01.860Z</time>
      </trkpt>
      <trkpt lat="49.315" lon="1.13463">
        <ele>1</ele>
        <time>2026-09-01T08:21:06.473Z</time>
      </trkpt>
      <trkpt lat="49.31496" lon="1.13464">
        <ele>1</ele>
        <time>2026-09-01T08:21:10.860Z</time>
      </trkpt>
      <trkpt lat="49.31491" lon="1.13464">
        <ele>1</ele>
        <time>2026-09-01T08:21:15.860Z</time>
      </trkpt>
      <trkpt lat="49.31488" lon="1.13464">
        <ele>1</ele>
        <time>2026-09-01T08:21:19.860Z</time>
      </trkpt>
      <trkpt lat="49.31485" lon="1.13465">
        <ele>1</ele>
        <time>2026-09-01T08:21:23.860Z</time>
      </trkpt>
      <trkpt lat="49.3148" lon="1.13466">
        <ele>1</ele>
        <time>2026-09-01T08:21:28.411Z</time>
      </trkpt>
      <trkpt lat="49.31476" lon="1.13466">
        <ele>1</ele>
        <time>2026-09-01T08:21:32.774Z</time>
      </trkpt>
      <trkpt lat="49.31472" lon="1.13465">
        <ele>1</ele>
        <time>2026-09-01T08:21:36.860Z</time>
      </trkpt>
      <trkpt lat="49.31468" lon="1.13464">
        <ele>1</ele>
        <time>2026-09-01T08:21:41.430Z</time>
      </trkpt>
      <trkpt lat="49.31464" lon="1.13463">
        <ele>1</ele>
        <time>2026-09-01T08:21:45.450Z</time>
      </trkpt>
      <trkpt lat="49.31459" lon="1.13462">
        <ele>1</ele>
        <time>2026-09-01T08:21:49.813Z</time>
      </trkpt>
      <trkpt lat="49.31455" lon="1.1346">
        <ele>1</ele>
        <time>2026-09-01T08:21:54.194Z</time>
      </trkpt>
      <trkpt lat="49.3145" lon="1.13459">
        <ele>1</ele>
        <time>2026-09-01T08:21:58.372Z</time>
      </trkpt>
      <trkpt lat="49.31447" lon="1.13458">
        <ele>8</ele>
        <time>2026-09-01T08:22:02.860Z</time>
      </trkpt>
      <trkpt lat="49.31444" lon="1.13456">
        <ele>8</ele>
        <time>2026-09-01T08:22:07.353Z</time>
      </trkpt>
      <trkpt lat="49.31439" lon="1.13455">
        <ele>8</ele>
        <time>2026-09-01T08:22:11.470Z</time>
      </trkpt>
      <trkpt lat="49.31435" lon="1.13455">
        <ele>8</ele>
        <time>2026-09-01T08:22:15.728Z</time>
      </trkpt>
      <trkpt lat="49.31431" lon="1.13454">
        <ele>8</ele>
        <time>2026-09-01T08:22:19.828Z</time>
      </trkpt>
      <trkpt lat="49.31427" lon="1.13452">
        <ele>6</ele>
        <time>2026-09-01T08:22:24.428Z</time>
      </trkpt>
      <trkpt lat="49.31423" lon="1.13451">
        <ele>6</ele>
        <time>2026-09-01T08:22:28.650Z</time>
      </trkpt>
      <trkpt lat="49.31419" lon="1.13453">
        <ele>6</ele>
        <time>2026-09-01T08:22:32.860Z</time>
      </trkpt>
      <trkpt lat="49.31415" lon="1.13453">
        <ele>6</ele>
        <time>2026-09-01T08:22:37.165Z</time>
      </trkpt>
      <trkpt lat="49.31412" lon="1.1345">
        <ele>6</ele>
        <time>2026-09-01T08:22:41.580Z</time>
      </trkpt>
      <trkpt lat="49.31408" lon="1.13446">
        <ele>6</ele>
        <time>2026-09-01T08:22:46.128Z</time>
      </trkpt>
      <trkpt lat="49.31404" lon="1.13442">
        <ele>6</ele>
        <time>2026-09-01T08:22:50.649Z</time>
      </trkpt>
      <trkpt lat="49.314" lon="1.13443">
        <ele>7</ele>
        <time>2026-09-01T08:22:54.767Z</time>
      </trkpt>
      <trkpt lat="49.31395" lon="1.13443">
        <ele>7</ele>
        <time>2026-09-01T08:22:58.860Z</time>
      </trkpt>
      <trkpt lat="49.31391" lon="1.13444">
        <ele>7</ele>
        <time>2026-09-01T08:23:03.106Z</time>
      </trkpt>
      <trkpt lat="49.31388" lon="1.13444">
        <ele>7</ele>
        <time>2026-09-01T08:23:07.346Z</time>
      </trkpt>
      <trkpt lat="49.31384" lon="1.13444">
        <ele>7</ele>
        <time>2026-09-01T08:23:11.832Z</time>
      </trkpt>
      <trkpt lat="49.31379" lon="1.13443">
        <ele>7</ele>
        <time>2026-09-01T08:23:16.151Z</time>
      </trkpt>
      <trkpt lat="49.31375" lon="1.13444">
        <ele>11</ele>
        <time>2026-09-01T08:23:20.734Z</time>
      </trkpt>
      <trkpt lat="49.3137" lon="1.13442">
        <ele>11</ele>
        <time>2026-09-01T08:23:24.860Z</time>
      </trkpt>
      <trkpt lat="49.31366" lon="1.13441">
        <ele>11</ele>
        <time>2026-09-01T08:23:29.047Z</time>
      </trkpt>
      <trkpt lat="49.31364" lon="1.13443">
        <ele>11</ele>
        <time>2026-09-01T08:23:33.173Z</time>
      </trkpt>
      <trkpt lat="49.31359" lon="1.13442">
        <ele>11</ele>
        <time>2026-09-01T08:23:37.352Z</time>
      </trkpt>
      <trkpt lat="49.31354" lon="1.13441">
        <ele>11</ele>
        <time>2026-09-01T08:23:41.390Z</time>
      </trkpt>
      <trkpt lat="49.3135" lon="1.13441">
        <ele>11</ele>
        <time>2026-09-01T08:23:45.569Z</time>
      </trkpt>
      <trkpt lat="49.31345" lon="1.13438">
        <ele>9</ele>
        <time>2026-09-01T08:23:50.133Z</time>
      </trkpt>
      <trkpt lat="49.3134" lon="1.13436">
        <ele>9</ele>
        <time>2026-09-01T08:23:54.189Z</time>
      </trkpt>
      <trkpt lat="49.31336" lon="1.13435">
        <ele>9</ele>
        <time>2026-09-01T08:23:58.227Z</time>
      </trkpt>
      <trkpt lat="49.31332" lon="1.13433">
        <ele>9</ele>
        <time>2026-09-01T08:24:02.371Z</time>
      </trkpt>
      <trkpt lat="49.31327" lon="1.13432">
        <ele>9</ele>
        <time>2026-09-01T08:24:06.550Z</time>
      </trkpt>
      <trkpt lat="49.31323" lon="1.13431">
        <ele>9</ele>
        <time>2026-09-01T08:24:10.746Z</time>
      </trkpt>
      <trkpt lat="49.31318" lon="1.1343">
        <ele>8</ele>
        <time>2026-09-01T08:24:14.810Z</time>
      </trkpt>
      <trkpt lat="49.31312" lon="1.1343">
        <ele>8</ele>
        <time>2026-09-01T08:24:19.366Z</time>
      </trkpt>
      <trkpt lat="49.31307" lon="1.13429">
        <ele>8</ele>
        <time>2026-09-01T08:24:23.607Z</time>
      </trkpt>
      <trkpt lat="49.31303" lon="1.13429">
        <ele>8</ele>
        <time>2026-09-01T08:24:27.860Z</time>
      </trkpt>
      <trkpt lat="49.31298" lon="1.13429">
        <ele>8</ele>
        <time>2026-09-01T08:24:32.131Z</time>
      </trkpt>
      <trkpt lat="49.31293" lon="1.1343">
        <ele>8</ele>
        <time>2026-09-01T08:24:36.388Z</time>
      </trkpt>
      <trkpt lat="49.31288" lon="1.1343">
        <ele>10</ele>
        <time>2026-09-01T08:24:40.470Z</time>
      </trkpt>
      <trkpt lat="49.31283" lon="1.13428">
        <ele>10</ele>
        <time>2026-09-01T08:24:44.588Z</time>
      </trkpt>
      <trkpt lat="49.31278" lon="1.13427">
        <ele>10</ele>
        <time>2026-09-01T08:24:48.766Z</time>
      </trkpt>
      <trkpt lat="49.31273" lon="1.13427">
        <ele>10</ele>
        <time>2026-09-01T08:24:52.860Z</time>
      </trkpt>
      <trkpt lat="49.31269" lon="1.13426">
        <ele>10</ele>
        <time>2026-09-01T08:24:56.860Z</time>
      </trkpt>
      <trkpt lat="49.31264" lon="1.13427">
        <ele>10</ele>
        <time>2026-09-01T08:25:01.074Z</time>
      </trkpt>
      <trkpt lat="49.31259" lon="1.13427">
        <ele>7</ele>
        <time>2026-09-01T08:25:05.130Z</time>
      </trkpt>
      <trkpt lat="49.31254" lon="1.13426">
        <ele>7</ele>
        <time>2026-09-01T08:25:09.273Z</time>
      </trkpt>
      <trkpt lat="49.31249" lon="1.13426">
        <ele>7</ele>
        <time>2026-09-01T08:25:13.425Z</time>
      </trkpt>
      <trkpt lat="49.31244" lon="1.13426">
        <ele>7</ele>
        <time>2026-09-01T08:25:17.630Z</time>
      </trkpt>
      <trkpt lat="49.3124" lon="1.13428">
        <ele>7</ele>
        <time>2026-09-01T08:25:21.730Z</time>
      </trkpt>
      <trkpt lat="49.31235" lon="1.13429">
        <ele>5</ele>
        <time>2026-09-01T08:25:25.860Z</time>
      </trkpt>
      <trkpt lat="49.3123" lon="1.13431">
        <ele>6</ele>
        <time>2026-09-01T08:25:30.026Z</time>
      </trkpt>
      <trkpt lat="49.31226" lon="1.13435">
        <ele>6</ele>
        <time>2026-09-01T08:25:34.248Z</time>
      </trkpt>
      <trkpt lat="49.31222" lon="1.13439">
        <ele>6</ele>
        <time>2026-09-01T08:25:38.427Z</time>
      </trkpt>
      <trkpt lat="49.31217" lon="1.13441">
        <ele>6</ele>
        <time>2026-09-01T08:25:42.588Z</time>
      </trkpt>
      <trkpt lat="49.31212" lon="1.13443">
        <ele>6</ele>
        <time>2026-09-01T08:25:47.188Z</time>
      </trkpt>
      <trkpt lat="49.31208" lon="1.13446">
        <ele>5</ele>
        <time>2026-09-01T08:25:51.331Z</time>
      </trkpt>
      <trkpt lat="49.31203" lon="1.13449">
        <ele>5</ele>
        <time>2026-09-01T08:25:55.589Z</time>
      </trkpt>
      <trkpt lat="49.31198" lon="1.13451">
        <ele>5</ele>
        <time>2026-09-01T08:25:59.811Z</time>
      </trkpt>
      <trkpt lat="49.31193" lon="1.13452">
        <ele>5</ele>
        <time>2026-09-01T08:26:03.860Z</time>
      </trkpt>
      <trkpt lat="49.31188" lon="1.13453">
        <ele>5</ele>
        <time>2026-09-01T08:26:08.274Z</time>
      </trkpt>
      <trkpt lat="49.31184" lon="1.13453">
        <ele>5</ele>
        <time>2026-09-01T08:26:12.860Z</time>
      </trkpt>
      <trkpt lat="49.31181" lon="1.13455">
        <ele>5</ele>
        <time>2026-09-01T08:26:16.860Z</time>
      </trkpt>
      <trkpt lat="49.31181" lon="1.13457">
        <ele>5</ele>
        <time>2026-09-01T08:26:21.860Z</time>
      </trkpt>
      <trkpt lat="49.3118" lon="1.13462">
        <ele>5</ele>
        <time>2026-09-01T08:26:26.770Z</time>
      </trkpt>
      <trkpt lat="49.3118" lon="1.13468">
        <ele>5</ele>
        <time>2026-09-01T08:26:30.860Z</time>
      </trkpt>
      <trkpt lat="49.3118" lon="1.13473">
        <ele>5</ele>
        <time>2026-09-01T08:26:34.860Z</time>
      </trkpt>
      <trkpt lat="49.31182" lon="1.13473">
        <ele>5</ele>
        <time>2026-09-01T08:29:05.860Z</time>
      </trkpt>
      <trkpt lat="49.31179" lon="1.1347">
        <ele>5</ele>
        <time>2026-09-01T08:29:10.083Z</time>
      </trkpt>
      <trkpt lat="49.31172" lon="1.13468">
        <ele>5</ele>
        <time>2026-09-01T08:29:14.169Z</time>
      </trkpt>
      <trkpt lat="49.31169" lon="1.13471">
        <ele>5</ele>
        <time>2026-09-01T08:29:18.592Z</time>
      </trkpt>
      <trkpt lat="49.31165" lon="1.13468">
        <ele>5</ele>
        <time>2026-09-01T08:29:22.626Z</time>
      </trkpt>
      <trkpt lat="49.3116" lon="1.13467">
        <ele>5</ele>
        <time>2026-09-01T08:29:27.225Z</time>
      </trkpt>
      <trkpt lat="49.31156" lon="1.13466">
        <ele>5</ele>
        <time>2026-09-01T08:29:31.531Z</time>
      </trkpt>
      <trkpt lat="49.31155" lon="1.13468">
        <ele>5</ele>
        <time>2026-09-01T08:29:36.172Z</time>
      </trkpt>
      <trkpt lat="49.31153" lon="1.1347">
        <ele>5</ele>
        <time>2026-09-01T08:29:40.860Z</time>
      </trkpt>
      <trkpt lat="49.31149" lon="1.1347">
        <ele>5</ele>
        <time>2026-09-01T08:29:45.299Z</time>
      </trkpt>
      <trkpt lat="49.31144" lon="1.13471">
        <ele>5</ele>
        <time>2026-09-01T08:29:49.397Z</time>
      </trkpt>
      <trkpt lat="49.31139" lon="1.13472">
        <ele>5</ele>
        <time>2026-09-01T08:29:53.452Z</time>
      </trkpt>
      <trkpt lat="49.31134" lon="1.13473">
        <ele>5</ele>
        <time>2026-09-01T08:29:57.612Z</time>
      </trkpt>
      <trkpt lat="49.3113" lon="1.13476">
        <ele>5</ele>
        <time>2026-09-01T08:30:01.751Z</time>
      </trkpt>
      <trkpt lat="49.31126" lon="1.13481">
        <ele>5</ele>
        <time>2026-09-01T08:30:05.860Z</time>
      </trkpt>
      <trkpt lat="49.31123" lon="1.13485">
        <ele>5</ele>
        <time>2026-09-01T08:30:09.860Z</time>
      </trkpt>
      <trkpt lat="49.31121" lon="1.1349">
        <ele>4</ele>
        <time>2026-09-01T08:30:14.860Z</time>
      </trkpt>
      <trkpt lat="49.31121" lon="1.13493">
        <ele>4</ele>
        <time>2026-09-01T08:30:19.860Z</time>
      </trkpt>
      <trkpt lat="49.31119" lon="1.13499">
        <ele>4</ele>
        <time>2026-09-01T08:30:24.520Z</time>
      </trkpt>
      <trkpt lat="49.31118" lon="1.13505">
        <ele>4</ele>
        <time>2026-09-01T08:30:28.860Z</time>
      </trkpt>
      <trkpt lat="49.31117" lon="1.13511">
        <ele>4</ele>
        <time>2026-09-01T08:30:33.155Z</time>
      </trkpt>
      <trkpt lat="49.31117" lon="1.13517">
        <ele>3</ele>
        <time>2026-09-01T08:30:37.860Z</time>
      </trkpt>
      <trkpt lat="49.31117" lon="1.13522">
        <ele>3</ele>
        <time>2026-09-01T08:30:42.470Z</time>
      </trkpt>
      <trkpt lat="49.31118" lon="1.13527">
        <ele>3</ele>
        <time>2026-09-01T08:30:46.860Z</time>
      </trkpt>
      <trkpt lat="49.3112" lon="1.13534">
        <ele>3</ele>
        <time>2026-09-01T08:30:51.648Z</time>
      </trkpt>
      <trkpt lat="49.3112" lon="1.1354">
        <ele>3</ele>
        <time>2026-09-01T08:30:55.828Z</time>
      </trkpt>
      <trkpt lat="49.3112" lon="1.13546">
        <ele>1</ele>
        <time>2026-09-01T08:30:59.860Z</time>
      </trkpt>
      <trkpt lat="49.3112" lon="1.13551">
        <ele>1</ele>
        <time>2026-09-01T08:31:04.123Z</time>
      </trkpt>
      <trkpt lat="49.3112" lon="1.13559">
        <ele>1</ele>
        <time>2026-09-01T08:31:08.786Z</time>
      </trkpt>
      <trkpt lat="49.3112" lon="1.13565">
        <ele>1</ele>
        <time>2026-09-01T08:31:13.422Z</time>
      </trkpt>
      <trkpt lat="49.31121" lon="1.13572">
        <ele>2</ele>
        <time>2026-09-01T08:31:18.084Z</time>
      </trkpt>
      <trkpt lat="49.31121" lon="1.13578">
        <ele>2</ele>
        <time>2026-09-01T08:31:22.308Z</time>
      </trkpt>
      <trkpt lat="49.3112" lon="1.13583">
        <ele>2</ele>
        <time>2026-09-01T08:31:26.443Z</time>
      </trkpt>
      <trkpt lat="49.31121" lon="1.13588">
        <ele>2</ele>
        <time>2026-09-01T08:31:30.825Z</time>
      </trkpt>
      <trkpt lat="49.31125" lon="1.13596">
        <ele>2</ele>
        <time>2026-09-01T08:32:28.230Z</time>
      </trkpt>
      <trkpt lat="49.31121" lon="1.13601">
        <ele>2</ele>
        <time>2026-09-01T08:32:32.629Z</time>
      </trkpt>
      <trkpt lat="49.3112" lon="1.13608">
        <ele>2</ele>
        <time>2026-09-01T08:32:37.027Z</time>
      </trkpt>
      <trkpt lat="49.3112" lon="1.13614">
        <ele>2</ele>
        <time>2026-09-01T08:32:41.602Z</time>
      </trkpt>
      <trkpt lat="49.3112" lon="1.13621">
        <ele>2</ele>
        <time>2026-09-01T08:32:46.185Z</time>
      </trkpt>
      <trkpt lat="49.3112" lon="1.13626">
        <ele>2</ele>
        <time>2026-09-01T08:32:50.364Z</time>
      </trkpt>
      <trkpt lat="49.31119" lon="1.13633">
        <ele>2</ele>
        <time>2026-09-01T08:32:54.860Z</time>
      </trkpt>
      <trkpt lat="49.31119" lon="1.1364">
        <ele>2</ele>
        <time>2026-09-01T08:32:59.206Z</time>
      </trkpt>
      <trkpt lat="49.31119" lon="1.13646">
        <ele>2</ele>
        <time>2026-09-01T08:33:03.464Z</time>
      </trkpt>
      <trkpt lat="49.31117" lon="1.13653">
        <ele>2</ele>
        <time>2026-09-01T08:33:07.827Z</time>
      </trkpt>
      <trkpt lat="49.31117" lon="1.13659">
        <ele>2</ele>
        <time>2026-09-01T08:33:12.226Z</time>
      </trkpt>
      <trkpt lat="49.31116" lon="1.13666">
        <ele>2</ele>
        <time>2026-09-01T08:33:16.423Z</time>
      </trkpt>
      <trkpt lat="49.31116" lon="1.13673">
        <ele>2</ele>
        <time>2026-09-01T08:33:20.830Z</time>
      </trkpt>
      <trkpt lat="49.31114" lon="1.13679">
        <ele>2</ele>
        <time>2026-09-01T08:33:25.246Z</time>
      </trkpt>
      <trkpt lat="49.31113" lon="1.13685">
        <ele>2</ele>
        <time>2026-09-01T08:33:29.610Z</time>
      </trkpt>
      <trkpt lat="49.31112" lon="1.13692">
        <ele>2</ele>
        <time>2026-09-01T08:33:33.789Z</time>
      </trkpt>
      <trkpt lat="49.31112" lon="1.13699">
        <ele>2</ele>
        <time>2026-09-01T08:33:38.144Z</time>
      </trkpt>
      <trkpt lat="49.31112" lon="1.13707">
        <ele>2</ele>
        <time>2026-09-01T08:33:42.622Z</time>
      </trkpt>
      <trkpt lat="49.31111" lon="1.13714">
        <ele>3</ele>
        <time>2026-09-01T08:33:47.126Z</time>
      </trkpt>
      <trkpt lat="49.31112" lon="1.13721">
        <ele>3</ele>
        <time>2026-09-01T08:33:51.305Z</time>
      </trkpt>
      <trkpt lat="49.31112" lon="1.13728">
        <ele>3</ele>
        <time>2026-09-01T08:33:55.668Z</time>
      </trkpt>
      <trkpt lat="49.31112" lon="1.13735">
        <ele>3</ele>
        <time>2026-09-01T08:33:59.860Z</time>
      </trkpt>
      <trkpt lat="49.31112" lon="1.13742">
        <ele>2</ele>
        <time>2026-09-01T08:34:04.149Z</time>
      </trkpt>
      <trkpt lat="49.31113" lon="1.13749">
        <ele>2</ele>
        <time>2026-09-01T08:34:08.363Z</time>
      </trkpt>
      <trkpt lat="49.31116" lon="1.13753">
        <ele>2</ele>
        <time>2026-09-01T08:34:12.860Z</time>
      </trkpt>
      <trkpt lat="49.31118" lon="1.13756">
        <ele>2</ele>
        <time>2026-09-01T08:34:17.860Z</time>
      </trkpt>
      <trkpt lat="49.31119" lon="1.13763">
        <ele>2</ele>
        <time>2026-09-01T08:34:22.349Z</time>
      </trkpt>
      <trkpt lat="49.31119" lon="1.1377">
        <ele>2</ele>
        <time>2026-09-01T08:34:26.467Z</time>
      </trkpt>
      <trkpt lat="49.31119" lon="1.13777">
        <ele>2</ele>
        <time>2026-09-01T08:34:30.664Z</time>
      </trkpt>
      <trkpt lat="49.31119" lon="1.13781">
        <ele>2</ele>
        <time>2026-09-01T08:34:34.860Z</time>
      </trkpt>
      <trkpt lat="49.31119" lon="1.13786">
        <ele>2</ele>
        <time>2026-09-01T08:34:39.303Z</time>
      </trkpt>
      <trkpt lat="49.31118" lon="1.13793">
        <ele>2</ele>
        <time>2026-09-01T08:34:43.605Z</time>
      </trkpt>
      <trkpt lat="49.31117" lon="1.138">
        <ele>2</ele>
        <time>2026-09-01T08:34:47.828Z</time>
      </trkpt>
      <trkpt lat="49.31116" lon="1.13807">
        <ele>2</ele>
        <time>2026-09-01T08:34:52.103Z</time>
      </trkpt>
      <trkpt lat="49.31116" lon="1.13813">
        <ele>2</ele>
        <time>2026-09-01T08:34:56.326Z</time>
      </trkpt>
      <trkpt lat="49.31115" lon="1.1382">
        <ele>2</ele>
        <time>2026-09-01T08:35:00.663Z</time>
      </trkpt>
      <trkpt lat="49.31114" lon="1.13826">
        <ele>2</ele>
        <time>2026-09-01T08:35:04.860Z</time>
      </trkpt>
      <trkpt lat="49.31112" lon="1.13832">
        <ele>2</ele>
        <time>2026-09-01T08:35:09.188Z</time>
      </trkpt>
      <trkpt lat="49.31111" lon="1.13838">
        <ele>2</ele>
        <time>2026-09-01T08:35:13.587Z</time>
      </trkpt>
      <trkpt lat="49.31111" lon="1.13845">
        <ele>2</ele>
        <time>2026-09-01T08:35:17.860Z</time>
      </trkpt>
      <trkpt lat="49.31111" lon="1.13852">
        <ele>4</ele>
        <time>2026-09-01T08:35:22.164Z</time>
      </trkpt>
      <trkpt lat="49.3111" lon="1.1386">
        <ele>4</ele>
        <time>2026-09-01T08:35:26.484Z</time>
      </trkpt>
      <trkpt lat="49.31109" lon="1.13869">
        <ele>4</ele>
        <time>2026-09-01T08:35:30.830Z</time>
      </trkpt>
      <trkpt lat="49.31109" lon="1.13876">
        <ele>5</ele>
        <time>2026-09-01T08:35:34.860Z</time>
      </trkpt>
      <trkpt lat="49.31109" lon="1.13884">
        <ele>5</ele>
        <time>2026-09-01T08:35:39.187Z</time>
      </trkpt>
      <trkpt lat="49.31109" lon="1.13891">
        <ele>5</ele>
        <time>2026-09-01T08:35:43.402Z</time>
      </trkpt>
      <trkpt lat="49.31109" lon="1.13898">
        <ele>5</ele>
        <time>2026-09-01T08:35:47.563Z</time>
      </trkpt>
      <trkpt lat="49.31108" lon="1.13905">
        <ele>5</ele>
        <time>2026-09-01T08:35:51.860Z</time>
      </trkpt>
      <trkpt lat="49.31108" lon="1.13912">
        <ele>5</ele>
        <time>2026-09-01T08:35:56.263Z</time>
      </trkpt>
      <trkpt lat="49.31108" lon="1.13919">
        <ele>5</ele>
        <time>2026-09-01T08:36:00.425Z</time>
      </trkpt>
      <trkpt lat="49.31107" lon="1.13926">
        <ele>5</ele>
        <time>2026-09-01T08:36:04.648Z</time>
      </trkpt>
      <trkpt lat="49.31108" lon="1.13933">
        <ele>5</ele>
        <time>2026-09-01T08:36:08.844Z</time>
      </trkpt>
      <trkpt lat="49.31109" lon="1.1394">
        <ele>5</ele>
        <time>2026-09-01T08:36:13.085Z</time>
      </trkpt>
      <trkpt lat="49.31108" lon="1.13947">
        <ele>5</ele>
        <time>2026-09-01T08:36:17.246Z</time>
      </trkpt>
      <trkpt lat="49.31107" lon="1.13954">
        <ele>5</ele>
        <time>2026-09-01T08:36:21.346Z</time>
      </trkpt>
      <trkpt lat="49.31106" lon="1.1396">
        <ele>4</ele>
        <time>2026-09-01T08:36:25.446Z</time>
      </trkpt>
      <trkpt lat="49.31106" lon="1.13967">
        <ele>4</ele>
        <time>2026-09-01T08:36:29.704Z</time>
      </trkpt>
      <trkpt lat="49.31114" lon="1.13972">
        <ele>4</ele>
        <time>2026-09-01T08:36:58.728Z</time>
      </trkpt>
      <trkpt lat="49.3111" lon="1.13978">
        <ele>4</ele>
        <time>2026-09-01T08:37:03.065Z</time>
      </trkpt>
      <trkpt lat="49.31108" lon="1.13986">
        <ele>4</ele>
        <time>2026-09-01T08:37:07.147Z</time>
      </trkpt>
      <trkpt lat="49.31106" lon="1.13993">
        <ele>4</ele>
        <time>2026-09-01T08:37:11.344Z</time>
      </trkpt>
      <trkpt lat="49.31104" lon="1.14">
        <ele>4</ele>
        <time>2026-09-01T08:37:15.786Z</time>
      </trkpt>
      <trkpt lat="49.31101" lon="1.14006">
        <ele>4</ele>
        <time>2026-09-01T08:37:20.369Z</time>
      </trkpt>
      <trkpt lat="49.311" lon="1.14012">
        <ele>4</ele>
        <time>2026-09-01T08:37:24.319Z</time>
      </trkpt>
      <trkpt lat="49.311" lon="1.1402">
        <ele>4</ele>
        <time>2026-09-01T08:37:28.860Z</time>
      </trkpt>
      <trkpt lat="49.31099" lon="1.14028">
        <ele>4</ele>
        <time>2026-09-01T08:37:33.169Z</time>
      </trkpt>
      <trkpt lat="49.31099" lon="1.14034">
        <ele>4</ele>
        <time>2026-09-01T08:37:37.348Z</time>
      </trkpt>
      <trkpt lat="49.31097" lon="1.1404">
        <ele>4</ele>
        <time>2026-09-01T08:37:41.483Z</time>
      </trkpt>
      <trkpt lat="49.31096" lon="1.14047">
        <ele>4</ele>
        <time>2026-09-01T08:37:45.784Z</time>
      </trkpt>
      <trkpt lat="49.31096" lon="1.14055">
        <ele>4</ele>
        <time>2026-09-01T08:37:50.385Z</time>
      </trkpt>
      <trkpt lat="49.31094" lon="1.14062">
        <ele>4</ele>
        <time>2026-09-01T08:37:54.607Z</time>
      </trkpt>
      <trkpt lat="49.31094" lon="1.1407">
        <ele>7</ele>
        <time>2026-09-01T08:37:58.860Z</time>
      </trkpt>
      <trkpt lat="49.31094" lon="1.14077">
        <ele>7</ele>
        <time>2026-09-01T08:38:03.088Z</time>
      </trkpt>
      <trkpt lat="49.31094" lon="1.14084">
        <ele>7</ele>
        <time>2026-09-01T08:38:07.109Z</time>
      </trkpt>
      <trkpt lat="49.31093" lon="1.14091">
        <ele>7</ele>
        <time>2026-09-01T08:38:11.208Z</time>
      </trkpt>
      <trkpt lat="49.31093" lon="1.141">
        <ele>9</ele>
        <time>2026-09-01T08:38:15.422Z</time>
      </trkpt>
      <trkpt lat="49.31094" lon="1.14106">
        <ele>9</ele>
        <time>2026-09-01T08:38:19.724Z</time>
      </trkpt>
      <trkpt lat="49.31094" lon="1.14113">
        <ele>9</ele>
        <time>2026-09-01T08:38:23.860Z</time>
      </trkpt>
      <trkpt lat="49.31094" lon="1.1412">
        <ele>9</ele>
        <time>2026-09-01T08:38:28.064Z</time>
      </trkpt>
      <trkpt lat="49.31094" lon="1.14127">
        <ele>9</ele>
        <time>2026-09-01T08:38:32.182Z</time>
      </trkpt>
      <trkpt lat="49.31093" lon="1.14135">
        <ele>9</ele>
        <time>2026-09-01T08:38:36.343Z</time>
      </trkpt>
      <trkpt lat="49.31091" lon="1.14143">
        <ele>9</ele>
        <time>2026-09-01T08:38:40.583Z</time>
      </trkpt>
      <trkpt lat="49.3109" lon="1.14161">
        <ele>3</ele>
        <time>2026-09-01T08:38:58.860Z</time>
      </trkpt>
      <trkpt lat="49.3109" lon="1.14161">
        <ele>3</ele>
        <time>2026-09-01T08:39:05.664Z</time>
      </trkpt>
      <trkpt lat="49.3109" lon="1.14162">
        <ele>3</ele>
        <time>2026-09-01T08:39:09.860Z</time>
      </trkpt>
      <trkpt lat="49.31089" lon="1.14168">
        <ele>3</ele>
        <time>2026-09-01T08:39:14.364Z</time>
      </trkpt>
      <trkpt lat="49.31089" lon="1.14177">
        <ele>3</ele>
        <time>2026-09-01T08:39:18.605Z</time>
      </trkpt>
      <trkpt lat="49.31086" lon="1.14193">
        <ele>2</ele>
        <time>2026-09-01T08:40:26.860Z</time>
      </trkpt>
      <trkpt lat="49.31086" lon="1.14193">
        <ele>2</ele>
        <time>2026-09-01T08:40:31.860Z</time>
      </trkpt>
      <trkpt lat="49.31086" lon="1.14193">
        <ele>2</ele>
        <time>2026-09-01T08:40:41.860Z</time>
      </trkpt>
      <trkpt lat="49.31086" lon="1.14193">
        <ele>2</ele>
        <time>2026-09-01T08:40:46.349Z</time>
      </trkpt>
      <trkpt lat="49.31086" lon="1.14201">
        <ele>2</ele>
        <time>2026-09-01T08:40:50.686Z</time>
      </trkpt>
      <trkpt lat="49.31086" lon="1.14209">
        <ele>2</ele>
        <time>2026-09-01T08:40:54.860Z</time>
      </trkpt>
      <trkpt lat="49.31087" lon="1.14216">
        <ele>2</ele>
        <time>2026-09-01T08:40:59.289Z</time>
      </trkpt>
      <trkpt lat="49.31087" lon="1.14221">
        <ele>2</ele>
        <time>2026-09-01T08:41:03.406Z</time>
      </trkpt>
      <trkpt lat="49.31087" lon="1.14228">
        <ele>2</ele>
        <time>2026-09-01T08:41:07.725Z</time>
      </trkpt>
      <trkpt lat="49.31087" lon="1.14237">
        <ele>2</ele>
        <time>2026-09-01T08:41:11.860Z</time>
      </trkpt>
      <trkpt lat="49.31086" lon="1.14243">
        <ele>2</ele>
        <time>2026-09-01T08:41:16.162Z</time>
      </trkpt>
      <trkpt lat="49.31085" lon="1.14249">
        <ele>2</ele>
        <time>2026-09-01T08:41:20.384Z</time>
      </trkpt>
      <trkpt lat="49.31083" lon="1.14254">
        <ele>2</ele>
        <time>2026-09-01T08:41:24.422Z</time>
      </trkpt>
      <trkpt lat="49.31082" lon="1.1426">
        <ele>2</ele>
        <time>2026-09-01T08:41:28.566Z</time>
      </trkpt>
      <trkpt lat="49.31082" lon="1.14264">
        <ele>2</ele>
        <time>2026-09-01T08:41:32.745Z</time>
      </trkpt>
      <trkpt lat="49.31082" lon="1.14271">
        <ele>2</ele>
        <time>2026-09-01T08:41:36.860Z</time>
      </trkpt>
      <trkpt lat="49.31082" lon="1.14279">
        <ele>2</ele>
        <time>2026-09-01T08:41:41.163Z</time>
      </trkpt>
      <trkpt lat="49.31082" lon="1.14287">
        <ele>2</ele>
        <time>2026-09-01T08:41:45.368Z</time>
      </trkpt>
      <trkpt lat="49.31082" lon="1.14293">
        <ele>4</ele>
        <time>2026-09-01T08:41:49.327Z</time>
      </trkpt>
      <trkpt lat="49.31082" lon="1.143">
        <ele>4</ele>
        <time>2026-09-01T08:41:53.445Z</time>
      </trkpt>
      <trkpt lat="49.31082" lon="1.14307">
        <ele>4</ele>
        <time>2026-09-01T08:41:57.860Z</time>
      </trkpt>
      <trkpt lat="49.31081" lon="1.14314">
        <ele>4</ele>
        <time>2026-09-01T08:42:02.285Z</time>
      </trkpt>
      <trkpt lat="49.31081" lon="1.14321">
        <ele>7</ele>
        <time>2026-09-01T08:42:06.507Z</time>
      </trkpt>
      <trkpt lat="49.3108" lon="1.14327">
        <ele>7</ele>
        <time>2026-09-01T08:42:10.747Z</time>
      </trkpt>
      <trkpt lat="49.31081" lon="1.14335">
        <ele>7</ele>
        <time>2026-09-01T08:42:15.102Z</time>
      </trkpt>
      <trkpt lat="49.31082" lon="1.14342">
        <ele>7</ele>
        <time>2026-09-01T08:42:19.289Z</time>
      </trkpt>
      <trkpt lat="49.31084" lon="1.1435">
        <ele>6</ele>
        <time>2026-09-01T08:42:23.722Z</time>
      </trkpt>
      <trkpt lat="49.31083" lon="1.14356">
        <ele>6</ele>
        <time>2026-09-01T08:42:27.860Z</time>
      </trkpt>
      <trkpt lat="49.31082" lon="1.14364">
        <ele>6</ele>
        <time>2026-09-01T08:42:32.246Z</time>
      </trkpt>
      <trkpt lat="49.3108" lon="1.1437">
        <ele>6</ele>
        <time>2026-09-01T08:42:36.425Z</time>
      </trkpt>
      <trkpt lat="49.3108" lon="1.14378">
        <ele>5</ele>
        <time>2026-09-01T08:42:40.788Z</time>
      </trkpt>
      <trkpt lat="49.3108" lon="1.14384">
        <ele>5</ele>
        <time>2026-09-01T08:42:44.860Z</time>
      </trkpt>
      <trkpt lat="49.3108" lon="1.14392">
        <ele>5</ele>
        <time>2026-09-01T08:42:49.303Z</time>
      </trkpt>
      <trkpt lat="49.31079" lon="1.14399">
        <ele>5</ele>
        <time>2026-09-01T08:42:53.544Z</time>
      </trkpt>
      <trkpt lat="49.31078" lon="1.14406">
        <ele>5</ele>
        <time>2026-09-01T08:42:57.860Z</time>
      </trkpt>
      <trkpt lat="49.31078" lon="1.14414">
        <ele>5</ele>
        <time>2026-09-01T08:43:02.050Z</time>
      </trkpt>
      <trkpt lat="49.31078" lon="1.14421">
        <ele>5</ele>
        <time>2026-09-01T08:43:06.369Z</time>
      </trkpt>
      <trkpt lat="49.31078" lon="1.14428">
        <ele>5</ele>
        <time>2026-09-01T08:43:10.688Z</time>
      </trkpt>
      <trkpt lat="49.31077" lon="1.14434">
        <ele>6</ele>
        <time>2026-09-01T08:43:14.860Z</time>
      </trkpt>
      <trkpt lat="49.31077" lon="1.14441">
        <ele>6</ele>
        <time>2026-09-01T08:43:19.089Z</time>
      </trkpt>
      <trkpt lat="49.31077" lon="1.14449">
        <ele>6</ele>
        <time>2026-09-01T08:43:23.347Z</time>
      </trkpt>
      <trkpt lat="49.31077" lon="1.14456">
        <ele>6</ele>
        <time>2026-09-01T08:43:27.508Z</time>
      </trkpt>
      <trkpt lat="49.31077" lon="1.14464">
        <ele>6</ele>
        <time>2026-09-01T08:43:31.827Z</time>
      </trkpt>
      <trkpt lat="49.31077" lon="1.14472">
        <ele>6</ele>
        <time>2026-09-01T08:43:36.102Z</time>
      </trkpt>
      <trkpt lat="49.31077" lon="1.14479">
        <ele>6</ele>
        <time>2026-09-01T08:43:40.369Z</time>
      </trkpt>
      <trkpt lat="49.31077" lon="1.14486">
        <ele>6</ele>
        <time>2026-09-01T08:43:44.723Z</time>
      </trkpt>
      <trkpt lat="49.31076" lon="1.14493">
        <ele>6</ele>
        <time>2026-09-01T08:43:49.042Z</time>
      </trkpt>
      <trkpt lat="49.31076" lon="1.145">
        <ele>6</ele>
        <time>2026-09-01T08:43:53.370Z</time>
      </trkpt>
      <trkpt lat="49.31078" lon="1.14507">
        <ele>6</ele>
        <time>2026-09-01T08:43:57.785Z</time>
      </trkpt>
      <trkpt lat="49.3108" lon="1.14513">
        <ele>6</ele>
        <time>2026-09-01T08:44:02.148Z</time>
      </trkpt>
      <trkpt lat="49.31083" lon="1.14518">
        <ele>5</ele>
        <time>2026-09-01T08:44:06.669Z</time>
      </trkpt>
      <trkpt lat="49.31086" lon="1.14524">
        <ele>5</ele>
        <time>2026-09-01T08:44:11.085Z</time>
      </trkpt>
      <trkpt lat="49.3109" lon="1.14528">
        <ele>5</ele>
        <time>2026-09-01T08:44:15.527Z</time>
      </trkpt>
      <trkpt lat="49.31094" lon="1.1453">
        <ele>5</ele>
        <time>2026-09-01T08:44:19.860Z</time>
      </trkpt>
      <trkpt lat="49.31099" lon="1.14532">
        <ele>1</ele>
        <time>2026-09-01T08:44:24.507Z</time>
      </trkpt>
      <trkpt lat="49.31103" lon="1.14534">
        <ele>1</ele>
        <time>2026-09-01T08:44:28.844Z</time>
      </trkpt>
      <trkpt lat="49.31107" lon="1.14535">
        <ele>1</ele>
        <time>2026-09-01T08:44:33.242Z</time>
      </trkpt>
      <trkpt lat="49.31112" lon="1.14535">
        <ele>1</ele>
        <time>2026-09-01T08:44:37.684Z</time>
      </trkpt>
      <trkpt lat="49.31116" lon="1.14535">
        <ele>1</ele>
        <time>2026-09-01T08:44:42.170Z</time>
      </trkpt>
      <trkpt lat="49.3112" lon="1.14535">
        <ele>1</ele>
        <time>2026-09-01T08:44:46.445Z</time>
      </trkpt>
      <trkpt lat="49.31125" lon="1.14535">
        <ele>1</ele>
        <time>2026-09-01T08:44:50.860Z</time>
      </trkpt>
      <trkpt lat="49.3113" lon="1.14535">
        <ele>1</ele>
        <time>2026-09-01T08:44:55.048Z</time>
      </trkpt>
      <trkpt lat="49.31134" lon="1.14535">
        <ele>1</ele>
        <time>2026-09-01T08:44:59.446Z</time>
      </trkpt>
      <trkpt lat="49.31139" lon="1.14535">
        <ele>1</ele>
        <time>2026-09-01T08:45:03.747Z</time>
      </trkpt>
      <trkpt lat="49.31144" lon="1.14535">
        <ele>1</ele>
        <time>2026-09-01T08:45:08.189Z</time>
      </trkpt>
      <trkpt lat="49.31149" lon="1.14535">
        <ele>1</ele>
        <time>2026-09-01T08:45:12.482Z</time>
      </trkpt>
      <trkpt lat="49.31153" lon="1.14535">
        <ele>1</ele>
        <time>2026-09-01T08:45:16.845Z</time>
      </trkpt>
      <trkpt lat="49.31157" lon="1.14535">
        <ele>1</ele>
        <time>2026-09-01T08:45:21.067Z</time>
      </trkpt>
      <trkpt lat="49.31162" lon="1.14534">
        <ele>1</ele>
        <time>2026-09-01T08:45:25.386Z</time>
      </trkpt>
      <trkpt lat="49.31167" lon="1.14534">
        <ele>1</ele>
        <time>2026-09-01T08:45:29.670Z</time>
      </trkpt>
      <trkpt lat="49.31171" lon="1.14535">
        <ele>1</ele>
        <time>2026-09-01T08:45:33.859Z</time>
      </trkpt>
      <trkpt lat="49.31176" lon="1.14535">
        <ele>1</ele>
        <time>2026-09-01T08:45:38.387Z</time>
      </trkpt>
      <trkpt lat="49.3118" lon="1.14535">
        <ele>1</ele>
        <time>2026-09-01T08:45:42.829Z</time>
      </trkpt>
      <trkpt lat="49.31185" lon="1.14535">
        <ele>1</ele>
        <time>2026-09-01T08:45:47.227Z</time>
      </trkpt>
      <trkpt lat="49.31189" lon="1.14534">
        <ele>1</ele>
        <time>2026-09-01T08:45:51.625Z</time>
      </trkpt>
      <trkpt lat="49.31194" lon="1.14533">
        <ele>1</ele>
        <time>2026-09-01T08:45:55.860Z</time>
      </trkpt>
      <trkpt lat="49.31198" lon="1.14533">
        <ele>1</ele>
        <time>2026-09-01T08:46:00.307Z</time>
      </trkpt>
      <trkpt lat="49.31202" lon="1.14533">
        <ele>1</ele>
        <time>2026-09-01T08:46:04.670Z</time>
      </trkpt>
      <trkpt lat="49.31206" lon="1.14533">
        <ele>1</ele>
        <time>2026-09-01T08:46:08.860Z</time>
      </trkpt>
      <trkpt lat="49.31211" lon="1.14532">
        <ele>1</ele>
        <time>2026-09-01T08:46:13.369Z</time>
      </trkpt>
      <trkpt lat="49.31216" lon="1.14532">
        <ele>1</ele>
        <time>2026-09-01T08:46:17.705Z</time>
      </trkpt>
      <trkpt lat="49.31221" lon="1.14534">
        <ele>1</ele>
        <time>2026-09-01T08:46:22.860Z</time>
      </trkpt>
      <trkpt lat="49.31224" lon="1.14535">
        <ele>1</ele>
        <time>2026-09-01T08:46:27.327Z</time>
      </trkpt>
      <trkpt lat="49.31225" lon="1.14534">
        <ele>1</ele>
        <time>2026-09-01T08:46:31.804Z</time>
      </trkpt>
      <trkpt lat="49.31233" lon="1.14531">
        <ele>1</ele>
        <time>2026-09-01T08:46:36.342Z</time>
      </trkpt>
      <trkpt lat="49.31237" lon="1.14531">
        <ele>1</ele>
        <time>2026-09-01T08:46:40.643Z</time>
      </trkpt>
      <trkpt lat="49.31242" lon="1.14531">
        <ele>1</ele>
        <time>2026-09-01T08:46:45.024Z</time>
      </trkpt>
      <trkpt lat="49.31246" lon="1.14533">
        <ele>1</ele>
        <time>2026-09-01T08:46:49.369Z</time>
      </trkpt>
      <trkpt lat="49.31251" lon="1.14532">
        <ele>1</ele>
        <time>2026-09-01T08:46:53.688Z</time>
      </trkpt>
      <trkpt lat="49.31255" lon="1.14532">
        <ele>1</ele>
        <time>2026-09-01T08:46:58.086Z</time>
      </trkpt>
      <trkpt lat="49.31259" lon="1.14532">
        <ele>1</ele>
        <time>2026-09-01T08:47:02.422Z</time>
      </trkpt>
      <trkpt lat="49.31264" lon="1.14531">
        <ele>1</ele>
        <time>2026-09-01T08:47:06.767Z</time>
      </trkpt>
      <trkpt lat="49.31268" lon="1.14529">
        <ele>1</ele>
        <time>2026-09-01T08:47:10.860Z</time>
      </trkpt>
      <trkpt lat="49.31273" lon="1.14529">
        <ele>1</ele>
        <time>2026-09-01T08:47:15.203Z</time>
      </trkpt>
      <trkpt lat="49.31278" lon="1.14529">
        <ele>1</ele>
        <time>2026-09-01T08:47:19.426Z</time>
      </trkpt>
      <trkpt lat="49.31283" lon="1.14528">
        <ele>1</ele>
        <time>2026-09-01T08:47:23.648Z</time>
      </trkpt>
      <trkpt lat="49.31287" lon="1.14528">
        <ele>1</ele>
        <time>2026-09-01T08:47:27.860Z</time>
      </trkpt>
      <trkpt lat="49.31292" lon="1.14528">
        <ele>8</ele>
        <time>2026-09-01T08:47:32.444Z</time>
      </trkpt>
      <trkpt lat="49.31297" lon="1.14528">
        <ele>8</ele>
        <time>2026-09-01T08:47:36.789Z</time>
      </trkpt>
      <trkpt lat="49.31302" lon="1.14528">
        <ele>8</ele>
        <time>2026-09-01T08:47:41.169Z</time>
      </trkpt>
      <trkpt lat="49.31306" lon="1.14528">
        <ele>8</ele>
        <time>2026-09-01T08:47:45.550Z</time>
      </trkpt>
      <trkpt lat="49.31311" lon="1.14528">
        <ele>8</ele>
        <time>2026-09-01T08:47:49.860Z</time>
      </trkpt>
      <trkpt lat="49.31315" lon="1.14527">
        <ele>8</ele>
        <time>2026-09-01T08:47:54.389Z</time>
      </trkpt>
      <trkpt lat="49.31319" lon="1.14527">
        <ele>8</ele>
        <time>2026-09-01T08:47:58.708Z</time>
      </trkpt>
      <trkpt lat="49.31323" lon="1.14526">
        <ele>8</ele>
        <time>2026-09-01T08:48:02.860Z</time>
      </trkpt>
      <trkpt lat="49.31327" lon="1.14521">
        <ele>8</ele>
        <time>2026-09-01T08:48:07.627Z</time>
      </trkpt>
      <trkpt lat="49.3133" lon="1.14517">
        <ele>8</ele>
        <time>2026-09-01T08:48:11.611Z</time>
      </trkpt>
      <trkpt lat="49.3133" lon="1.14511">
        <ele>8</ele>
        <time>2026-09-01T08:48:15.747Z</time>
      </trkpt>
      <trkpt lat="49.31331" lon="1.14505">
        <ele>8</ele>
        <time>2026-09-01T08:48:20.285Z</time>
      </trkpt>
      <trkpt lat="49.3133" lon="1.14498">
        <ele>8</ele>
        <time>2026-09-01T08:48:24.586Z</time>
      </trkpt>
      <trkpt lat="49.31329" lon="1.1449">
        <ele>8</ele>
        <time>2026-09-01T08:48:28.860Z</time>
      </trkpt>
      <trkpt lat="49.31329" lon="1.14483">
        <ele>7</ele>
        <time>2026-09-01T08:48:33.268Z</time>
      </trkpt>
      <trkpt lat="49.31328" lon="1.14477">
        <ele>7</ele>
        <time>2026-09-01T08:48:37.525Z</time>
      </trkpt>
      <trkpt lat="49.31327" lon="1.1447">
        <ele>7</ele>
        <time>2026-09-01T08:48:41.860Z</time>
      </trkpt>
      <trkpt lat="49.31327" lon="1.14462">
        <ele>7</ele>
        <time>2026-09-01T08:48:46.163Z</time>
      </trkpt>
      <trkpt lat="49.31326" lon="1.14455">
        <ele>7</ele>
        <time>2026-09-01T08:48:50.526Z</time>
      </trkpt>
      <trkpt lat="49.31327" lon="1.14448">
        <ele>7</ele>
        <time>2026-09-01T08:48:54.827Z</time>
      </trkpt>
      <trkpt lat="49.31327" lon="1.14442">
        <ele>7</ele>
        <time>2026-09-01T08:48:59.128Z</time>
      </trkpt>
      <trkpt lat="49.31327" lon="1.14435">
        <ele>7</ele>
        <time>2026-09-01T08:49:03.508Z</time>
      </trkpt>
      <trkpt lat="49.31328" lon="1.14428">
        <ele>6</ele>
        <time>2026-09-01T08:49:07.860Z</time>
      </trkpt>
      <trkpt lat="49.31328" lon="1.14421">
        <ele>6</ele>
        <time>2026-09-01T08:49:12.523Z</time>
      </trkpt>
      <trkpt lat="49.31329" lon="1.14415">
        <ele>6</ele>
        <time>2026-09-01T08:49:16.860Z</time>
      </trkpt>
      <trkpt lat="49.31329" lon="1.14407">
        <ele>6</ele>
        <time>2026-09-01T08:49:21.328Z</time>
      </trkpt>
      <trkpt lat="49.31328" lon="1.144">
        <ele>7</ele>
        <time>2026-09-01T08:49:25.629Z</time>
      </trkpt>
      <trkpt lat="49.31329" lon="1.14393">
        <ele>7</ele>
        <time>2026-09-01T08:49:29.860Z</time>
      </trkpt>
      <trkpt lat="49.31329" lon="1.14386">
        <ele>7</ele>
        <time>2026-09-01T08:49:34.390Z</time>
      </trkpt>
      <trkpt lat="49.31329" lon="1.14379">
        <ele>7</ele>
        <time>2026-09-01T08:49:38.514Z</time>
      </trkpt>
      <trkpt lat="49.31329" lon="1.14372">
        <ele>6</ele>
        <time>2026-09-01T08:49:42.860Z</time>
      </trkpt>
      <trkpt lat="49.3133" lon="1.14365">
        <ele>6</ele>
        <time>2026-09-01T08:49:47.363Z</time>
      </trkpt>
      <trkpt lat="49.3133" lon="1.14358">
        <ele>6</ele>
        <time>2026-09-01T08:49:51.788Z</time>
      </trkpt>
      <trkpt lat="49.3133" lon="1.14352">
        <ele>6</ele>
        <time>2026-09-01T08:49:55.860Z</time>
      </trkpt>
      <trkpt lat="49.3133" lon="1.14345">
        <ele>6</ele>
        <time>2026-09-01T08:50:00.162Z</time>
      </trkpt>
      <trkpt lat="49.31331" lon="1.14338">
        <ele>6</ele>
        <time>2026-09-01T08:50:04.489Z</time>
      </trkpt>
      <trkpt lat="49.31331" lon="1.14331">
        <ele>6</ele>
        <time>2026-09-01T08:50:08.860Z</time>
      </trkpt>
      <trkpt lat="49.31331" lon="1.14324">
        <ele>6</ele>
        <time>2026-09-01T08:50:13.302Z</time>
      </trkpt>
      <trkpt lat="49.31332" lon="1.14317">
        <ele>6</ele>
        <time>2026-09-01T08:50:17.683Z</time>
      </trkpt>
      <trkpt lat="49.31331" lon="1.1431">
        <ele>6</ele>
        <time>2026-09-01T08:50:21.826Z</time>
      </trkpt>
      <trkpt lat="49.31331" lon="1.14302">
        <ele>6</ele>
        <time>2026-09-01T08:50:26.206Z</time>
      </trkpt>
      <trkpt lat="49.31331" lon="1.14294">
        <ele>6</ele>
        <time>2026-09-01T08:50:30.604Z</time>
      </trkpt>
      <trkpt lat="49.31331" lon="1.14286">
        <ele>5</ele>
        <time>2026-09-01T08:50:34.860Z</time>
      </trkpt>
      <trkpt lat="49.31331" lon="1.14279">
        <ele>5</ele>
        <time>2026-09-01T08:50:39.268Z</time>
      </trkpt>
      <trkpt lat="49.31331" lon="1.14272">
        <ele>5</ele>
        <time>2026-09-01T08:50:43.622Z</time>
      </trkpt>
      <trkpt lat="49.31331" lon="1.14266">
        <ele>5</ele>
        <time>2026-09-01T08:50:47.860Z</time>
      </trkpt>
      <trkpt lat="49.31331" lon="1.14259">
        <ele>5</ele>
        <time>2026-09-01T08:50:52.347Z</time>
      </trkpt>
      <trkpt lat="49.31331" lon="1.14251">
        <ele>5</ele>
        <time>2026-09-01T08:50:56.710Z</time>
      </trkpt>
      <trkpt lat="49.3133" lon="1.14244">
        <ele>5</ele>
        <time>2026-09-01T08:51:01.090Z</time>
      </trkpt>
      <trkpt lat="49.3133" lon="1.14236">
        <ele>5</ele>
        <time>2026-09-01T08:51:05.426Z</time>
      </trkpt>
      <trkpt lat="49.31329" lon="1.14229">
        <ele>6</ele>
        <time>2026-09-01T08:51:09.762Z</time>
      </trkpt>
      <trkpt lat="49.31329" lon="1.14222">
        <ele>6</ele>
        <time>2026-09-01T08:51:14.046Z</time>
      </trkpt>
      <trkpt lat="49.31328" lon="1.14215">
        <ele>6</ele>
        <time>2026-09-01T08:51:18.409Z</time>
      </trkpt>
      <trkpt lat="49.31328" lon="1.14208">
        <ele>6</ele>
        <time>2026-09-01T08:51:22.860Z</time>
      </trkpt>
      <trkpt lat="49.31327" lon="1.142">
        <ele>6</ele>
        <time>2026-09-01T08:51:27.467Z</time>
      </trkpt>
      <trkpt lat="49.31326" lon="1.14194">
        <ele>6</ele>
        <time>2026-09-01T08:51:31.804Z</time>
      </trkpt>
      <trkpt lat="49.31326" lon="1.14187">
        <ele>6</ele>
        <time>2026-09-01T08:51:36.210Z</time>
      </trkpt>
      <trkpt lat="49.31326" lon="1.1418">
        <ele>6</ele>
        <time>2026-09-01T08:51:40.564Z</time>
      </trkpt>
      <trkpt lat="49.31327" lon="1.14173">
        <ele>6</ele>
        <time>2026-09-01T08:51:44.860Z</time>
      </trkpt>
      <trkpt lat="49.31329" lon="1.14166">
        <ele>6</ele>
        <time>2026-09-01T08:51:49.122Z</time>
      </trkpt>
      <trkpt lat="49.31333" lon="1.14161">
        <ele>6</ele>
        <time>2026-09-01T08:52:45.860Z</time>
      </trkpt>
      <trkpt lat="49.31337" lon="1.14157">
        <ele>6</ele>
        <time>2026-09-01T08:52:50.860Z</time>
      </trkpt>
      <trkpt lat="49.31341" lon="1.14157">
        <ele>6</ele>
        <time>2026-09-01T08:52:54.860Z</time>
      </trkpt>
      <trkpt lat="49.31346" lon="1.14157">
        <ele>6</ele>
        <time>2026-09-01T08:52:59.860Z</time>
      </trkpt>
      <trkpt lat="49.31351" lon="1.14156">
        <ele>6</ele>
        <time>2026-09-01T08:53:04.860Z</time>
      </trkpt>
      <trkpt lat="49.31354" lon="1.14156">
        <ele>6</ele>
        <time>2026-09-01T08:53:08.860Z</time>
      </trkpt>
      <trkpt lat="49.31359" lon="1.14155">
        <ele>6</ele>
        <time>2026-09-01T08:53:13.860Z</time>
      </trkpt>
      <trkpt lat="49.31364" lon="1.14154">
        <ele>6</ele>
        <time>2026-09-01T08:53:18.323Z</time>
      </trkpt>
      <trkpt lat="49.31368" lon="1.14154">
        <ele>6</ele>
        <time>2026-09-01T08:53:22.546Z</time>
      </trkpt>
      <trkpt lat="49.31373" lon="1.14153">
        <ele>4</ele>
        <time>2026-09-01T08:53:26.750Z</time>
      </trkpt>
      <trkpt lat="49.31378" lon="1.14152">
        <ele>3</ele>
        <time>2026-09-01T08:53:31.148Z</time>
      </trkpt>
      <trkpt lat="49.31383" lon="1.14151">
        <ele>3</ele>
        <time>2026-09-01T08:53:35.528Z</time>
      </trkpt>
      <trkpt lat="49.31387" lon="1.14149">
        <ele>3</ele>
        <time>2026-09-01T08:53:39.829Z</time>
      </trkpt>
      <trkpt lat="49.31391" lon="1.14148">
        <ele>3</ele>
        <time>2026-09-01T08:53:44.289Z</time>
      </trkpt>
      <trkpt lat="49.31395" lon="1.14147">
        <ele>3</ele>
        <time>2026-09-01T08:53:48.625Z</time>
      </trkpt>
      <trkpt lat="49.31399" lon="1.14147">
        <ele>3</ele>
        <time>2026-09-01T08:53:52.860Z</time>
      </trkpt>
      <trkpt lat="49.31404" lon="1.14145">
        <ele>4</ele>
        <time>2026-09-01T08:53:57.385Z</time>
      </trkpt>
      <trkpt lat="49.31408" lon="1.14145">
        <ele>4</ele>
        <time>2026-09-01T08:54:01.669Z</time>
      </trkpt>
      <trkpt lat="49.31412" lon="1.14146">
        <ele>4</ele>
        <time>2026-09-01T08:54:05.847Z</time>
      </trkpt>
      <trkpt lat="49.31416" lon="1.14145">
        <ele>4</ele>
        <time>2026-09-01T08:54:10.183Z</time>
      </trkpt>
      <trkpt lat="49.31421" lon="1.14144">
        <ele>4</ele>
        <time>2026-09-01T08:54:14.406Z</time>
      </trkpt>
      <trkpt lat="49.31425" lon="1.14143">
        <ele>4</ele>
        <time>2026-09-01T08:54:18.724Z</time>
      </trkpt>
      <trkpt lat="49.31429" lon="1.14143">
        <ele>4</ele>
        <time>2026-09-01T08:54:22.860Z</time>
      </trkpt>
      <trkpt lat="49.31433" lon="1.14143">
        <ele>6</ele>
        <time>2026-09-01T08:54:26.860Z</time>
      </trkpt>
      <trkpt lat="49.31436" lon="1.14143">
        <ele>6</ele>
        <time>2026-09-01T08:54:31.426Z</time>
      </trkpt>
      <trkpt lat="49.31441" lon="1.14143">
        <ele>6</ele>
        <time>2026-09-01T08:54:35.569Z</time>
      </trkpt>
      <trkpt lat="49.31446" lon="1.14144">
        <ele>6</ele>
        <time>2026-09-01T08:54:39.765Z</time>
      </trkpt>
      <trkpt lat="49.3145" lon="1.14143">
        <ele>6</ele>
        <time>2026-09-01T08:54:44.049Z</time>
      </trkpt>
      <trkpt lat="49.31454" lon="1.14144">
        <ele>6</ele>
        <time>2026-09-01T08:54:48.464Z</time>
      </trkpt>
      <trkpt lat="49.31458" lon="1.14144">
        <ele>6</ele>
        <time>2026-09-01T08:54:52.528Z</time>
      </trkpt>
      <trkpt lat="49.31462" lon="1.14143">
        <ele>7</ele>
        <time>2026-09-01T08:54:56.750Z</time>
      </trkpt>
      <trkpt lat="49.31467" lon="1.14141">
        <ele>7</ele>
        <time>2026-09-01T08:55:00.860Z</time>
      </trkpt>
      <trkpt lat="49.31471" lon="1.14141">
        <ele>7</ele>
        <time>2026-09-01T08:55:05.344Z</time>
      </trkpt>
      <trkpt lat="49.31475" lon="1.1414">
        <ele>7</ele>
        <time>2026-09-01T08:55:09.645Z</time>
      </trkpt>
      <trkpt lat="49.31479" lon="1.14141">
        <ele>7</ele>
        <time>2026-09-01T08:55:13.788Z</time>
      </trkpt>
      <trkpt lat="49.31484" lon="1.1414">
        <ele>7</ele>
        <time>2026-09-01T08:55:18.045Z</time>
      </trkpt>
      <trkpt lat="49.31488" lon="1.14139">
        <ele>6</ele>
        <time>2026-09-01T08:55:22.408Z</time>
      </trkpt>
      <trkpt lat="49.31493" lon="1.14138">
        <ele>6</ele>
        <time>2026-09-01T08:55:26.648Z</time>
      </trkpt>
      <trkpt lat="49.31497" lon="1.14137">
        <ele>6</ele>
        <time>2026-09-01T08:55:30.860Z</time>
      </trkpt>
      <trkpt lat="49.31502" lon="1.14136">
        <ele>6</ele>
        <time>2026-09-01T08:55:35.443Z</time>
      </trkpt>
      <trkpt lat="49.31506" lon="1.14136">
        <ele>6</ele>
        <time>2026-09-01T08:55:39.850Z</time>
      </trkpt>
      <trkpt lat="49.3151" lon="1.14136">
        <ele>6</ele>
        <time>2026-09-01T08:55:44.125Z</time>
      </trkpt>
      <trkpt lat="49.31514" lon="1.14135">
        <ele>6</ele>
        <time>2026-09-01T08:55:48.443Z</time>
      </trkpt>
      <trkpt lat="49.31519" lon="1.14135">
        <ele>6</ele>
        <time>2026-09-01T08:55:52.744Z</time>
      </trkpt>
      <trkpt lat="49.31523" lon="1.14133">
        <ele>6</ele>
        <time>2026-09-01T08:55:57.248Z</time>
      </trkpt>
      <trkpt lat="49.31528" lon="1.14132">
        <ele>6</ele>
        <time>2026-09-01T08:56:01.663Z</time>
      </trkpt>
      <trkpt lat="49.31532" lon="1.14131">
        <ele>6</ele>
        <time>2026-09-01T08:56:05.860Z</time>
      </trkpt>
      <trkpt lat="49.31537" lon="1.1413">
        <ele>6</ele>
        <time>2026-09-01T08:56:10.362Z</time>
      </trkpt>
      <trkpt lat="49.31542" lon="1.14131">
        <ele>6</ele>
        <time>2026-09-01T08:56:14.786Z</time>
      </trkpt>
      <trkpt lat="49.31547" lon="1.14131">
        <ele>6</ele>
        <time>2026-09-01T08:56:19.043Z</time>
      </trkpt>
      <trkpt lat="49.31552" lon="1.14129">
        <ele>6</ele>
        <time>2026-09-01T08:56:23.309Z</time>
      </trkpt>
      <trkpt lat="49.31556" lon="1.14126">
        <ele>6</ele>
        <time>2026-09-01T08:56:27.663Z</time>
      </trkpt>
      <trkpt lat="49.3156" lon="1.14122">
        <ele>5</ele>
        <time>2026-09-01T08:56:32.070Z</time>
      </trkpt>
      <trkpt lat="49.31563" lon="1.14117">
        <ele>5</ele>
        <time>2026-09-01T08:56:36.529Z</time>
      </trkpt>
      <trkpt lat="49.31565" lon="1.14111">
        <ele>5</ele>
        <time>2026-09-01T08:56:41.163Z</time>
      </trkpt>
      <trkpt lat="49.31565" lon="1.14104">
        <ele>5</ele>
        <time>2026-09-01T08:56:45.289Z</time>
      </trkpt>
      <trkpt lat="49.31564" lon="1.14098">
        <ele>5</ele>
        <time>2026-09-01T08:56:49.860Z</time>
      </trkpt>
      <trkpt lat="49.31564" lon="1.14094">
        <ele>5</ele>
        <time>2026-09-01T08:56:54.304Z</time>
      </trkpt>
      <trkpt lat="49.31563" lon="1.14086">
        <ele>5</ele>
        <time>2026-09-01T08:56:58.684Z</time>
      </trkpt>
      <trkpt lat="49.31563" lon="1.14079">
        <ele>5</ele>
        <time>2026-09-01T08:57:02.860Z</time>
      </trkpt>
      <trkpt lat="49.31563" lon="1.14072">
        <ele>5</ele>
        <time>2026-09-01T08:57:07.348Z</time>
      </trkpt>
      <trkpt lat="49.31563" lon="1.14065">
        <ele>5</ele>
        <time>2026-09-01T08:57:11.649Z</time>
      </trkpt>
      <trkpt lat="49.31562" lon="1.14058">
        <ele>5</ele>
        <time>2026-09-01T08:57:15.860Z</time>
      </trkpt>
      <trkpt lat="49.31562" lon="1.1405">
        <ele>5</ele>
        <time>2026-09-01T08:57:20.225Z</time>
      </trkpt>
      <trkpt lat="49.31563" lon="1.14043">
        <ele>5</ele>
        <time>2026-09-01T08:57:24.649Z</time>
      </trkpt>
      <trkpt lat="49.31563" lon="1.14036">
        <ele>5</ele>
        <time>2026-09-01T08:57:28.748Z</time>
      </trkpt>
      <trkpt lat="49.31563" lon="1.14027">
        <ele>5</ele>
        <time>2026-09-01T08:57:33.269Z</time>
      </trkpt>
      <trkpt lat="49.31564" lon="1.14021">
        <ele>5</ele>
        <time>2026-09-01T08:57:37.465Z</time>
      </trkpt>
      <trkpt lat="49.31564" lon="1.14016">
        <ele>5</ele>
        <time>2026-09-01T08:57:41.810Z</time>
      </trkpt>
      <trkpt lat="49.31562" lon="1.1401">
        <ele>5</ele>
        <time>2026-09-01T08:57:45.860Z</time>
      </trkpt>
      <trkpt lat="49.31561" lon="1.14003">
        <ele>5</ele>
        <time>2026-09-01T08:57:50.324Z</time>
      </trkpt>
      <trkpt lat="49.31562" lon="1.13995">
        <ele>5</ele>
        <time>2026-09-01T08:57:54.766Z</time>
      </trkpt>
      <trkpt lat="49.31563" lon="1.13989">
        <ele>5</ele>
        <time>2026-09-01T08:57:59.146Z</time>
      </trkpt>
      <trkpt lat="49.31562" lon="1.13982">
        <ele>4</ele>
        <time>2026-09-01T08:58:03.570Z</time>
      </trkpt>
      <trkpt lat="49.31562" lon="1.13976">
        <ele>4</ele>
        <time>2026-09-01T08:58:07.860Z</time>
      </trkpt>
      <trkpt lat="49.31562" lon="1.13969">
        <ele>4</ele>
        <time>2026-09-01T08:58:12.242Z</time>
      </trkpt>
      <trkpt lat="49.31561" lon="1.13962">
        <ele>4</ele>
        <time>2026-09-01T08:58:16.587Z</time>
      </trkpt>
      <trkpt lat="49.3156" lon="1.13955">
        <ele>4</ele>
        <time>2026-09-01T08:58:20.860Z</time>
      </trkpt>
      <trkpt lat="49.3156" lon="1.13947">
        <ele>4</ele>
        <time>2026-09-01T08:58:25.102Z</time>
      </trkpt>
      <trkpt lat="49.31559" lon="1.13938">
        <ele>4</ele>
        <time>2026-09-01T08:58:29.508Z</time>
      </trkpt>
      <trkpt lat="49.31559" lon="1.13932">
        <ele>4</ele>
        <time>2026-09-01T08:58:33.860Z</time>
      </trkpt>
      <trkpt lat="49.31559" lon="1.13925">
        <ele>1</ele>
        <time>2026-09-01T08:58:38.330Z</time>
      </trkpt>
      <trkpt lat="49.3156" lon="1.13918">
        <ele>1</ele>
        <time>2026-09-01T08:58:42.710Z</time>
      </trkpt>
      <trkpt lat="49.3156" lon="1.13911">
        <ele>1</ele>
        <time>2026-09-01T08:58:46.860Z</time>
      </trkpt>
      <trkpt lat="49.31559" lon="1.13904">
        <ele>1</ele>
        <time>2026-09-01T08:58:51.304Z</time>
      </trkpt>
      <trkpt lat="49.31559" lon="1.13897">
        <ele>1</ele>
        <time>2026-09-01T08:58:55.684Z</time>
      </trkpt>
      <trkpt lat="49.31558" lon="1.13889">
        <ele>1</ele>
        <time>2026-09-01T08:58:59.860Z</time>
      </trkpt>
      <trkpt lat="49.31558" lon="1.13882">
        <ele>1</ele>
        <time>2026-09-01T08:59:04.505Z</time>
      </trkpt>
      <trkpt lat="49.31557" lon="1.13875">
        <ele>1</ele>
        <time>2026-09-01T08:59:08.543Z</time>
      </trkpt>
      <trkpt lat="49.31557" lon="1.13868">
        <ele>1</ele>
        <time>2026-09-01T08:59:12.860Z</time>
      </trkpt>
      <trkpt lat="49.31557" lon="1.13862">
        <ele>1</ele>
        <time>2026-09-01T08:59:17.224Z</time>
      </trkpt>
      <trkpt lat="49.31557" lon="1.13855">
        <ele>1</ele>
        <time>2026-09-01T08:59:21.666Z</time>
      </trkpt>
      <trkpt lat="49.31557" lon="1.13848">
        <ele>1</ele>
        <time>2026-09-01T08:59:26.090Z</time>
      </trkpt>
      <trkpt lat="49.31556" lon="1.13841">
        <ele>1</ele>
        <time>2026-09-01T08:59:30.409Z</time>
      </trkpt>
      <trkpt lat="49.31555" lon="1.13834">
        <ele>1</ele>
        <time>2026-09-01T08:59:34.666Z</time>
      </trkpt>
      <trkpt lat="49.31556" lon="1.13828">
        <ele>1</ele>
        <time>2026-09-01T08:59:38.860Z</time>
      </trkpt>
      <trkpt lat="49.31556" lon="1.1382">
        <ele>1</ele>
        <time>2026-09-01T08:59:43.364Z</time>
      </trkpt>
      <trkpt lat="49.31556" lon="1.13813">
        <ele>1</ele>
        <time>2026-09-01T08:59:47.788Z</time>
      </trkpt>
      <trkpt lat="49.31555" lon="1.13807">
        <ele>1</ele>
        <time>2026-09-01T08:59:52.107Z</time>
      </trkpt>
      <trkpt lat="49.31556" lon="1.138">
        <ele>1</ele>
        <time>2026-09-01T08:59:56.329Z</time>
      </trkpt>
      <trkpt lat="49.31555" lon="1.13794">
        <ele>1</ele>
        <time>2026-09-01T09:00:00.543Z</time>
      </trkpt>
      <trkpt lat="49.31555" lon="1.13785">
        <ele>1</ele>
        <time>2026-09-01T09:00:04.860Z</time>
      </trkpt>
      <trkpt lat="49.31555" lon="1.13778">
        <ele>1</ele>
        <time>2026-09-01T09:00:09.364Z</time>
      </trkpt>
      <trkpt lat="49.31554" lon="1.13771">
        <ele>1</ele>
        <time>2026-09-01T09:00:13.648Z</time>
      </trkpt>
      <trkpt lat="49.31553" lon="1.13764">
        <ele>1</ele>
        <time>2026-09-01T09:00:17.844Z</time>
      </trkpt>
      <trkpt lat="49.31553" lon="1.13758">
        <ele>1</ele>
        <time>2026-09-01T09:00:22.224Z</time>
      </trkpt>
      <trkpt lat="49.31553" lon="1.13751">
        <ele>1</ele>
        <time>2026-09-01T09:00:26.569Z</time>
      </trkpt>
      <trkpt lat="49.31552" lon="1.13745">
        <ele>1</ele>
        <time>2026-09-01T09:00:30.703Z</time>
      </trkpt>
      <trkpt lat="49.31552" lon="1.13739">
        <ele>1</ele>
        <time>2026-09-01T09:00:34.987Z</time>
      </trkpt>
      <trkpt lat="49.31553" lon="1.13731">
        <ele>1</ele>
        <time>2026-09-01T09:00:39.367Z</time>
      </trkpt>
      <trkpt lat="49.31553" lon="1.13725">
        <ele>1</ele>
        <time>2026-09-01T09:00:43.668Z</time>
      </trkpt>
      <trkpt lat="49.31553" lon="1.13717">
        <ele>1</ele>
        <time>2026-09-01T09:00:48.144Z</time>
      </trkpt>
      <trkpt lat="49.31552" lon="1.1371">
        <ele>1</ele>
        <time>2026-09-01T09:00:52.524Z</time>
      </trkpt>
      <trkpt lat="49.31552" lon="1.13703">
        <ele>7</ele>
        <time>2026-09-01T09:00:56.860Z</time>
      </trkpt>
      <trkpt lat="49.31552" lon="1.13696">
        <ele>7</ele>
        <time>2026-09-01T09:01:01.346Z</time>
      </trkpt>
      <trkpt lat="49.31552" lon="1.13689">
        <ele>7</ele>
        <time>2026-09-01T09:01:05.805Z</time>
      </trkpt>
      <trkpt lat="49.31551" lon="1.13682">
        <ele>7</ele>
        <time>2026-09-01T09:01:10.150Z</time>
      </trkpt>
      <trkpt lat="49.31551" lon="1.13676">
        <ele>1</ele>
        <time>2026-09-01T09:01:14.644Z</time>
      </trkpt>
      <trkpt lat="49.3155" lon="1.1367">
        <ele>1</ele>
        <time>2026-09-01T09:01:18.849Z</time>
      </trkpt>
      <trkpt lat="49.3155" lon="1.13664">
        <ele>1</ele>
        <time>2026-09-01T09:01:23.430Z</time>
      </trkpt>
      <trkpt lat="49.3155" lon="1.13657">
        <ele>1</ele>
        <time>2026-09-01T09:01:27.530Z</time>
      </trkpt>
      <trkpt lat="49.31549" lon="1.13652">
        <ele>6</ele>
        <time>2026-09-01T09:01:31.647Z</time>
      </trkpt>
      <trkpt lat="49.31547" lon="1.13646">
        <ele>6</ele>
        <time>2026-09-01T09:01:36.264Z</time>
      </trkpt>
      <trkpt lat="49.31546" lon="1.13641">
        <ele>6</ele>
        <time>2026-09-01T09:01:40.670Z</time>
      </trkpt>
      <trkpt lat="49.31544" lon="1.13635">
        <ele>6</ele>
        <time>2026-09-01T09:01:45.147Z</time>
      </trkpt>
      <trkpt lat="49.31544" lon="1.13631">
        <ele>6</ele>
        <time>2026-09-01T09:01:49.185Z</time>
      </trkpt>
      <trkpt lat="49.31544" lon="1.13623">
        <ele>5</ele>
        <time>2026-09-01T09:01:53.644Z</time>
      </trkpt>
      <trkpt lat="49.31543" lon="1.13616">
        <ele>5</ele>
        <time>2026-09-01T09:01:58.287Z</time>
      </trkpt>
      <trkpt lat="49.31543" lon="1.1361">
        <ele>5</ele>
        <time>2026-09-01T09:02:02.790Z</time>
      </trkpt>
      <trkpt lat="49.31543" lon="1.13603">
        <ele>5</ele>
        <time>2026-09-01T09:02:07.328Z</time>
      </trkpt>
      <trkpt lat="49.31544" lon="1.13597">
        <ele>1</ele>
        <time>2026-09-01T09:02:11.805Z</time>
      </trkpt>
      <trkpt lat="49.31546" lon="1.13592">
        <ele>1</ele>
        <time>2026-09-01T09:02:16.308Z</time>
      </trkpt>
      <trkpt lat="49.31545" lon="1.13585">
        <ele>1</ele>
        <time>2026-09-01T09:02:20.860Z</time>
      </trkpt>
      <trkpt lat="49.31544" lon="1.13579">
        <ele>1</ele>
        <time>2026-09-01T09:02:25.366Z</time>
      </trkpt>
      <trkpt lat="49.31544" lon="1.13573">
        <ele>1</ele>
        <time>2026-09-01T09:02:29.790Z</time>
      </trkpt>
      <trkpt lat="49.31543" lon="1.13566">
        <ele>1</ele>
        <time>2026-09-01T09:02:34.065Z</time>
      </trkpt>
      <trkpt lat="49.31543" lon="1.1356">
        <ele>1</ele>
        <time>2026-09-01T09:02:38.489Z</time>
      </trkpt>
      <trkpt lat="49.31542" lon="1.13554">
        <ele>1</ele>
        <time>2026-09-01T09:02:42.825Z</time>
      </trkpt>
      <trkpt lat="49.31542" lon="1.13548">
        <ele>1</ele>
        <time>2026-09-01T09:02:47.187Z</time>
      </trkpt>
      <trkpt lat="49.31543" lon="1.13541">
        <ele>1</ele>
        <time>2026-09-01T09:02:51.664Z</time>
      </trkpt>
      <trkpt lat="49.31543" lon="1.13537">
        <ele>1</ele>
        <time>2026-09-01T09:02:55.860Z</time>
      </trkpt>
      <trkpt lat="49.31543" lon="1.13531">
        <ele>1</ele>
        <time>2026-09-01T09:03:00.608Z</time>
      </trkpt>
      <trkpt lat="49.31542" lon="1.13525">
        <ele>1</ele>
        <time>2026-09-01T09:03:05.085Z</time>
      </trkpt>
      <trkpt lat="49.31541" lon="1.13519">
        <ele>1</ele>
        <time>2026-09-01T09:03:09.588Z</time>
      </trkpt>
      <trkpt lat="49.3154" lon="1.13513">
        <ele>1</ele>
        <time>2026-09-01T09:03:13.860Z</time>
      </trkpt>
      <trkpt lat="49.3154" lon="1.13507">
        <ele>1</ele>
        <time>2026-09-01T09:03:18.269Z</time>
      </trkpt>
      <trkpt lat="49.31539" lon="1.13501">
        <ele>1</ele>
        <time>2026-09-01T09:03:22.728Z</time>
      </trkpt>
      <trkpt lat="49.31538" lon="1.13494">
        <ele>1</ele>
        <time>2026-09-01T09:03:27.187Z</time>
      </trkpt>
      <trkpt lat="49.31537" lon="1.13488">
        <ele>1</ele>
        <time>2026-09-01T09:03:31.523Z</time>
      </trkpt>
      <trkpt lat="49.31536" lon="1.13482">
        <ele>1</ele>
        <time>2026-09-01T09:03:35.860Z</time>
      </trkpt>
      <trkpt lat="49.31536" lon="1.13475">
        <ele>1</ele>
        <time>2026-09-01T09:03:40.468Z</time>
      </trkpt>
      <trkpt lat="49.31539" lon="1.1347">
        <ele>1</ele>
        <time>2026-09-01T09:03:44.860Z</time>
      </trkpt>
      <trkpt lat="49.31542" lon="1.13466">
        <ele>1</ele>
        <time>2026-09-01T09:03:49.465Z</time>
      </trkpt>
      <trkpt lat="49.31544" lon="1.13462">
        <ele>1</ele>
        <time>2026-09-01T09:04:04.860Z</time>
      </trkpt>
      <trkpt lat="49.31544" lon="1.13462">
        <ele>1</ele>
        <time>2026-09-01T09:04:14.860Z</time>
      </trkpt>
      <trkpt lat="49.31548" lon="1.13464">
        <ele>1</ele>
        <time>2026-09-01T09:04:19.484Z</time>
      </trkpt>
      <trkpt lat="49.31553" lon="1.13466">
        <ele>1</ele>
        <time>2026-09-01T09:04:23.609Z</time>
      </trkpt>
      <trkpt lat="49.31557" lon="1.13464">
        <ele>1</ele>
        <time>2026-09-01T09:04:27.860Z</time>
      </trkpt>
      <trkpt lat="49.31559" lon="1.13463">
        <ele>1</ele>
        <time>2026-09-01T09:04:36.860Z</time>
      </trkpt>
      <trkpt lat="49.31559" lon="1.13462">
        <ele>1</ele>
        <time>2026-09-01T09:04:41.287Z</time>
      </trkpt>
      <trkpt lat="49.31563" lon="1.13465">
        <ele>1</ele>
        <time>2026-09-01T09:04:45.843Z</time>
      </trkpt>
      <trkpt lat="49.31567" lon="1.13469">
        <ele>1</ele>
        <time>2026-09-01T09:04:50.860Z</time>
      </trkpt>
      <trkpt lat="49.3157" lon="1.13472">
        <ele>1</ele>
        <time>2026-09-01T09:04:55.490Z</time>
      </trkpt>
      <trkpt lat="49.31574" lon="1.13476">
        <ele>1</ele>
        <time>2026-09-01T09:04:59.860Z</time>
      </trkpt>
      <trkpt lat="49.31577" lon="1.13481">
        <ele>1</ele>
        <time>2026-09-01T09:05:04.425Z</time>
      </trkpt>
      <trkpt lat="49.31579" lon="1.13484">
        <ele>1</ele>
        <time>2026-09-01T09:05:08.858Z</time>
      </trkpt>
      <trkpt lat="49.31583" lon="1.13488">
        <ele>1</ele>
        <time>2026-09-01T09:05:12.860Z</time>
      </trkpt>
      <trkpt lat="49.31591" lon="1.13495">
        <ele>1</ele>
        <time>2026-09-01T09:05:29.860Z</time>
      </trkpt>
      <trkpt lat="49.31592" lon="1.13495">
        <ele>1</ele>
        <time>2026-09-01T09:05:33.860Z</time>
      </trkpt>
      <trkpt lat="49.31596" lon="1.13491">
        <ele>1</ele>
        <time>2026-09-01T09:05:38.027Z</time>
      </trkpt>
      <trkpt lat="49.31599" lon="1.13494">
        <ele>5</ele>
        <time>2026-09-01T09:05:42.860Z</time>
      </trkpt>
      <trkpt lat="49.31603" lon="1.13493">
        <ele>5</ele>
        <time>2026-09-01T09:05:47.087Z</time>
      </trkpt>
      <trkpt lat="49.31603" lon="1.13475">
        <ele>5</ele>
        <time>2026-09-01T09:06:04.860Z</time>
      </trkpt>
      <trkpt lat="49.31603" lon="1.13471">
        <ele>5</ele>
        <time>2026-09-01T09:06:08.860Z</time>
      </trkpt>
      <trkpt lat="49.31603" lon="1.13462">
        <ele>5</ele>
        <time>2026-09-01T09:06:13.142Z</time>
      </trkpt>
      <trkpt lat="49.31603" lon="1.13455">
        <ele>6</ele>
        <time>2026-09-01T09:06:17.663Z</time>
      </trkpt>
      <trkpt lat="49.31604" lon="1.13448">
        <ele>6</ele>
        <time>2026-09-01T09:06:22.149Z</time>
      </trkpt>
      <trkpt lat="49.31604" lon="1.1344">
        <ele>6</ele>
        <time>2026-09-01T09:06:26.565Z</time>
      </trkpt>
      <trkpt lat="49.31603" lon="1.13433">
        <ele>6</ele>
        <time>2026-09-01T09:06:31.068Z</time>
      </trkpt>
      <trkpt lat="49.31603" lon="1.13427">
        <ele>1</ele>
        <time>2026-09-01T09:06:35.370Z</time>
      </trkpt>
      <trkpt lat="49.31602" lon="1.1342">
        <ele>1</ele>
        <time>2026-09-01T09:06:39.768Z</time>
      </trkpt>
      <trkpt lat="49.31601" lon="1.13413">
        <ele>1</ele>
        <time>2026-09-01T09:06:44.087Z</time>
      </trkpt>
      <trkpt lat="49.31601" lon="1.13406">
        <ele>1</ele>
        <time>2026-09-01T09:06:48.529Z</time>
      </trkpt>
      <trkpt lat="49.31601" lon="1.134">
        <ele>1</ele>
        <time>2026-09-01T09:06:52.860Z</time>
      </trkpt>
      <trkpt lat="49.31601" lon="1.13393">
        <ele>1</ele>
        <time>2026-09-01T09:06:57.264Z</time>
      </trkpt>
      <trkpt lat="49.31601" lon="1.13386">
        <ele>1</ele>
        <time>2026-09-01T09:07:01.627Z</time>
      </trkpt>
      <trkpt lat="49.31601" lon="1.13379">
        <ele>1</ele>
        <time>2026-09-01T09:07:05.860Z</time>
      </trkpt>
      <trkpt lat="49.316" lon="1.13373">
        <ele>7</ele>
        <time>2026-09-01T09:07:10.203Z</time>
      </trkpt>
      <trkpt lat="49.31599" lon="1.13372">
        <ele>7</ele>
        <time>2026-09-01T09:07:14.860Z</time>
      </trkpt>
      <trkpt lat="49.316" lon="1.13371">
        <ele>7</ele>
        <time>2026-09-01T09:07:19.184Z</time>
      </trkpt>
      <trkpt lat="49.316" lon="1.13363">
        <ele>7</ele>
        <time>2026-09-01T09:07:23.310Z</time>
      </trkpt>
      <trkpt lat="49.316" lon="1.13357">
        <ele>7</ele>
        <time>2026-09-01T09:07:27.330Z</time>
      </trkpt>
      <trkpt lat="49.316" lon="1.13349">
        <ele>7</ele>
        <time>2026-09-01T09:07:31.465Z</time>
      </trkpt>
      <trkpt lat="49.31599" lon="1.13341">
        <ele>7</ele>
        <time>2026-09-01T09:07:35.547Z</time>
      </trkpt>
      <trkpt lat="49.31599" lon="1.13335">
        <ele>7</ele>
        <time>2026-09-01T09:07:39.857Z</time>
      </trkpt>
      <trkpt lat="49.31599" lon="1.13329">
        <ele>7</ele>
        <time>2026-09-01T09:07:43.860Z</time>
      </trkpt>
      <trkpt lat="49.31598" lon="1.13324">
        <ele>7</ele>
        <time>2026-09-01T09:07:48.284Z</time>
      </trkpt>
      <trkpt lat="49.31599" lon="1.13319">
        <ele>6</ele>
        <time>2026-09-01T09:07:52.683Z</time>
      </trkpt>
      <trkpt lat="49.31599" lon="1.13312">
        <ele>6</ele>
        <time>2026-09-01T09:07:57.860Z</time>
      </trkpt>
      <trkpt lat="49.31599" lon="1.13306">
        <ele>6</ele>
        <time>2026-09-01T09:08:01.860Z</time>
      </trkpt>
      <trkpt lat="49.31599" lon="1.133">
        <ele>6</ele>
        <time>2026-09-01T09:08:06.443Z</time>
      </trkpt>
      <trkpt lat="49.31599" lon="1.13294">
        <ele>6</ele>
        <time>2026-09-01T09:08:10.860Z</time>
      </trkpt>
      <trkpt lat="49.31599" lon="1.13289">
        <ele>6</ele>
        <time>2026-09-01T09:08:15.205Z</time>
      </trkpt>
      <trkpt lat="49.316" lon="1.13284">
        <ele>6</ele>
        <time>2026-09-01T09:08:19.682Z</time>
      </trkpt>
      <trkpt lat="49.31599" lon="1.13275">
        <ele>6</ele>
        <time>2026-09-01T09:08:24.826Z</time>
      </trkpt>
      <trkpt lat="49.31598" lon="1.13269">
        <ele>6</ele>
        <time>2026-09-01T09:08:28.860Z</time>
      </trkpt>
      <trkpt lat="49.31598" lon="1.13264">
        <ele>6</ele>
        <time>2026-09-01T09:08:32.860Z</time>
      </trkpt>
      <trkpt lat="49.31598" lon="1.13258">
        <ele>6</ele>
        <time>2026-09-01T09:08:37.564Z</time>
      </trkpt>
      <trkpt lat="49.31595" lon="1.13255">
        <ele>1</ele>
        <time>2026-09-01T09:08:41.743Z</time>
      </trkpt>
      <trkpt lat="49.31595" lon="1.13248">
        <ele>1</ele>
        <time>2026-09-01T09:08:46.264Z</time>
      </trkpt>
      <trkpt lat="49.31596" lon="1.13237">
        <ele>1</ele>
        <time>2026-09-01T09:08:50.689Z</time>
      </trkpt>
      <trkpt lat="49.31596" lon="1.13229">
        <ele>1</ele>
        <time>2026-09-01T09:08:55.263Z</time>
      </trkpt>
      <trkpt lat="49.31596" lon="1.13222">
        <ele>1</ele>
        <time>2026-09-01T09:08:59.828Z</time>
      </trkpt>
      <trkpt lat="49.31596" lon="1.13214">
        <ele>1</ele>
        <time>2026-09-01T09:09:04.367Z</time>
      </trkpt>
      <trkpt lat="49.31595" lon="1.13207">
        <ele>1</ele>
        <time>2026-09-01T09:09:08.703Z</time>
      </trkpt>
      <trkpt lat="49.31595" lon="1.132">
        <ele>1</ele>
        <time>2026-09-01T09:09:13.242Z</time>
      </trkpt>
      <trkpt lat="49.31595" lon="1.13193">
        <ele>1</ele>
        <time>2026-09-01T09:09:17.526Z</time>
      </trkpt>
      <trkpt lat="49.31595" lon="1.13187">
        <ele>1</ele>
        <time>2026-09-01T09:09:21.860Z</time>
      </trkpt>
      <trkpt lat="49.31594" lon="1.1318">
        <ele>7</ele>
        <time>2026-09-01T09:09:26.402Z</time>
      </trkpt>
      <trkpt lat="49.31594" lon="1.13174">
        <ele>7</ele>
        <time>2026-09-01T09:09:30.860Z</time>
      </trkpt>
      <trkpt lat="49.31594" lon="1.13167">
        <ele>7</ele>
        <time>2026-09-01T09:09:35.189Z</time>
      </trkpt>
      <trkpt lat="49.31594" lon="1.13158">
        <ele>7</ele>
        <time>2026-09-01T09:09:39.588Z</time>
      </trkpt>
      <trkpt lat="49.31594" lon="1.13151">
        <ele>8</ele>
        <time>2026-09-01T09:09:43.859Z</time>
      </trkpt>
      <trkpt lat="49.31594" lon="1.13145">
        <ele>8</ele>
        <time>2026-09-01T09:09:48.525Z</time>
      </trkpt>
      <trkpt lat="49.31593" lon="1.13139">
        <ele>8</ele>
        <time>2026-09-01T09:09:52.860Z</time>
      </trkpt>
      <trkpt lat="49.31593" lon="1.13131">
        <ele>8</ele>
        <time>2026-09-01T09:09:57.690Z</time>
      </trkpt>
      <trkpt lat="49.31593" lon="1.13125">
        <ele>8</ele>
        <time>2026-09-01T09:10:01.860Z</time>
      </trkpt>
      <trkpt lat="49.31593" lon="1.13121">
        <ele>8</ele>
        <time>2026-09-01T09:10:06.403Z</time>
      </trkpt>
      <trkpt lat="49.31592" lon="1.13112">
        <ele>8</ele>
        <time>2026-09-01T09:10:10.845Z</time>
      </trkpt>
      <trkpt lat="49.31592" lon="1.13105">
        <ele>8</ele>
        <time>2026-09-01T09:10:15.182Z</time>
      </trkpt>
      <trkpt lat="49.31591" lon="1.13098">
        <ele>8</ele>
        <time>2026-09-01T09:10:19.703Z</time>
      </trkpt>
      <trkpt lat="49.31591" lon="1.13091">
        <ele>8</ele>
        <time>2026-09-01T09:10:24.190Z</time>
      </trkpt>
      <trkpt lat="49.3159" lon="1.13084">
        <ele>8</ele>
        <time>2026-09-01T09:10:28.728Z</time>
      </trkpt>
      <trkpt lat="49.3159" lon="1.13078">
        <ele>8</ele>
        <time>2026-09-01T09:10:33.206Z</time>
      </trkpt>
      <trkpt lat="49.3159" lon="1.13071">
        <ele>8</ele>
        <time>2026-09-01T09:10:37.622Z</time>
      </trkpt>
      <trkpt lat="49.31589" lon="1.13064">
        <ele>7</ele>
        <time>2026-09-01T09:10:42.090Z</time>
      </trkpt>
      <trkpt lat="49.31591" lon="1.1306">
        <ele>7</ele>
        <time>2026-09-01T09:10:46.860Z</time>
      </trkpt>
      <trkpt lat="49.31593" lon="1.13053">
        <ele>7</ele>
        <time>2026-09-01T09:10:51.203Z</time>
      </trkpt>
      <trkpt lat="49.31592" lon="1.13047">
        <ele>7</ele>
        <time>2026-09-01T09:10:55.610Z</time>
      </trkpt>
      <trkpt lat="49.31591" lon="1.13042">
        <ele>7</ele>
        <time>2026-09-01T09:10:59.666Z</time>
      </trkpt>
      <trkpt lat="49.3159" lon="1.13036">
        <ele>7</ele>
        <time>2026-09-01T09:11:04.169Z</time>
      </trkpt>
      <trkpt lat="49.31589" lon="1.13029">
        <ele>7</ele>
        <time>2026-09-01T09:11:08.550Z</time>
      </trkpt>
      <trkpt lat="49.31589" lon="1.13023">
        <ele>7</ele>
        <time>2026-09-01T09:11:12.860Z</time>
      </trkpt>
      <trkpt lat="49.31589" lon="1.13015">
        <ele>7</ele>
        <time>2026-09-01T09:11:17.144Z</time>
      </trkpt>
      <trkpt lat="49.31589" lon="1.13009">
        <ele>7</ele>
        <time>2026-09-01T09:11:21.464Z</time>
      </trkpt>
      <trkpt lat="49.31588" lon="1.13002">
        <ele>7</ele>
        <time>2026-09-01T09:11:25.827Z</time>
      </trkpt>
      <trkpt lat="49.31588" lon="1.12995">
        <ele>7</ele>
        <time>2026-09-01T09:11:29.860Z</time>
      </trkpt>
      <trkpt lat="49.31588" lon="1.12988">
        <ele>7</ele>
        <time>2026-09-01T09:11:34.307Z</time>
      </trkpt>
      <trkpt lat="49.31588" lon="1.12981">
        <ele>7</ele>
        <time>2026-09-01T09:11:38.608Z</time>
      </trkpt>
      <trkpt lat="49.31587" lon="1.12974">
        <ele>7</ele>
        <time>2026-09-01T09:11:42.743Z</time>
      </trkpt>
      <trkpt lat="49.31587" lon="1.12967">
        <ele>7</ele>
        <time>2026-09-01T09:11:47.124Z</time>
      </trkpt>
      <trkpt lat="49.31587" lon="1.12961">
        <ele>7</ele>
        <time>2026-09-01T09:11:51.610Z</time>
      </trkpt>
      <trkpt lat="49.31587" lon="1.12954">
        <ele>7</ele>
        <time>2026-09-01T09:11:56.104Z</time>
      </trkpt>
      <trkpt lat="49.31587" lon="1.12946">
        <ele>7</ele>
        <time>2026-09-01T09:12:00.485Z</time>
      </trkpt>
      <trkpt lat="49.31587" lon="1.1294">
        <ele>7</ele>
        <time>2026-09-01T09:12:04.860Z</time>
      </trkpt>
      <trkpt lat="49.31586" lon="1.12933">
        <ele>7</ele>
        <time>2026-09-01T09:12:09.264Z</time>
      </trkpt>
      <trkpt lat="49.31586" lon="1.12926">
        <ele>7</ele>
        <time>2026-09-01T09:12:13.662Z</time>
      </trkpt>
      <trkpt lat="49.31586" lon="1.1292">
        <ele>7</ele>
        <time>2026-09-01T09:12:17.860Z</time>
      </trkpt>
      <trkpt lat="49.31586" lon="1.12913">
        <ele>7</ele>
        <time>2026-09-01T09:12:22.449Z</time>
      </trkpt>
      <trkpt lat="49.31586" lon="1.12906">
        <ele>7</ele>
        <time>2026-09-01T09:12:26.847Z</time>
      </trkpt>
      <trkpt lat="49.31586" lon="1.129">
        <ele>7</ele>
        <time>2026-09-01T09:12:31.307Z</time>
      </trkpt>
      <trkpt lat="49.31586" lon="1.12893">
        <ele>7</ele>
        <time>2026-09-01T09:12:35.670Z</time>
      </trkpt>
      <trkpt lat="49.31585" lon="1.12886">
        <ele>7</ele>
        <time>2026-09-01T09:12:40.068Z</time>
      </trkpt>
      <trkpt lat="49.31584" lon="1.12879">
        <ele>7</ele>
        <time>2026-09-01T09:12:44.448Z</time>
      </trkpt>
      <trkpt lat="49.31584" lon="1.12871">
        <ele>7</ele>
        <time>2026-09-01T09:12:48.829Z</time>
      </trkpt>
      <trkpt lat="49.31584" lon="1.12864">
        <ele>7</ele>
        <time>2026-09-01T09:12:53.262Z</time>
      </trkpt>
      <trkpt lat="49.31584" lon="1.12856">
        <ele>7</ele>
        <time>2026-09-01T09:12:57.669Z</time>
      </trkpt>
      <trkpt lat="49.31583" lon="1.1285">
        <ele>7</ele>
        <time>2026-09-01T09:13:01.944Z</time>
      </trkpt>
      <trkpt lat="49.31583" lon="1.12843">
        <ele>7</ele>
        <time>2026-09-01T09:13:06.368Z</time>
      </trkpt>
      <trkpt lat="49.31583" lon="1.12836">
        <ele>7</ele>
        <time>2026-09-01T09:13:10.810Z</time>
      </trkpt>
      <trkpt lat="49.31583" lon="1.1283">
        <ele>7</ele>
        <time>2026-09-01T09:13:15.164Z</time>
      </trkpt>
      <trkpt lat="49.31583" lon="1.12823">
        <ele>7</ele>
        <time>2026-09-01T09:13:19.483Z</time>
      </trkpt>
      <trkpt lat="49.31583" lon="1.12816">
        <ele>7</ele>
        <time>2026-09-01T09:13:23.860Z</time>
      </trkpt>
      <trkpt lat="49.31582" lon="1.12809">
        <ele>7</ele>
        <time>2026-09-01T09:13:28.244Z</time>
      </trkpt>
      <trkpt lat="49.31582" lon="1.12802">
        <ele>7</ele>
        <time>2026-09-01T09:13:32.686Z</time>
      </trkpt>
      <trkpt lat="49.31582" lon="1.12795">
        <ele>7</ele>
        <time>2026-09-01T09:13:37.102Z</time>
      </trkpt>
      <trkpt lat="49.31581" lon="1.12788">
        <ele>7</ele>
        <time>2026-09-01T09:13:41.526Z</time>
      </trkpt>
      <trkpt lat="49.31581" lon="1.12782">
        <ele>7</ele>
        <time>2026-09-01T09:13:45.860Z</time>
      </trkpt>
      <trkpt lat="49.31581" lon="1.12775">
        <ele>7</ele>
        <time>2026-09-01T09:13:50.410Z</time>
      </trkpt>
      <trkpt lat="49.31581" lon="1.12768">
        <ele>7</ele>
        <time>2026-09-01T09:13:54.764Z</time>
      </trkpt>
      <trkpt lat="49.31581" lon="1.12761">
        <ele>7</ele>
        <time>2026-09-01T09:13:59.188Z</time>
      </trkpt>
      <trkpt lat="49.3158" lon="1.12754">
        <ele>7</ele>
        <time>2026-09-01T09:14:03.507Z</time>
      </trkpt>
      <trkpt lat="49.3158" lon="1.12747">
        <ele>7</ele>
        <time>2026-09-01T09:14:07.860Z</time>
      </trkpt>
      <trkpt lat="49.3158" lon="1.12739">
        <ele>7</ele>
        <time>2026-09-01T09:14:12.409Z</time>
      </trkpt>
      <trkpt lat="49.3158" lon="1.12732">
        <ele>8</ele>
        <time>2026-09-01T09:14:16.860Z</time>
      </trkpt>
      <trkpt lat="49.3158" lon="1.12725">
        <ele>8</ele>
        <time>2026-09-01T09:14:21.310Z</time>
      </trkpt>
      <trkpt lat="49.3158" lon="1.12718">
        <ele>8</ele>
        <time>2026-09-01T09:14:25.629Z</time>
      </trkpt>
      <trkpt lat="49.3158" lon="1.12711">
        <ele>8</ele>
        <time>2026-09-01T09:14:29.858Z</time>
      </trkpt>
      <trkpt lat="49.31579" lon="1.12705">
        <ele>7</ele>
        <time>2026-09-01T09:14:34.346Z</time>
      </trkpt>
      <trkpt lat="49.31579" lon="1.12698">
        <ele>7</ele>
        <time>2026-09-01T09:14:38.586Z</time>
      </trkpt>
      <trkpt lat="49.31579" lon="1.12691">
        <ele>7</ele>
        <time>2026-09-01T09:14:42.860Z</time>
      </trkpt>
      <trkpt lat="49.31579" lon="1.12684">
        <ele>7</ele>
        <time>2026-09-01T09:14:47.286Z</time>
      </trkpt>
      <trkpt lat="49.31579" lon="1.12678">
        <ele>7</ele>
        <time>2026-09-01T09:14:51.411Z</time>
      </trkpt>
      <trkpt lat="49.31578" lon="1.12671">
        <ele>7</ele>
        <time>2026-09-01T09:14:55.860Z</time>
      </trkpt>
      <trkpt lat="49.31577" lon="1.12664">
        <ele>7</ele>
        <time>2026-09-01T09:14:59.860Z</time>
      </trkpt>
      <trkpt lat="49.31577" lon="1.12658">
        <ele>7</ele>
        <time>2026-09-01T09:15:04.324Z</time>
      </trkpt>
      <trkpt lat="49.31576" lon="1.12652">
        <ele>7</ele>
        <time>2026-09-01T09:15:08.705Z</time>
      </trkpt>
      <trkpt lat="49.31576" lon="1.12645">
        <ele>7</ele>
        <time>2026-09-01T09:15:13.182Z</time>
      </trkpt>
      <trkpt lat="49.31576" lon="1.12638">
        <ele>7</ele>
        <time>2026-09-01T09:15:17.624Z</time>
      </trkpt>
      <trkpt lat="49.31576" lon="1.12631">
        <ele>7</ele>
        <time>2026-09-01T09:15:21.860Z</time>
      </trkpt>
      <trkpt lat="49.31576" lon="1.12624">
        <ele>6</ele>
        <time>2026-09-01T09:15:26.402Z</time>
      </trkpt>
      <trkpt lat="49.31576" lon="1.12618">
        <ele>6</ele>
        <time>2026-09-01T09:15:30.860Z</time>
      </trkpt>
      <trkpt lat="49.31575" lon="1.12612">
        <ele>6</ele>
        <time>2026-09-01T09:15:34.860Z</time>
      </trkpt>
      <trkpt lat="49.31574" lon="1.12606">
        <ele>6</ele>
        <time>2026-09-01T09:15:39.069Z</time>
      </trkpt>
      <trkpt lat="49.31569" lon="1.12607">
        <ele>5</ele>
        <time>2026-09-01T09:15:43.186Z</time>
      </trkpt>
      <trkpt lat="49.31566" lon="1.12614">
        <ele>5</ele>
        <time>2026-09-01T09:15:47.860Z</time>
      </trkpt>
      <trkpt lat="49.31565" lon="1.12615">
        <ele>5</ele>
        <time>2026-09-01T09:15:59.860Z</time>
      </trkpt>
      <trkpt lat="49.31565" lon="1.12615">
        <ele>5</ele>
        <time>2026-09-01T09:16:06.859Z</time>
      </trkpt>
      <trkpt lat="49.31565" lon="1.12614">
        <ele>5</ele>
        <time>2026-09-01T09:16:11.207Z</time>
      </trkpt>
      <trkpt lat="49.31569" lon="1.12607">
        <ele>5</ele>
        <time>2026-09-01T09:16:15.245Z</time>
      </trkpt>
      <trkpt lat="49.31574" lon="1.12601">
        <ele>6</ele>
        <time>2026-09-01T09:16:19.362Z</time>
      </trkpt>
      <trkpt lat="49.31579" lon="1.12591">
        <ele>6</ele>
        <time>2026-09-01T09:17:49.503Z</time>
      </trkpt>
      <trkpt lat="49.3158" lon="1.12591">
        <ele>6</ele>
        <time>2026-09-01T09:17:53.859Z</time>
      </trkpt>
      <trkpt lat="49.31582" lon="1.12589">
        <ele>6</ele>
        <time>2026-09-01T09:17:57.860Z</time>
      </trkpt>
      <trkpt lat="49.31587" lon="1.12588">
        <ele>6</ele>
        <time>2026-09-01T09:18:02.004Z</time>
      </trkpt>
      <trkpt lat="49.31591" lon="1.12588">
        <ele>6</ele>
        <time>2026-09-01T09:18:06.086Z</time>
      </trkpt>
      <trkpt lat="49.31595" lon="1.12588">
        <ele>6</ele>
        <time>2026-09-01T09:18:10.467Z</time>
      </trkpt>
      <trkpt lat="49.31599" lon="1.12587">
        <ele>7</ele>
        <time>2026-09-01T09:18:14.786Z</time>
      </trkpt>
      <trkpt lat="49.31603" lon="1.12582">
        <ele>7</ele>
        <time>2026-09-01T09:18:19.387Z</time>
      </trkpt>
      <trkpt lat="49.31606" lon="1.12577">
        <ele>7</ele>
        <time>2026-09-01T09:18:23.811Z</time>
      </trkpt>
      <trkpt lat="49.31608" lon="1.12572">
        <ele>7</ele>
        <time>2026-09-01T09:18:28.209Z</time>
      </trkpt>
      <trkpt lat="49.31612" lon="1.12566">
        <ele>7</ele>
        <time>2026-09-01T09:18:32.827Z</time>
      </trkpt>
      <trkpt lat="49.31616" lon="1.12563">
        <ele>7</ele>
        <time>2026-09-01T09:18:37.287Z</time>
      </trkpt>
      <trkpt lat="49.3162" lon="1.12562">
        <ele>7</ele>
        <time>2026-09-01T09:18:41.826Z</time>
      </trkpt>
      <trkpt lat="49.31623" lon="1.1256">
        <ele>7</ele>
        <time>2026-09-01T09:18:46.268Z</time>
      </trkpt>
      <trkpt lat="49.31627" lon="1.12557">
        <ele>7</ele>
        <time>2026-09-01T09:18:50.384Z</time>
      </trkpt>
      <trkpt lat="49.31631" lon="1.12552">
        <ele>7</ele>
        <time>2026-09-01T09:18:54.860Z</time>
      </trkpt>
      <trkpt lat="49.31634" lon="1.12547">
        <ele>7</ele>
        <time>2026-09-01T09:18:59.208Z</time>
      </trkpt>
      <trkpt lat="49.31637" lon="1.12543">
        <ele>7</ele>
        <time>2026-09-01T09:19:03.290Z</time>
      </trkpt>
      <trkpt lat="49.31639" lon="1.12544">
        <ele>7</ele>
        <time>2026-09-01T09:19:07.749Z</time>
      </trkpt>
      <trkpt lat="49.31644" lon="1.12542">
        <ele>7</ele>
        <time>2026-09-01T09:19:11.860Z</time>
      </trkpt>
      <trkpt lat="49.31649" lon="1.12539">
        <ele>7</ele>
        <time>2026-09-01T09:19:16.247Z</time>
      </trkpt>
      <trkpt lat="49.31654" lon="1.12537">
        <ele>7</ele>
        <time>2026-09-01T09:19:20.444Z</time>
      </trkpt>
      <trkpt lat="49.31658" lon="1.12535">
        <ele>7</ele>
        <time>2026-09-01T09:19:24.631Z</time>
      </trkpt>
      <trkpt lat="49.31661" lon="1.12531">
        <ele>7</ele>
        <time>2026-09-01T09:19:28.860Z</time>
      </trkpt>
      <trkpt lat="49.31664" lon="1.12525">
        <ele>7</ele>
        <time>2026-09-01T09:19:33.208Z</time>
      </trkpt>
      <trkpt lat="49.31667" lon="1.1252">
        <ele>7</ele>
        <time>2026-09-01T09:19:37.589Z</time>
      </trkpt>
      <trkpt lat="49.31671" lon="1.12514">
        <ele>7</ele>
        <time>2026-09-01T09:19:42.189Z</time>
      </trkpt>
      <trkpt lat="49.31674" lon="1.12509">
        <ele>7</ele>
        <time>2026-09-01T09:19:46.350Z</time>
      </trkpt>
      <trkpt lat="49.31677" lon="1.12504">
        <ele>7</ele>
        <time>2026-09-01T09:19:50.860Z</time>
      </trkpt>
      <trkpt lat="49.31681" lon="1.125">
        <ele>5</ele>
        <time>2026-09-01T09:19:55.146Z</time>
      </trkpt>
      <trkpt lat="49.31686" lon="1.12497">
        <ele>5</ele>
        <time>2026-09-01T09:19:59.729Z</time>
      </trkpt>
      <trkpt lat="49.31689" lon="1.12493">
        <ele>5</ele>
        <time>2026-09-01T09:20:03.749Z</time>
      </trkpt>
      <trkpt lat="49.31693" lon="1.12493">
        <ele>5</ele>
        <time>2026-09-01T09:20:07.860Z</time>
      </trkpt>
      <trkpt lat="49.31698" lon="1.12489">
        <ele>5</ele>
        <time>2026-09-01T09:20:12.247Z</time>
      </trkpt>
      <trkpt lat="49.317" lon="1.12484">
        <ele>5</ele>
        <time>2026-09-01T09:20:16.268Z</time>
      </trkpt>
      <trkpt lat="49.31703" lon="1.12479">
        <ele>5</ele>
        <time>2026-09-01T09:20:20.665Z</time>
      </trkpt>
      <trkpt lat="49.31706" lon="1.12472">
        <ele>5</ele>
        <time>2026-09-01T09:20:25.547Z</time>
      </trkpt>
      <trkpt lat="49.31708" lon="1.12466">
        <ele>5</ele>
        <time>2026-09-01T09:20:29.646Z</time>
      </trkpt>
      <trkpt lat="49.3171" lon="1.1246">
        <ele>4</ele>
        <time>2026-09-01T09:20:33.790Z</time>
      </trkpt>
      <trkpt lat="49.31713" lon="1.12454">
        <ele>4</ele>
        <time>2026-09-01T09:20:38.284Z</time>
      </trkpt>
      <trkpt lat="49.31714" lon="1.12449">
        <ele>4</ele>
        <time>2026-09-01T09:20:42.287Z</time>
      </trkpt>
      <trkpt lat="49.31717" lon="1.12444">
        <ele>4</ele>
        <time>2026-09-01T09:20:46.387Z</time>
      </trkpt>
      <trkpt lat="49.31719" lon="1.12439">
        <ele>4</ele>
        <time>2026-09-01T09:20:50.860Z</time>
      </trkpt>
      <trkpt lat="49.31723" lon="1.12433">
        <ele>4</ele>
        <time>2026-09-01T09:20:55.666Z</time>
      </trkpt>
      <trkpt lat="49.31726" lon="1.12428">
        <ele>5</ele>
        <time>2026-09-01T09:20:59.792Z</time>
      </trkpt>
      <trkpt lat="49.31728" lon="1.12424">
        <ele>5</ele>
        <time>2026-09-01T09:21:03.860Z</time>
      </trkpt>
      <trkpt lat="49.31731" lon="1.12419">
        <ele>5</ele>
        <time>2026-09-01T09:21:08.008Z</time>
      </trkpt>
      <trkpt lat="49.31734" lon="1.12415">
        <ele>5</ele>
        <time>2026-09-01T09:21:12.152Z</time>
      </trkpt>
      <trkpt lat="49.31737" lon="1.1241">
        <ele>6</ele>
        <time>2026-09-01T09:21:16.251Z</time>
      </trkpt>
      <trkpt lat="49.3174" lon="1.12405">
        <ele>6</ele>
        <time>2026-09-01T09:21:20.307Z</time>
      </trkpt>
      <trkpt lat="49.31744" lon="1.124">
        <ele>6</ele>
        <time>2026-09-01T09:21:24.389Z</time>
      </trkpt>
      <trkpt lat="49.31747" lon="1.12395">
        <ele>6</ele>
        <time>2026-09-01T09:21:28.489Z</time>
      </trkpt>
      <trkpt lat="49.3175" lon="1.1239">
        <ele>6</ele>
        <time>2026-09-01T09:21:32.606Z</time>
      </trkpt>
      <trkpt lat="49.31754" lon="1.12387">
        <ele>6</ele>
        <time>2026-09-01T09:21:36.705Z</time>
      </trkpt>
      <trkpt lat="49.31757" lon="1.12383">
        <ele>6</ele>
        <time>2026-09-01T09:21:40.805Z</time>
      </trkpt>
      <trkpt lat="49.31761" lon="1.12381">
        <ele>6</ele>
        <time>2026-09-01T09:21:44.860Z</time>
      </trkpt>
      <trkpt lat="49.31765" lon="1.12377">
        <ele>7</ele>
        <time>2026-09-01T09:21:49.311Z</time>
      </trkpt>
      <trkpt lat="49.3177" lon="1.12375">
        <ele>7</ele>
        <time>2026-09-01T09:21:53.709Z</time>
      </trkpt>
      <trkpt lat="49.31774" lon="1.12375">
        <ele>7</ele>
        <time>2026-09-01T09:21:58.248Z</time>
      </trkpt>
      <trkpt lat="49.31778" lon="1.12376">
        <ele>7</ele>
        <time>2026-09-01T09:22:02.690Z</time>
      </trkpt>
      <trkpt lat="49.31781" lon="1.12375">
        <ele>7</ele>
        <time>2026-09-01T09:22:06.965Z</time>
      </trkpt>
      <trkpt lat="49.31785" lon="1.12373">
        <ele>7</ele>
        <time>2026-09-01T09:22:11.064Z</time>
      </trkpt>
      <trkpt lat="49.31789" lon="1.12371">
        <ele>7</ele>
        <time>2026-09-01T09:22:15.392Z</time>
      </trkpt>
      <trkpt lat="49.31792" lon="1.12368">
        <ele>8</ele>
        <time>2026-09-01T09:22:19.527Z</time>
      </trkpt>
      <trkpt lat="49.31794" lon="1.12361">
        <ele>8</ele>
        <time>2026-09-01T09:22:23.626Z</time>
      </trkpt>
      <trkpt lat="49.31793" lon="1.12356">
        <ele>8</ele>
        <time>2026-09-01T09:22:27.849Z</time>
      </trkpt>
      <trkpt lat="49.31793" lon="1.1235">
        <ele>8</ele>
        <time>2026-09-01T09:22:32.045Z</time>
      </trkpt>
      <trkpt lat="49.31792" lon="1.12343">
        <ele>8</ele>
        <time>2026-09-01T09:22:36.206Z</time>
      </trkpt>
      <trkpt lat="49.31792" lon="1.12337">
        <ele>8</ele>
        <time>2026-09-01T09:22:40.367Z</time>
      </trkpt>
      <trkpt lat="49.31791" lon="1.1233">
        <ele>7</ele>
        <time>2026-09-01T09:22:44.510Z</time>
      </trkpt>
      <trkpt lat="49.3179" lon="1.12324">
        <ele>7</ele>
        <time>2026-09-01T09:22:48.627Z</time>
      </trkpt>
      <trkpt lat="49.31789" lon="1.12318">
        <ele>6</ele>
        <time>2026-09-01T09:22:52.630Z</time>
      </trkpt>
      <trkpt lat="49.31788" lon="1.12314">
        <ele>6</ele>
        <time>2026-09-01T09:22:56.860Z</time>
      </trkpt>
      <trkpt lat="49.31788" lon="1.12313">
        <ele>6</ele>
        <time>2026-09-01T09:23:01.860Z</time>
      </trkpt>
      <trkpt lat="49.31787" lon="1.1231">
        <ele>6</ele>
        <time>2026-09-01T09:23:06.087Z</time>
      </trkpt>
      <trkpt lat="49.31787" lon="1.12302">
        <ele>6</ele>
        <time>2026-09-01T09:23:10.248Z</time>
      </trkpt>
      <trkpt lat="49.31786" lon="1.12295">
        <ele>6</ele>
        <time>2026-09-01T09:23:14.488Z</time>
      </trkpt>
      <trkpt lat="49.31786" lon="1.1229">
        <ele>6</ele>
        <time>2026-09-01T09:23:18.526Z</time>
      </trkpt>
      <trkpt lat="49.31784" lon="1.12285">
        <ele>6</ele>
        <time>2026-09-01T09:23:22.860Z</time>
      </trkpt>
      <trkpt lat="49.31783" lon="1.1228">
        <ele>6</ele>
        <time>2026-09-01T09:23:27.568Z</time>
      </trkpt>
      <trkpt lat="49.31782" lon="1.12276">
        <ele>6</ele>
        <time>2026-09-01T09:23:31.860Z</time>
      </trkpt>
      <trkpt lat="49.31784" lon="1.12251">
        <ele>6</ele>
        <time>2026-09-01T09:28:16.860Z</time>
      </trkpt>
      <trkpt lat="49.31784" lon="1.12251">
        <ele>6</ele>
        <time>2026-09-01T09:28:21.859Z</time>
      </trkpt>
      <trkpt lat="49.31784" lon="1.12251">
        <ele>6</ele>
        <time>2026-09-01T09:28:26.858Z</time>
      </trkpt>
      <trkpt lat="49.31784" lon="1.12251">
        <ele>6</ele>
        <time>2026-09-01T09:28:32.859Z</time>
      </trkpt>
      <trkpt lat="49.31784" lon="1.12251">
        <ele>6</ele>
        <time>2026-09-01T09:28:37.191Z</time>
      </trkpt>
    </trkseg>
  </trk>
</gpx>